Provisional Data: Quittapahilla Creek near Syner, PA


Please select a monitoring station.
Please select start date.
Please select start date.

Toggle Unit: C/F Toggle Unit: C/F
Sample Time Temperature (C) Temperature (F) Specific Conductivity (mS/cm) pH   Turbidity (NTU+) DO (mg/L)
9/6/2021 12:00:00 AM 16.32 61.376 0.636 7.67 13.8 8.54
9/6/2021 12:15:00 AM 16.3 61.34 0.637 7.67 15.86 8.54
9/6/2021 12:30:00 AM 16.29 61.322 0.638 7.67 18.09 8.53
9/6/2021 12:45:00 AM 16.28 61.304 0.638 7.67 16.78 8.54
9/6/2021 1:00:00 AM 16.26 61.268 0.639 7.68 15.57 8.54
9/6/2021 1:15:00 AM 16.25 61.25 0.64 7.67 14.53 8.53
9/6/2021 1:30:00 AM 16.23 61.214 0.641 7.67 16.59 8.52
9/6/2021 1:45:00 AM 16.22 61.196 0.641 7.67 12.47 8.52
9/6/2021 2:00:00 AM 16.19 61.142 0.64 7.66 14.03 8.5
9/6/2021 2:15:00 AM 16.15 61.07 0.64 7.66 15.08 8.51
9/6/2021 2:30:00 AM 16.09 60.962 0.635 7.66 12.48 8.5
9/6/2021 2:45:00 AM 16.05 60.89 0.632 7.66 13.74 8.53
9/6/2021 3:00:00 AM 16.03 60.854 0.632 7.66 12.99 8.51
9/6/2021 3:15:00 AM 16.01 60.818 0.632 7.65 13.62 8.51
9/6/2021 3:30:00 AM 16 60.8 0.632 7.66 13.18 8.51
9/6/2021 3:45:00 AM 15.98 60.764 0.632 7.66 15.3 8.51
9/6/2021 4:00:00 AM 15.97 60.746 0.632 7.66 15.45 8.52
9/6/2021 4:15:00 AM 15.96 60.728 0.633 7.66 13.05 8.51
9/6/2021 4:30:00 AM 15.94 60.692 0.633 7.66 15.48 8.51
9/6/2021 4:45:00 AM 15.92 60.656 0.633 7.66 13.26 8.52
9/6/2021 5:00:00 AM 15.9 60.62 0.633 7.66 14.76 8.51
9/6/2021 5:15:00 AM 15.89 60.602 0.633 7.67 13.9 8.52
9/6/2021 5:30:00 AM 15.87 60.566 0.633 7.67 14.07 8.52
9/6/2021 5:45:00 AM 15.85 60.53 0.634 7.66 13.72 8.52
9/6/2021 6:00:00 AM 15.83 60.494 0.634 7.66 13.04 8.52
9/6/2021 6:15:00 AM 15.8 60.44 0.634 7.66 12.77 8.52
9/6/2021 6:30:00 AM 15.79 60.422 0.634 7.65 12.7 8.52
9/6/2021 6:45:00 AM 15.77 60.386 0.634 7.65 12.86 8.54
9/6/2021 7:00:00 AM 15.75 60.35 0.635 7.66 11.99 8.53
9/6/2021 7:15:00 AM 15.73 60.314 0.635 7.66 11.94 8.55
9/6/2021 7:30:00 AM 15.71 60.278 0.635 7.67 13.49 8.56
9/6/2021 7:45:00 AM 15.69 60.242 0.635 7.68 11.34 8.56
9/6/2021 8:00:00 AM 15.68 60.224 0.635 7.67 13.55 8.59
9/6/2021 8:15:00 AM 15.68 60.224 0.635 7.67 11.38 8.61
9/6/2021 8:30:00 AM 15.68 60.224 0.635 7.68 10.59 8.62
9/6/2021 8:45:00 AM 15.69 60.242 0.635 7.67 10.75 8.65
9/6/2021 9:00:00 AM 15.71 60.278 0.635 7.67 11.39 8.66
9/6/2021 9:15:00 AM 15.74 60.332 0.635 7.68 9.97 8.67
9/6/2021 9:30:00 AM 15.78 60.404 0.635 7.69 9.71 8.7
9/6/2021 9:45:00 AM 15.82 60.476 0.635 7.69 12.18 8.72
9/6/2021 10:00:00 AM 15.86 60.548 0.635 7.69 10.18 8.75
9/6/2021 10:15:00 AM 15.9 60.62 0.635 7.7 9.55 8.78
9/6/2021 10:30:00 AM 15.95 60.71 0.635 7.7 10.12 8.8
9/6/2021 10:45:00 AM 16 60.8 0.635 7.7 8.82 8.82
9/6/2021 11:00:00 AM 16.06 60.908 0.635 7.71 7.46 8.87
9/6/2021 11:15:00 AM 16.12 61.016 0.635 7.71 8.89 8.88
9/6/2021 11:30:00 AM 16.19 61.142 0.635 7.72 7.87 8.9
9/6/2021 11:45:00 AM 16.27 61.286 0.635 7.72 8.24 8.94
9/6/2021 12:00:00 PM 16.34 61.412 0.635 7.72 9.07 8.95
9/6/2021 12:15:00 PM 16.42 61.556 0.635 7.73 8.66 8.97
9/6/2021 12:30:00 PM 16.51 61.718 0.636 7.73 8.72 8.98
9/6/2021 12:45:00 PM 16.6 61.88 0.636 7.73 7.72 9.01
9/6/2021 1:00:00 PM 16.68 62.024 0.636 7.74 8.28 9.02
9/6/2021 1:15:00 PM 16.76 62.168 0.636 7.74 13.84 9.03
9/6/2021 1:30:00 PM 16.85 62.33 0.636 7.75 7.44 9.04
9/6/2021 1:45:00 PM 16.92 62.456 0.636 7.75 7.8 9.06
9/6/2021 2:00:00 PM 16.98 62.564 0.637 7.76 7.32 9.07
9/6/2021 2:15:00 PM 17.06 62.708 0.637 7.75 8 9.06
9/6/2021 2:30:00 PM 17.09 62.762 0.637 7.75 7.08 9.06
9/6/2021 2:45:00 PM 17.12 62.816 0.637 7.76 6.35 9.06
9/6/2021 3:00:00 PM 17.22 62.996 0.637 7.77 8.53 9.07
9/6/2021 3:15:00 PM 17.29 63.122 0.64 7.77 6.8 9.08
9/6/2021 3:30:00 PM 17.4 63.32 0.647 7.76 9.66 9.07
9/6/2021 3:45:00 PM 17.48 63.464 0.65 7.77 8.18 9.05
9/6/2021 4:00:00 PM 17.54 63.572 0.651 7.77 6.88 9.05
9/6/2021 4:15:00 PM 17.57 63.626 0.651 7.77 7.11 9.04
9/6/2021 4:30:00 PM 17.58 63.644 0.652 7.78 7.82 9.02
9/6/2021 4:45:00 PM 17.56 63.608 0.652 7.77 8.07 9
9/6/2021 5:00:00 PM 17.55 63.59 0.652 7.77 8.1 8.98
9/6/2021 5:15:00 PM 17.53 63.554 0.652 7.77 7.86 8.95
9/6/2021 5:30:00 PM 17.52 63.536 0.652 7.78 6.88 8.94
9/6/2021 5:45:00 PM 17.5 63.5 0.652 7.78 7.45 8.92
9/6/2021 6:00:00 PM 17.48 63.464 0.652 7.78 6.77 8.89
9/6/2021 6:15:00 PM 17.45 63.41 0.652 7.78 7.19 8.87
9/6/2021 6:30:00 PM 17.42 63.356 0.652 7.78 8.29 8.84
9/6/2021 6:45:00 PM 17.39 63.302 0.652 7.77 10.64 8.81
9/6/2021 7:00:00 PM 17.36 63.248 0.653 7.73 7 8.79
9/6/2021 7:15:00 PM 17.33 63.194 0.653 7.71 8.09 8.77
9/6/2021 7:30:00 PM 17.3 63.14 0.653 7.72 8.82 8.74
9/6/2021 7:45:00 PM 17.26 63.068 0.652 7.7 9.34 8.69
9/6/2021 8:00:00 PM 17.22 62.996 0.651 7.7 8.07 8.68
9/6/2021 8:15:00 PM 17.15 62.87 0.646 7.74 7.98 8.66
9/6/2021 8:30:00 PM 17.08 62.744 0.642 7.7 9.68 8.65
9/6/2021 8:45:00 PM 17.04 62.672 0.64 7.7 10.23 8.65
9/6/2021 9:00:00 PM 17 62.6 0.64 7.75 9.52 8.64
9/6/2021 9:15:00 PM 16.97 62.546 0.64 7.75 11.33 8.63
9/6/2021 9:30:00 PM 16.95 62.51 0.64 7.7 11.25 8.6
9/6/2021 9:45:00 PM 16.92 62.456 0.64 7.69 10.01 8.6
9/6/2021 10:00:00 PM 16.89 62.402 0.64 7.75 10.2 8.58
9/6/2021 10:15:00 PM 16.87 62.366 0.64 7.69 13.39 8.58
9/6/2021 10:30:00 PM 16.84 62.312 0.64 7.71 10.49 8.57
9/6/2021 10:45:00 PM 16.82 62.276 0.64 7.69 9.5 8.55
9/6/2021 11:00:00 PM 16.79 62.222 0.64 7.72 12.41 8.55
9/6/2021 11:15:00 PM 16.76 62.168 0.64 7.72 12.14 8.55
9/6/2021 11:30:00 PM 16.73 62.114 0.64 7.74 12.6 8.56
9/6/2021 11:45:00 PM 16.7 62.06 0.64 7.74 9.52 8.54
9/7/2021 12:00:00 AM 16.67 62.006 0.64 7.7 11.31 8.54
9/7/2021 12:15:00 AM 16.64 61.952 0.64 7.72 10.99 8.53
9/7/2021 12:30:00 AM 16.61 61.898 0.641 7.7 13.08 8.54
9/7/2021 12:45:00 AM 16.57 61.826 0.641 7.72 9.4 8.54
9/7/2021 1:00:00 AM 16.53 61.754 0.641 7.72 12.69 8.54
9/7/2021 1:15:00 AM 16.5 61.7 0.641 7.72 8.95 8.54
9/7/2021 1:30:00 AM 16.46 61.628 0.641 7.71 10.02 8.53
9/7/2021 1:45:00 AM 16.42 61.556 0.641 7.7 11.83 8.54
9/7/2021 2:00:00 AM 16.38 61.484 0.641 7.71 12.6 8.53
9/7/2021 2:15:00 AM 16.35 61.43 0.642 7.69 10.92 8.54
9/7/2021 2:30:00 AM 16.3 61.34 0.642 7.71 11.8 8.54
9/7/2021 2:45:00 AM 16.26 61.268 0.642 7.72 8.59 8.55
9/7/2021 3:00:00 AM 16.22 61.196 0.642 7.74 12.4 8.55
9/7/2021 3:15:00 AM 16.18 61.124 0.642 7.73 14.38 8.55
9/7/2021 3:30:00 AM 16.14 61.052 0.642 7.73 10.23 8.57
9/7/2021 3:45:00 AM 16.09 60.962 0.642 7.73 12.09 8.55
9/7/2021 4:00:00 AM 16.05 60.89 0.643 7.73 14.29 8.57
9/7/2021 4:15:00 AM 16.01 60.818 0.643 7.73 12.01 8.56
9/7/2021 4:30:00 AM 15.96 60.728 0.643 7.73 13.18 8.56
9/7/2021 4:45:00 AM 15.92 60.656 0.643 7.73 10.78 8.58
9/7/2021 5:00:00 AM 15.87 60.566 0.643 7.73 10.13 8.59
9/7/2021 5:15:00 AM 15.83 60.494 0.643 7.73 10.21 8.59
9/7/2021 5:30:00 AM 15.78 60.404 0.643 7.73 9.34 8.59
9/7/2021 5:45:00 AM 15.74 60.332 0.643 7.73 14.54 8.6
9/7/2021 6:00:00 AM 15.7 60.26 0.643 7.73 10.14 8.61
9/7/2021 6:15:00 AM 15.65 60.17 0.643 7.72 11.59 8.6
9/7/2021 6:30:00 AM 15.61 60.098 0.643 7.73 10.15 8.61
9/7/2021 6:45:00 AM 15.57 60.026 0.643 7.72 9.44 8.62
9/7/2021 7:00:00 AM 15.53 59.954 0.643 7.74 10.44 8.64
9/7/2021 7:15:00 AM 15.49 59.882 0.643 7.73 9.3 8.65
9/7/2021 7:30:00 AM 15.45 59.81 0.643 7.73 9.16 8.66
9/7/2021 7:45:00 AM 15.42 59.756 0.643 7.73 9 8.67
9/7/2021 8:00:00 AM 15.4 59.72 0.643 7.73 9.01 8.7
9/7/2021 8:15:00 AM 15.38 59.684 0.643 7.73 9 8.72
9/7/2021 8:30:00 AM 15.38 59.684 0.643 7.73 7.62 8.74
9/7/2021 8:45:00 AM 15.38 59.684 0.643 7.73 11.3 8.77
9/7/2021 9:00:00 AM 15.39 59.702 0.643 7.72 8.13 8.79
9/7/2021 9:15:00 AM 15.41 59.738 0.643 7.73 7.75 8.82
9/7/2021 9:30:00 AM 15.44 59.792 0.643 7.74 7.93 8.85
9/7/2021 9:45:00 AM 15.48 59.864 0.643 7.74 7.51 8.88
9/7/2021 10:00:00 AM 15.52 59.936 0.643 7.75 8.49 8.91
9/7/2021 10:15:00 AM 15.56 60.008 0.643 7.74 7.04 8.93
9/7/2021 10:30:00 AM 15.61 60.098 0.643 7.75 6.35 8.97
9/7/2021 10:45:00 AM 15.66 60.188 0.643 7.75 6.48 9.01
9/7/2021 11:00:00 AM 15.72 60.296 0.643 7.75 6.25 9.04
9/7/2021 11:15:00 AM 15.78 60.404 0.643 7.76 6.48 9.06
9/7/2021 11:30:00 AM 15.85 60.53 0.643 7.76 6 9.1
9/7/2021 11:45:00 AM 15.91 60.638 0.643 7.76 6.59 9.11
9/7/2021 12:00:00 PM 15.98 60.764 0.643 7.77 8.44 9.15
9/7/2021 12:15:00 PM 16.05 60.89 0.643 7.77 6.8 9.18
9/7/2021 12:30:00 PM 16.13 61.034 0.643 7.78 6.76 9.2
9/7/2021 12:45:00 PM 16.2 61.16 0.643 7.78 6.47 9.22
9/7/2021 1:00:00 PM 16.28 61.304 0.643 7.78 6.71 9.25
9/7/2021 1:15:00 PM 16.35 61.43 0.643 7.79 5.36 9.25
9/7/2021 1:30:00 PM 16.43 61.574 0.643 7.79 5.65 9.27
9/7/2021 1:45:00 PM 16.51 61.718 0.643 7.79 6.28 9.28
9/7/2021 2:00:00 PM 16.58 61.844 0.643 7.79 6.73 9.28
9/7/2021 2:15:00 PM 16.64 61.952 0.643 7.8 6.39 9.3
9/7/2021 2:30:00 PM 16.7 62.06 0.643 7.81 5.8 9.3
9/7/2021 2:45:00 PM 16.75 62.15 0.643 7.8 5.4 9.31
9/7/2021 3:00:00 PM 16.81 62.258 0.643 7.8 6.23 9.33
9/7/2021 3:15:00 PM 16.84 62.312 0.643 7.81 6.05 9.32
9/7/2021 3:30:00 PM 16.87 62.366 0.643 7.81 5.44 9.31
9/7/2021 3:45:00 PM 16.94 62.492 0.643 7.81 6.21 9.31
9/7/2021 4:00:00 PM 17 62.6 0.643 7.82 6.67 9.3
9/7/2021 4:15:00 PM 17.01 62.618 0.644 7.81 8.56 9.27
9/7/2021 4:30:00 PM 16.99 62.582 0.643 7.82 6.63 9.25
9/7/2021 4:45:00 PM 17 62.6 0.644 7.81 6.25 9.23
9/7/2021 5:00:00 PM 17.02 62.636 0.643 7.8 7.05 9.21
9/7/2021 5:15:00 PM 17.02 62.636 0.644 7.81 5.58 9.18
9/7/2021 5:30:00 PM 17.01 62.618 0.644 7.81 6.39 9.13
9/7/2021 5:45:00 PM 17.01 62.618 0.644 7.81 6.39 9.11
9/7/2021 6:00:00 PM 17 62.6 0.644 7.81 5.05 9.08
9/7/2021 6:15:00 PM 16.99 62.582 0.644 7.82 5.58 9.06
9/7/2021 6:30:00 PM 16.99 62.582 0.643 7.81 6.03 9.03
9/7/2021 6:45:00 PM 16.99 62.582 0.643 7.81 5.9 9.01
9/7/2021 7:00:00 PM 16.99 62.582 0.643 7.8 6.41 8.99
9/7/2021 7:15:00 PM 16.98 62.564 0.643 7.81 6.71 8.97
9/7/2021 7:30:00 PM 16.96 62.528 0.643 7.81 7.49 8.94
9/7/2021 7:45:00 PM 16.95 62.51 0.643 7.81 6.46 8.9
9/7/2021 8:00:00 PM 16.93 62.474 0.643 7.81 7.89 8.88
9/7/2021 8:15:00 PM 16.92 62.456 0.644 7.79 6.51 8.85
9/7/2021 8:30:00 PM 16.91 62.438 0.643 7.8 7.06 8.82
9/7/2021 8:45:00 PM 16.89 62.402 0.643 7.79 7.76 8.81
9/7/2021 9:00:00 PM 16.87 62.366 0.643 7.8 9.06 8.79
9/7/2021 9:15:00 PM 16.84 62.312 0.643 7.79 7.88 8.78
9/7/2021 9:30:00 PM 16.81 62.258 0.643 7.79 9.09 8.77
9/7/2021 9:45:00 PM 16.79 62.222 0.642 7.79 11.7 8.76
9/7/2021 10:00:00 PM 16.76 62.168 0.642 7.79 8.51 8.74
9/7/2021 10:15:00 PM 16.74 62.132 0.642 7.78 9.46 8.72
9/7/2021 10:30:00 PM 16.73 62.114 0.642 7.79 8.71 8.7
9/7/2021 10:45:00 PM 16.71 62.078 0.643 7.78 7.61 8.7
9/7/2021 11:00:00 PM 16.69 62.042 0.643 7.78 8.79 8.68
9/7/2021 11:15:00 PM 16.68 62.024 0.643 7.78 8.59 8.67
9/7/2021 11:30:00 PM 16.67 62.006 0.643 7.78 7.11 8.64
9/7/2021 11:45:00 PM 16.65 61.97 0.643 7.78 6.69 8.65
9/8/2021 12:00:00 AM 16.64 61.952 0.643 7.79 8.85 8.63
9/8/2021 12:15:00 AM 16.63 61.934 0.643 7.77 10.66 8.64
9/8/2021 12:30:00 AM 16.63 61.934 0.644 7.77 7.77 8.64
9/8/2021 12:45:00 AM 16.68 62.024 0.651 7.77 9.13 8.62
9/8/2021 1:00:00 AM 16.7 62.06 0.655 7.77 8.78 8.61
9/8/2021 1:15:00 AM 16.71 62.078 0.657 7.78 7.44 8.6
9/8/2021 1:30:00 AM 16.7 62.06 0.658 7.77 10.3 8.6
9/8/2021 1:45:00 AM 16.69 62.042 0.658 7.77 9.16 8.59
9/8/2021 2:00:00 AM 16.67 62.006 0.659 7.77 9.47 8.59
9/8/2021 2:15:00 AM 16.65 61.97 0.659 7.77 8.98 8.59
9/8/2021 2:30:00 AM 16.63 61.934 0.659 7.77 8.94 8.58
9/8/2021 2:45:00 AM 16.61 61.898 0.66 7.76 8.14 8.58
9/8/2021 3:00:00 AM 16.58 61.844 0.66 7.77 6.79 8.57
9/8/2021 3:15:00 AM 16.56 61.808 0.66 7.77 6.66 8.57
9/8/2021 3:30:00 AM 16.53 61.754 0.66 7.77 9.83 8.58
9/8/2021 3:45:00 AM 16.49 61.682 0.66 7.77 7.21 8.56
9/8/2021 4:00:00 AM 16.46 61.628 0.66 7.76 14.89 8.57
9/8/2021 4:15:00 AM 16.43 61.574 0.66 7.77 7.98 8.57
9/8/2021 4:30:00 AM 16.41 61.538 0.661 7.77 8.7 8.57
9/8/2021 4:45:00 AM 16.38 61.484 0.661 7.77 7.82 8.58
9/8/2021 5:00:00 AM 16.34 61.412 0.661 7.77 9.05 8.56
9/8/2021 5:15:00 AM 16.3 61.34 0.661 7.76 7.42 8.55
9/8/2021 5:30:00 AM 16.25 61.25 0.658 7.76 8.07 8.55
9/8/2021 5:45:00 AM 16.17 61.106 0.653 7.76 7.06 8.55
9/8/2021 6:00:00 AM 16.1 60.98 0.65 7.76 8.23 8.56
9/8/2021 6:15:00 AM 16.06 60.908 0.649 7.76 9.24 8.57
9/8/2021 6:30:00 AM 16.02 60.836 0.648 7.76 8.33 8.57
9/8/2021 6:45:00 AM 15.98 60.764 0.648 7.76 8.88 8.58
9/8/2021 7:00:00 AM 15.95 60.71 0.648 7.76 10.07 8.58
9/8/2021 7:15:00 AM 15.91 60.638 0.648 7.75 7.62 8.59
9/8/2021 7:30:00 AM 15.88 60.584 0.648 7.76 8.26 8.61
9/8/2021 7:45:00 AM 15.85 60.53 0.649 7.75 8.57 8.62
9/8/2021 8:00:00 AM 15.83 60.494 0.649 7.75 7.48 8.63
9/8/2021 8:15:00 AM 15.82 60.476 0.649 7.75 9.03 8.64
9/8/2021 8:30:00 AM 15.81 60.458 0.649 7.75 7.08 8.66
9/8/2021 8:45:00 AM 15.81 60.458 0.649 7.76 5.73 8.68
9/8/2021 9:00:00 AM 15.82 60.476 0.649 7.76 8.45 8.71
9/8/2021 9:15:00 AM 15.84 60.512 0.649 7.75 8.41 8.73
9/8/2021 9:30:00 AM 15.89 60.602 0.649 7.75 6.47 8.76
9/8/2021 9:45:00 AM 15.94 60.692 0.649 7.73 6.94 8.79
9/8/2021 10:00:00 AM 16 60.8 0.649 7.76 6.89 8.83
9/8/2021 10:15:00 AM 16.05 60.89 0.649 7.75 5.85 8.86
9/8/2021 10:30:00 AM 16.11 60.998 0.649 7.71 6.28 8.87
9/8/2021 10:45:00 AM 16.18 61.124 0.649 7.74 7.45 8.89
9/8/2021 11:00:00 AM 16.25 61.25 0.649 7.69 5.51 8.92
9/8/2021 11:15:00 AM 16.29 61.322 0.649 7.7 7.77 8.95
9/8/2021 11:30:00 AM 16.37 61.466 0.649 7.7 6.18 8.96
9/8/2021 11:45:00 AM 16.44 61.592 0.649 7.71 6.57 9
9/8/2021 12:00:00 PM 16.53 61.754 0.649 7.72 6.82 9.03
9/8/2021 12:15:00 PM 16.63 61.934 0.649 7.76 5.64 9.05
9/8/2021 12:30:00 PM 16.73 62.114 0.649 7.75 8.33 9.07
9/8/2021 12:45:00 PM 16.81 62.258 0.649 7.78 5.89 9.1
9/8/2021 1:00:00 PM 16.89 62.402 0.649 7.75 6.7 9.12
9/8/2021 1:15:00 PM 16.97 62.546 0.649 7.74 5.91 9.14
9/8/2021 1:30:00 PM 17.03 62.654 0.649 7.75 6.13 9.14
9/8/2021 1:45:00 PM 17.04 62.672 0.649 7.76 6.86 9.16
9/8/2021 2:00:00 PM 17.05 62.69 0.649 7.8 4.72 9.15
9/8/2021 2:15:00 PM 17.08 62.744 0.649 7.8 5.96 9.16
9/8/2021 2:30:00 PM 17.1 62.78 0.649 7.8 6.43 9.17
9/8/2021 2:45:00 PM 17.19 62.942 0.649 7.81 6.85 9.17
9/8/2021 3:00:00 PM 17.25 63.05 0.649 7.81 5.62 9.17
9/8/2021 3:15:00 PM 17.34 63.212 0.649 7.82 7.7 9.17
9/8/2021 3:30:00 PM 17.4 63.32 0.649 7.81 4.35 9.17
9/8/2021 3:45:00 PM 17.45 63.41 0.649 7.81 5.42 9.17
9/8/2021 4:00:00 PM 17.49 63.482 0.649 7.81 6.5 9.15
9/8/2021 4:15:00 PM 17.5 63.5 0.649 7.82 5.36 9.14
9/8/2021 4:30:00 PM 17.49 63.482 0.649 7.82 5.51 9.12
9/8/2021 4:45:00 PM 17.49 63.482 0.649 7.81 5.74 9.1
9/8/2021 5:00:00 PM 17.48 63.464 0.649 7.81 5.94 9.07
9/8/2021 5:15:00 PM 17.48 63.464 0.649 7.81 5.19 9.04
9/8/2021 5:30:00 PM 17.48 63.464 0.649 7.81 6.04 9.01
9/8/2021 5:45:00 PM 17.47 63.446 0.65 7.81 5.38 8.98
9/8/2021 6:00:00 PM 17.47 63.446 0.65 7.8 5.82 8.94
9/8/2021 6:15:00 PM 17.46 63.428 0.65 7.8 9.81 8.91
9/8/2021 6:30:00 PM 17.44 63.392 0.65 7.8 6.03 8.87
9/8/2021 6:45:00 PM 17.42 63.356 0.65 7.8 5.98 8.84
9/8/2021 7:00:00 PM 17.4 63.32 0.65 7.8 6.12 8.8
9/8/2021 7:15:00 PM 17.37 63.266 0.65 7.79 6.04 8.76
9/8/2021 7:30:00 PM 17.35 63.23 0.65 7.79 8.81 8.72
9/8/2021 7:45:00 PM 17.33 63.194 0.65 7.79 6.95 8.69
9/8/2021 8:00:00 PM 17.31 63.158 0.65 7.79 6.98 8.65
9/8/2021 8:15:00 PM 17.29 63.122 0.65 7.79 6.7 8.62
9/8/2021 8:30:00 PM 17.27 63.086 0.651 7.78 7.94 8.59
9/8/2021 8:45:00 PM 17.24 63.032 0.651 7.77 10.76 8.56
9/8/2021 9:00:00 PM 17.21 62.978 0.651 7.77 7.2 8.54
9/8/2021 9:15:00 PM 17.18 62.924 0.651 7.77 7.81 8.52
9/8/2021 9:30:00 PM 17.17 62.906 0.651 7.77 7.49 8.5
9/8/2021 9:45:00 PM 17.17 62.906 0.646 7.77 9.01 8.53
9/8/2021 10:00:00 PM 17.2 62.96 0.636 7.79 8.34 8.57
9/8/2021 10:15:00 PM 17.22 62.996 0.626 7.8 14.34 8.56
9/8/2021 10:30:00 PM 17.25 63.05 0.615 7.8 38.25 8.51
9/8/2021 10:45:00 PM 17.32 63.176 0.597 7.8 77.83 8.44
9/8/2021 11:00:00 PM 17.4 63.32 0.577 7.78 77.44 8.34
9/8/2021 11:15:00 PM 17.51 63.518 0.558 7.77 105 8.28
9/8/2021 11:30:00 PM 17.73 63.914 0.532 7.77 154.5 8.21
9/8/2021 11:45:00 PM 17.73 63.914 0.534 7.76 133.8 8.17
9/9/2021 12:00:00 AM 17.71 63.878 0.532 7.76 169.5 8.11
9/9/2021 12:15:00 AM 17.71 63.878 0.53 7.75 172 8.04
9/9/2021 12:30:00 AM 17.76 63.968 0.528 7.74 148.5 8.03
9/9/2021 12:45:00 AM 17.97 64.346 0.503 7.74 129.2 7.99
9/9/2021 1:00:00 AM 18.23 64.814 0.465 7.71 104.8 7.96
9/9/2021 1:15:00 AM 18.38 65.084 0.441 7.69 89.68 7.92
9/9/2021 1:30:00 AM 18.39 65.102 0.435 7.67 80.13 7.89
9/9/2021 1:45:00 AM 18.29 64.922 0.45 7.65 78.41 7.88
9/9/2021 2:00:00 AM 18.24 64.832 0.457 7.64 71.54 7.85
9/9/2021 2:15:00 AM 18.24 64.832 0.456 7.63 67.16 7.82
9/9/2021 2:30:00 AM 18.25 64.85 0.458 7.62 79.87 7.77
9/9/2021 2:45:00 AM 18.31 64.958 0.444 7.61 89.08 7.7
9/9/2021 3:00:00 AM 18.4 65.12 0.423 7.58 97.64 7.66
9/9/2021 3:15:00 AM 18.41 65.138 0.426 7.57 93.54 7.63
9/9/2021 3:30:00 AM 18.37 65.066 0.447 7.56 102 7.62
9/9/2021 3:45:00 AM 18.33 64.994 0.461 7.57 94.88 7.58
9/9/2021 4:00:00 AM 18.4 65.12 0.445 7.57 102.8 7.51
9/9/2021 4:15:00 AM 18.64 65.552 0.402 7.56 89.28 7.38
9/9/2021 4:30:00 AM 18.9 66.02 0.36 7.53 96.81 7.24
9/9/2021 4:45:00 AM 19.08 66.344 0.334 7.52 87.63 7.15
9/9/2021 5:00:00 AM 19.16 66.488 0.324 7.51 81.83 7.08
9/9/2021 5:15:00 AM 19.18 66.524 0.322 7.5 74.54 7.03
9/9/2021 5:30:00 AM 19.16 66.488 0.326 7.49 73.06 6.97
9/9/2021 5:45:00 AM 19.11 66.398 0.333 7.48 62.91 6.95
9/9/2021 6:00:00 AM 19.03 66.254 0.342 7.48 65.22 6.96
9/9/2021 6:15:00 AM 18.94 66.092 0.351 7.47 61.39 6.96
9/9/2021 6:30:00 AM 18.84 65.912 0.36 7.47 54.49 6.95
9/9/2021 6:45:00 AM 18.75 65.75 0.369 7.4 56.71 6.95
9/9/2021 7:00:00 AM 18.66 65.588 0.378 7.42 49.29 6.94
9/9/2021 7:15:00 AM 18.57 65.426 0.386 7.42 53.17 6.95
9/9/2021 7:30:00 AM 18.49 65.282 0.395 7.39 52.91 6.96
9/9/2021 7:45:00 AM 18.41 65.138 0.404 7.42 46.06 7
9/9/2021 8:00:00 AM 18.34 65.012 0.412 7.4 44.2 7.04
9/9/2021 8:15:00 AM 18.28 64.904 0.42 7.41 42.94 7.08
9/9/2021 8:30:00 AM 18.22 64.796 0.428 7.42 42.82 7.14
9/9/2021 8:45:00 AM 18.16 64.688 0.436 7.41 43.69 7.2
9/9/2021 9:00:00 AM 18.11 64.598 0.444 7.43 38.4 7.24
9/9/2021 9:15:00 AM 18.05 64.49 0.451 7.42 39.17 7.31
9/9/2021 9:30:00 AM 18.01 64.418 0.458 7.47 39.21 7.36
9/9/2021 9:45:00 AM 17.96 64.328 0.464 7.44 35.8 7.42
9/9/2021 10:00:00 AM 17.92 64.256 0.469 7.44 35.41 7.44
9/9/2021 10:15:00 AM 17.88 64.184 0.473 7.48 42.62 7.49
9/9/2021 10:30:00 AM 17.85 64.13 0.477 7.46 30.31 7.52
9/9/2021 10:45:00 AM 17.82 64.076 0.48 7.51 35.15 7.56
9/9/2021 11:00:00 AM 17.8 64.04 0.482 7.52 33.88 7.58
9/9/2021 11:15:00 AM 17.78 64.004 0.484 7.52 33.62 7.61
9/9/2021 11:30:00 AM 17.76 63.968 0.485 7.53 32.66 7.62
9/9/2021 11:45:00 AM 17.75 63.95 0.485 7.53 33.87 7.64
9/9/2021 12:00:00 PM 17.76 63.968 0.485 7.52 31.23 7.67
9/9/2021 12:15:00 PM 17.77 63.986 0.486 7.54 28.7 7.7
9/9/2021 12:30:00 PM 17.78 64.004 0.486 7.53 26.46 7.73
9/9/2021 12:45:00 PM 17.82 64.076 0.486 7.54 28.99 7.76
9/9/2021 1:00:00 PM 17.83 64.094 0.487 7.54 28.42 7.8
9/9/2021 1:15:00 PM 17.84 64.112 0.49 7.55 27.46 7.82
9/9/2021 1:30:00 PM 17.84 64.112 0.492 7.56 27.24 7.85
9/9/2021 1:45:00 PM 17.84 64.112 0.495 7.56 26.94 7.89
9/9/2021 2:00:00 PM 17.82 64.076 0.498 7.56 27.94 7.92
9/9/2021 2:15:00 PM 17.8 64.04 0.501 7.56 23.83 7.95
9/9/2021 2:30:00 PM 17.79 64.022 0.504 7.57 27.56 7.98
9/9/2021 2:45:00 PM 17.82 64.076 0.513 7.58 24.94 8.01
9/9/2021 3:00:00 PM 17.84 64.112 0.521 7.59 24.85 8.05
9/9/2021 3:15:00 PM 17.88 64.184 0.525 7.58 24.44 8.07
9/9/2021 3:30:00 PM 17.89 64.202 0.529 7.59 25.26 8.1
9/9/2021 3:45:00 PM 17.9 64.22 0.533 7.6 22.65 8.13
9/9/2021 4:00:00 PM 17.87 64.166 0.536 7.61 23.33 8.14
9/9/2021 4:15:00 PM 17.86 64.148 0.54 7.61 21.22 8.16
9/9/2021 4:30:00 PM 17.85 64.13 0.543 7.61 22.85 8.19
9/9/2021 4:45:00 PM 17.88 64.184 0.546 7.62 22.13 8.23
9/9/2021 5:00:00 PM 17.89 64.202 0.549 7.63 22.81 8.26
9/9/2021 5:15:00 PM 17.86 64.148 0.552 7.62 20.06 8.26
9/9/2021 5:30:00 PM 17.79 64.022 0.551 7.64 22.12 8.29
9/9/2021 5:45:00 PM 17.75 63.95 0.553 7.63 20.06 8.28
9/9/2021 6:00:00 PM 17.72 63.896 0.555 7.63 21.87 8.27
9/9/2021 6:15:00 PM 17.7 63.86 0.557 7.63 24.14 8.26
9/9/2021 6:30:00 PM 17.68 63.824 0.559 7.63 20.72 8.27
9/9/2021 6:45:00 PM 17.65 63.77 0.56 7.64 18.34 8.28
9/9/2021 7:00:00 PM 17.62 63.716 0.562 7.64 21.01 8.27
9/9/2021 7:15:00 PM 17.59 63.662 0.564 7.64 20.89 8.27
9/9/2021 7:30:00 PM 17.56 63.608 0.565 7.64 21.67 8.25
9/9/2021 7:45:00 PM 17.52 63.536 0.567 7.64 19.25 8.25
9/9/2021 8:00:00 PM 17.46 63.428 0.565 7.64 20.22 8.24
9/9/2021 8:15:00 PM 17.4 63.32 0.562 7.64 20.2 8.25
9/9/2021 8:30:00 PM 17.35 63.23 0.563 7.64 17.77 8.24
9/9/2021 8:45:00 PM 17.31 63.158 0.564 7.63 20.5 8.23
9/9/2021 9:00:00 PM 17.27 63.086 0.565 7.64 19.61 8.23
9/9/2021 9:15:00 PM 17.24 63.032 0.565 7.64 24.6 8.23
9/9/2021 9:30:00 PM 17.2 62.96 0.565 7.64 19.93 8.21
9/9/2021 9:45:00 PM 17.17 62.906 0.566 7.64 21.34 8.22
9/9/2021 10:00:00 PM 17.13 62.834 0.568 7.64 23.2 8.23
9/9/2021 10:15:00 PM 17.09 62.762 0.569 7.64 18.93 8.24
9/9/2021 10:30:00 PM 17.05 62.69 0.571 7.64 19.14 8.23
9/9/2021 10:45:00 PM 17.01 62.618 0.572 7.65 18.23 8.24
9/9/2021 11:00:00 PM 16.97 62.546 0.574 7.65 18.74 8.25
9/9/2021 11:15:00 PM 16.93 62.474 0.575 7.63 20.26 8.26
9/9/2021 11:30:00 PM 16.89 62.402 0.577 7.64 19.91 8.25
9/9/2021 11:45:00 PM 16.85 62.33 0.578 7.65 19.66 8.26
9/10/2021 12:00:00 AM 16.8 62.24 0.579 7.65 17.72 8.26
9/10/2021 12:15:00 AM 16.76 62.168 0.58 7.65 23.7 8.27
9/10/2021 12:30:00 AM 16.71 62.078 0.581 7.65 19.79 8.27
9/10/2021 12:45:00 AM 16.68 62.024 0.582 7.65 28.8 8.27
9/10/2021 1:00:00 AM 16.64 61.952 0.583 7.65 17.23 8.29
9/10/2021 1:15:00 AM 16.6 61.88 0.584 7.65 16.74 8.29
9/10/2021 1:30:00 AM 16.56 61.808 0.584 7.65 18.42 8.3
9/10/2021 1:45:00 AM 16.52 61.736 0.586 7.66 24.42 8.3
9/10/2021 2:00:00 AM 16.48 61.664 0.587 7.66 15.41 8.31
9/10/2021 2:15:00 AM 16.44 61.592 0.588 7.66 15.45 8.32
9/10/2021 2:30:00 AM 16.39 61.502 0.589 7.66 19.48 8.33
9/10/2021 2:45:00 AM 16.35 61.43 0.59 7.66 18.17 8.34
9/10/2021 3:00:00 AM 16.3 61.34 0.591 7.66 18.86 8.34
9/10/2021 3:15:00 AM 16.26 61.268 0.592 7.66 16.45 8.36
9/10/2021 3:30:00 AM 16.21 61.178 0.593 7.66 22.55 8.37
9/10/2021 3:45:00 AM 16.17 61.106 0.594 7.67 17.19 8.38
9/10/2021 4:00:00 AM 16.12 61.016 0.594 7.68 18.19 8.38
9/10/2021 4:15:00 AM 16.08 60.944 0.595 7.68 16.26 8.38
9/10/2021 4:30:00 AM 16.04 60.872 0.595 7.68 17.81 8.4
9/10/2021 4:45:00 AM 16 60.8 0.596 7.67 38.87 8.4
9/10/2021 5:00:00 AM 15.96 60.728 0.596 7.67 15.47 8.41
9/10/2021 5:15:00 AM 15.92 60.656 0.597 7.68 17.38 8.41
9/10/2021 5:30:00 AM 15.88 60.584 0.597 7.68 15.31 8.4
9/10/2021 5:45:00 AM 15.85 60.53 0.598 7.68 16.45 8.42
9/10/2021 6:00:00 AM 15.81 60.458 0.599 7.68 20.23 8.43
9/10/2021 6:15:00 AM 15.78 60.404 0.6 7.69 14.18 8.44
9/10/2021 6:30:00 AM 15.74 60.332 0.601 7.69 15.28 8.45
9/10/2021 6:45:00 AM 15.71 60.278 0.601 7.69 15.06 8.46
9/10/2021 7:00:00 AM 15.67 60.206 0.602 7.69 12.89 8.49
9/10/2021 7:15:00 AM 15.64 60.152 0.603 7.69 11.85 8.51
9/10/2021 7:30:00 AM 15.61 60.098 0.604 7.69 15.16 8.51
9/10/2021 7:45:00 AM 15.58 60.044 0.604 7.7 17.77 8.55
9/10/2021 8:00:00 AM 15.56 60.008 0.605 7.7 13.55 8.58
9/10/2021 8:15:00 AM 15.53 59.954 0.606 7.7 12.52 8.61
9/10/2021 8:30:00 AM 15.52 59.936 0.607 7.71 11.86 8.63
9/10/2021 8:45:00 AM 15.52 59.936 0.607 7.72 13.58 8.67
9/10/2021 9:00:00 AM 15.52 59.936 0.608 7.71 10.81 8.69
9/10/2021 9:15:00 AM 15.53 59.954 0.608 7.72 11.76 8.74
9/10/2021 9:30:00 AM 15.54 59.972 0.608 7.72 10.07 8.76
9/10/2021 9:45:00 AM 15.57 60.026 0.609 7.72 10.66 8.79
9/10/2021 10:00:00 AM 15.6 60.08 0.609 7.72 9.51 8.82
9/10/2021 10:15:00 AM 15.63 60.134 0.609 7.73 10.1 8.85
9/10/2021 10:30:00 AM 15.67 60.206 0.609 7.73 9.92 8.87
9/10/2021 10:45:00 AM 15.73 60.314 0.61 7.73 11.35 8.92
9/10/2021 11:00:00 AM 15.8 60.44 0.61 7.74 10.19 8.96
9/10/2021 11:15:00 AM 15.86 60.548 0.61 7.74 12.04 9.01
9/10/2021 11:30:00 AM 15.92 60.656 0.61 7.75 10.83 9.03
9/10/2021 11:45:00 AM 15.97 60.746 0.611 7.75 11.39 9.04
9/10/2021 12:00:00 PM 16.03 60.854 0.611 7.75 9.51 9.06
9/10/2021 12:15:00 PM 16.1 60.98 0.612 7.75 8.28 9.08
9/10/2021 12:30:00 PM 16.14 61.052 0.612 7.75 8.38 9.12
9/10/2021 12:45:00 PM 16.2 61.16 0.613 7.75 8.72 9.13
9/10/2021 1:00:00 PM 16.28 61.304 0.613 7.76 7.53 9.17
9/10/2021 1:15:00 PM 16.33 61.394 0.613 7.76 8.56 9.18
9/10/2021 1:30:00 PM 16.4 61.52 0.614 7.76 8.74 9.21
9/10/2021 1:45:00 PM 16.47 61.646 0.614 7.77 7.73 9.23
9/10/2021 2:00:00 PM 16.54 61.772 0.614 7.77 8.42 9.25
9/10/2021 2:15:00 PM 16.6 61.88 0.615 7.77 7.15 9.27
9/10/2021 2:30:00 PM 16.65 61.97 0.615 7.78 8.54 9.28
9/10/2021 2:45:00 PM 16.69 62.042 0.615 7.78 8.19 9.29
9/10/2021 3:00:00 PM 16.72 62.096 0.615 7.78 7.53 9.29
9/10/2021 3:15:00 PM 16.76 62.168 0.615 7.79 7.2 9.3
9/10/2021 3:30:00 PM 16.79 62.222 0.616 7.79 7.56 9.29
9/10/2021 3:45:00 PM 16.83 62.294 0.616 7.79 7.03 9.31
9/10/2021 4:00:00 PM 16.86 62.348 0.617 7.79 7.43 9.31
9/10/2021 4:15:00 PM 16.88 62.384 0.622 7.79 8.81 9.28
9/10/2021 4:30:00 PM 16.92 62.456 0.626 7.79 8.1 9.26
9/10/2021 4:45:00 PM 16.94 62.492 0.627 7.79 8.19 9.25
9/10/2021 5:00:00 PM 16.93 62.474 0.628 7.79 7.83 9.21
9/10/2021 5:15:00 PM 16.92 62.456 0.629 7.79 8.44 9.18
9/10/2021 5:30:00 PM 16.91 62.438 0.629 7.79 6.24 9.16
9/10/2021 5:45:00 PM 16.9 62.42 0.629 7.79 9.68 9.14
9/10/2021 6:00:00 PM 16.89 62.402 0.63 7.79 8.4 9.11
9/10/2021 6:15:00 PM 16.88 62.384 0.631 7.79 7.25 9.11
9/10/2021 6:30:00 PM 16.85 62.33 0.63 7.79 6.24 9.08
9/10/2021 6:45:00 PM 16.83 62.294 0.631 7.79 8.99 9.07
9/10/2021 7:00:00 PM 16.79 62.222 0.631 7.78 7.24 9.03
9/10/2021 7:15:00 PM 16.77 62.186 0.631 7.79 7.11 9
9/10/2021 7:30:00 PM 16.74 62.132 0.631 7.78 7.04 8.98
9/10/2021 7:45:00 PM 16.71 62.078 0.632 7.78 7.66 8.95
9/10/2021 8:00:00 PM 16.67 62.006 0.632 7.78 9.59 8.92
9/10/2021 8:15:00 PM 16.63 61.934 0.632 7.78 6.58 8.89
9/10/2021 8:30:00 PM 16.59 61.862 0.632 7.78 8.5 8.87
9/10/2021 8:45:00 PM 16.54 61.772 0.631 7.76 8.86 8.83
9/10/2021 9:00:00 PM 16.48 61.664 0.629 7.77 9.09 8.81
9/10/2021 9:15:00 PM 16.41 61.538 0.625 7.77 8.29 8.79
9/10/2021 9:30:00 PM 16.36 61.448 0.623 7.76 9.72 8.8
9/10/2021 9:45:00 PM 16.32 61.376 0.622 7.77 10.07 8.79
9/10/2021 10:00:00 PM 16.28 61.304 0.622 7.76 11.17 8.78
9/10/2021 10:15:00 PM 16.25 61.25 0.622 7.76 10.92 8.76
9/10/2021 10:30:00 PM 16.21 61.178 0.622 7.75 10.55 8.75
9/10/2021 10:45:00 PM 16.18 61.124 0.623 7.76 9.05 8.75
9/10/2021 11:00:00 PM 16.15 61.07 0.623 7.75 8.87 8.73
9/10/2021 11:15:00 PM 16.12 61.016 0.623 7.75 8.23 8.71
9/10/2021 11:30:00 PM 16.09 60.962 0.623 7.75 8.92 8.7
9/10/2021 11:45:00 PM 16.06 60.908 0.623 7.75 9.02 8.7
9/11/2021 12:00:00 AM 16.03 60.854 0.624 7.75 9.13 8.7
9/11/2021 12:15:00 AM 16 60.8 0.623 7.76 11.7 8.68
9/11/2021 12:30:00 AM 15.97 60.746 0.624 7.75 8.7 8.69
9/11/2021 12:45:00 AM 15.94 60.692 0.624 7.75 8.38 8.69
9/11/2021 1:00:00 AM 15.92 60.656 0.625 7.75 7.91 8.7
9/11/2021 1:15:00 AM 15.88 60.584 0.625 7.74 8.85 8.69
9/11/2021 1:30:00 AM 15.85 60.53 0.625 7.75 13.59 8.7
9/11/2021 1:45:00 AM 15.82 60.476 0.625 7.75 8.62 8.7
9/11/2021 2:00:00 AM 15.78 60.404 0.625 7.75 10.67 8.71
9/11/2021 2:15:00 AM 15.75 60.35 0.625 7.74 12.62 8.71
9/11/2021 2:30:00 AM 15.72 60.296 0.626 7.74 10.19 8.72
9/11/2021 2:45:00 AM 15.68 60.224 0.626 7.75 8.98 8.72
9/11/2021 3:00:00 AM 15.65 60.17 0.626 7.74 9.92 8.73
9/11/2021 3:15:00 AM 15.61 60.098 0.626 7.75 9.84 8.73
9/11/2021 3:30:00 AM 15.57 60.026 0.627 7.75 8.08 8.74
9/11/2021 3:45:00 AM 15.53 59.954 0.627 7.75 9.26 8.75
9/11/2021 4:00:00 AM 15.5 59.9 0.627 7.75 9.44 8.75
9/11/2021 4:15:00 AM 15.46 59.828 0.628 7.75 10.25 8.76
9/11/2021 4:30:00 AM 15.43 59.774 0.629 7.76 10.64 8.78
9/11/2021 4:45:00 AM 15.39 59.702 0.628 7.75 8.86 8.79
9/11/2021 5:00:00 AM 15.35 59.63 0.628 7.75 9.25 8.78
9/11/2021 5:15:00 AM 15.31 59.558 0.628 7.75 10.02 8.79
9/11/2021 5:30:00 AM 15.27 59.486 0.628 7.76 8.04 8.81
9/11/2021 5:45:00 AM 15.23 59.414 0.629 7.75 12.69 8.81
9/11/2021 6:00:00 AM 15.19 59.342 0.629 7.75 8.73 8.83
9/11/2021 6:15:00 AM 15.16 59.288 0.629 7.75 8.88 8.84
9/11/2021 6:30:00 AM 15.12 59.216 0.629 7.75 9.03 8.84
9/11/2021 6:45:00 AM 15.09 59.162 0.629 7.75 8.75 8.84
9/11/2021 7:00:00 AM 15.05 59.09 0.629 7.76 8.5 8.87
9/11/2021 7:15:00 AM 15.02 59.036 0.63 7.75 8.73 8.88
9/11/2021 7:30:00 AM 14.99 58.982 0.63 7.76 10.2 8.91
9/11/2021 7:45:00 AM 14.96 58.928 0.63 7.76 7.57 8.93
9/11/2021 8:00:00 AM 14.95 58.91 0.63 7.75 8.38 8.94
9/11/2021 8:15:00 AM 14.93 58.874 0.63 7.76 7.84 8.97
9/11/2021 8:30:00 AM 14.93 58.874 0.63 7.76 7.91 8.98
9/11/2021 8:45:00 AM 14.94 58.892 0.63 7.76 6.29 9.01
9/11/2021 9:00:00 AM 14.95 58.91 0.63 7.76 7.14 9.04
9/11/2021 9:15:00 AM 14.98 58.964 0.63 7.76 7.95 9.08
9/11/2021 9:30:00 AM 15.01 59.018 0.63 7.76 8.42 9.11
9/11/2021 9:45:00 AM 15.04 59.072 0.629 7.77 7.95 9.14
9/11/2021 10:00:00 AM 15.08 59.144 0.63 7.77 6.72 9.17
9/11/2021 10:15:00 AM 15.12 59.216 0.629 7.78 5.71 9.21
9/11/2021 10:30:00 AM 15.17 59.306 0.63 7.78 6.61 9.24
9/11/2021 10:45:00 AM 15.24 59.432 0.629 7.79 6.02 9.29
9/11/2021 11:00:00 AM 15.33 59.594 0.633 7.79 8.76 9.32
9/11/2021 11:15:00 AM 15.44 59.792 0.638 7.79 5.67 9.34
9/11/2021 11:30:00 AM 15.51 59.918 0.64 7.79 8.75 9.38
9/11/2021 11:45:00 AM 15.56 60.008 0.641 7.8 6.3 9.39
9/11/2021 12:00:00 PM 15.61 60.098 0.641 7.8 4.98 9.41
9/11/2021 12:15:00 PM 15.64 60.152 0.642 7.8 5.09 9.44
9/11/2021 12:30:00 PM 15.69 60.242 0.642 7.8 6.49 9.47
9/11/2021 12:45:00 PM 15.77 60.386 0.642 7.81 5.36 9.49
9/11/2021 1:00:00 PM 15.87 60.566 0.642 7.81 4.71 9.52
9/11/2021 1:15:00 PM 15.96 60.728 0.642 7.82 6.46 9.52
9/11/2021 1:30:00 PM 16.07 60.926 0.642 7.82 5.28 9.57
9/11/2021 1:45:00 PM 16.11 60.998 0.642 7.82 5.58 9.58
9/11/2021 2:00:00 PM 16.14 61.052 0.642 7.83 6.68 9.59
9/11/2021 2:15:00 PM 16.22 61.196 0.642 7.82 7.1 9.6
9/11/2021 2:30:00 PM 16.25 61.25 0.643 7.83 5.59 9.61
9/11/2021 2:45:00 PM 16.31 61.358 0.643 7.83 5.37 9.62
9/11/2021 3:00:00 PM 16.36 61.448 0.643 7.83 5.92 9.6
9/11/2021 3:15:00 PM 16.44 61.592 0.644 7.83 5.2 9.62
9/11/2021 3:30:00 PM 16.48 61.664 0.643 7.83 5.12 9.6
9/11/2021 3:45:00 PM 16.5 61.7 0.641 7.84 5.67 9.61
9/11/2021 4:00:00 PM 16.52 61.736 0.637 7.84 8.46 9.6
9/11/2021 4:15:00 PM 16.51 61.718 0.635 7.83 4.51 9.59
9/11/2021 4:30:00 PM 16.51 61.718 0.634 7.84 5.16 9.58
9/11/2021 4:45:00 PM 16.51 61.718 0.633 7.84 4.35 9.56
9/11/2021 5:00:00 PM 16.49 61.682 0.633 7.84 4.8 9.54
9/11/2021 5:15:00 PM 16.47 61.646 0.633 7.84 5.58 9.49
9/11/2021 5:30:00 PM 16.47 61.646 0.633 7.84 5.9 9.47
9/11/2021 5:45:00 PM 16.46 61.628 0.633 7.84 7.34 9.44
9/11/2021 6:00:00 PM 16.45 61.61 0.633 7.84 5.2 9.4
9/11/2021 6:15:00 PM 16.44 61.592 0.634 7.84 5.58 9.35
9/11/2021 6:30:00 PM 16.43 61.574 0.634 7.84 5.42 9.34
9/11/2021 6:45:00 PM 16.41 61.538 0.634 7.83 6.27 9.29
9/11/2021 7:00:00 PM 16.4 61.52 0.634 7.83 5.67 9.25
9/11/2021 7:15:00 PM 16.38 61.484 0.634 7.83 5.04 9.22
9/11/2021 7:30:00 PM 16.36 61.448 0.634 7.82 4.9 9.17
9/11/2021 7:45:00 PM 16.34 61.412 0.634 7.82 5.79 9.15
9/11/2021 8:00:00 PM 16.32 61.376 0.634 7.83 6.6 9.11
9/11/2021 8:15:00 PM 16.29 61.322 0.634 7.82 5.89 9.1
9/11/2021 8:30:00 PM 16.27 61.286 0.635 7.82 6.24 9.07
9/11/2021 8:45:00 PM 16.24 61.232 0.634 7.81 6.12 9.02
9/11/2021 9:00:00 PM 16.22 61.196 0.635 7.81 8.05 9.02
9/11/2021 9:15:00 PM 16.19 61.142 0.635 7.81 6.41 9
9/11/2021 9:30:00 PM 16.17 61.106 0.635 7.81 6.4 8.98
9/11/2021 9:45:00 PM 16.14 61.052 0.635 7.8 6.79 8.95
9/11/2021 10:00:00 PM 16.12 61.016 0.635 7.8 8.58 8.95
9/11/2021 10:15:00 PM 16.1 60.98 0.635 7.8 7.62 8.93
9/11/2021 10:30:00 PM 16.08 60.944 0.635 7.8 7.65 8.91
9/11/2021 10:45:00 PM 16.06 60.908 0.635 7.81 6.4 8.89
9/11/2021 11:00:00 PM 16.04 60.872 0.635 7.8 6.84 8.88
9/11/2021 11:15:00 PM 16.02 60.836 0.635 7.8 7.81 8.87
9/11/2021 11:30:00 PM 16 60.8 0.635 7.79 9.29 8.86
9/11/2021 11:45:00 PM 15.98 60.764 0.635 7.79 7.4 8.85
9/12/2021 12:00:00 AM 15.96 60.728 0.635 7.79 7.19 8.84
9/12/2021 12:15:00 AM 15.94 60.692 0.636 7.79 6.8 8.81
9/12/2021 12:30:00 AM 15.92 60.656 0.636 7.79 8.99 8.82
9/12/2021 12:45:00 AM 15.9 60.62 0.636 7.8 7.35 8.83
9/12/2021 1:00:00 AM 15.88 60.584 0.636 7.79 9.07 8.81
9/12/2021 1:15:00 AM 15.85 60.53 0.636 7.78 7.35 8.8
9/12/2021 1:30:00 AM 15.83 60.494 0.637 7.78 6.67 8.81
9/12/2021 1:45:00 AM 15.81 60.458 0.637 7.79 7.93 8.81
9/12/2021 2:00:00 AM 15.79 60.422 0.637 7.79 9.09 8.8
9/12/2021 2:15:00 AM 15.77 60.386 0.637 7.79 7.84 8.8
9/12/2021 2:30:00 AM 15.74 60.332 0.637 7.79 6.9 8.81
9/12/2021 2:45:00 AM 15.72 60.296 0.637 7.78 7.67 8.81
9/12/2021 3:00:00 AM 15.7 60.26 0.638 7.78 8.05 8.81
9/12/2021 3:15:00 AM 15.68 60.224 0.638 7.78 7.08 8.82
9/12/2021 3:30:00 AM 15.65 60.17 0.638 7.78 7.53 8.82
9/12/2021 3:45:00 AM 15.62 60.116 0.638 7.79 6.62 8.82
9/12/2021 4:00:00 AM 15.59 60.062 0.638 7.77 10.63 8.84
9/12/2021 4:15:00 AM 15.57 60.026 0.638 7.78 6.45 8.82
9/12/2021 4:30:00 AM 15.54 59.972 0.638 7.78 7.33 8.84
9/12/2021 4:45:00 AM 15.52 59.936 0.638 7.78 6.4 8.83
9/12/2021 5:00:00 AM 15.49 59.882 0.638 7.78 9.8 8.84
9/12/2021 5:15:00 AM 15.46 59.828 0.638 7.78 11.48 8.86
9/12/2021 5:30:00 AM 15.43 59.774 0.639 7.78 7.17 8.85
9/12/2021 5:45:00 AM 15.4 59.72 0.638 7.77 6.59 8.86
9/12/2021 6:00:00 AM 15.37 59.666 0.638 7.77 6.86 8.87
9/12/2021 6:15:00 AM 15.35 59.63 0.638 7.78 7.41 8.87
9/12/2021 6:30:00 AM 15.32 59.576 0.639 7.78 7.94 8.87
9/12/2021 6:45:00 AM 15.29 59.522 0.639 7.78 6.52 8.89
9/12/2021 7:00:00 AM 15.27 59.486 0.639 7.78 9.82 8.89
9/12/2021 7:15:00 AM 15.26 59.468 0.639 7.78 9.86 8.9
9/12/2021 7:30:00 AM 15.26 59.468 0.64 7.78 7.49 8.92
9/12/2021 7:45:00 AM 15.29 59.522 0.645 7.78 8.95 8.94
9/12/2021 8:00:00 AM 15.32 59.576 0.649 7.78 5.75 8.95
9/12/2021 8:15:00 AM 15.34 59.612 0.65 7.79 9.26 8.97
9/12/2021 8:30:00 AM 15.35 59.63 0.651 7.79 7.45 9
9/12/2021 8:45:00 AM 15.37 59.666 0.651 7.79 5.94 9.03
9/12/2021 9:00:00 AM 15.4 59.72 0.651 7.79 6.45 9.06
9/12/2021 9:15:00 AM 15.43 59.774 0.651 7.79 6.17 9.09
9/12/2021 9:30:00 AM 15.46 59.828 0.652 7.8 5.37 9.13
9/12/2021 9:45:00 AM 15.48 59.864 0.652 7.8 4.88 9.16
9/12/2021 10:00:00 AM 15.52 59.936 0.652 7.8 5.21 9.2
9/12/2021 10:15:00 AM 15.58 60.044 0.651 7.8 5.19 9.24
9/12/2021 10:30:00 AM 15.63 60.134 0.651 7.81 4.85 9.27
9/12/2021 10:45:00 AM 15.7 60.26 0.651 7.81 4.76 9.31
9/12/2021 11:00:00 AM 15.76 60.368 0.651 7.82 4.6 9.36
9/12/2021 11:15:00 AM 15.84 60.512 0.651 7.82 5.8 9.39
9/12/2021 11:30:00 AM 15.91 60.638 0.651 7.83 5.28 9.42
9/12/2021 11:45:00 AM 15.97 60.746 0.651 7.83 5.18 9.44
9/12/2021 12:00:00 PM 16.01 60.818 0.65 7.83 5.29 9.48
9/12/2021 12:15:00 PM 16.03 60.854 0.646 7.82 5.06 9.5
9/12/2021 12:30:00 PM 16.06 60.908 0.642 7.83 4 9.55
9/12/2021 12:45:00 PM 16.11 60.998 0.641 7.84 4.76 9.6
9/12/2021 1:00:00 PM 16.16 61.088 0.64 7.84 5.75 9.61
9/12/2021 1:15:00 PM 16.24 61.232 0.64 7.84 5.53 9.65
9/12/2021 1:30:00 PM 16.32 61.376 0.64 7.84 5.03 9.66
9/12/2021 1:45:00 PM 16.42 61.556 0.64 7.85 4.32 9.69
9/12/2021 2:00:00 PM 16.51 61.718 0.64 7.85 4.53 9.73
9/12/2021 2:15:00 PM 16.59 61.862 0.64 7.85 4.37 9.72
9/12/2021 2:30:00 PM 16.64 61.952 0.64 7.86 4.43 9.74
9/12/2021 2:45:00 PM 16.69 62.042 0.64 7.86 4.53 9.74
9/12/2021 3:00:00 PM 16.75 62.15 0.639 7.87 4.2 9.75
9/12/2021 3:15:00 PM 16.78 62.204 0.639 7.87 6.19 9.75
9/12/2021 3:30:00 PM 16.81 62.258 0.639 7.87 5.54 9.75
9/12/2021 3:45:00 PM 16.86 62.348 0.639 7.87 4.21 9.75
9/12/2021 4:00:00 PM 16.9 62.42 0.639 7.88 5.87 9.74
9/12/2021 4:15:00 PM 16.93 62.474 0.639 7.87 3.74 9.72
9/12/2021 4:30:00 PM 16.95 62.51 0.639 7.88 4.03 9.7
9/12/2021 4:45:00 PM 16.96 62.528 0.64 7.88 6.29 9.67
9/12/2021 5:00:00 PM 16.97 62.546 0.64 7.88 4.67 9.65
9/12/2021 5:15:00 PM 16.98 62.564 0.64 7.88 4.84 9.61
9/12/2021 5:30:00 PM 16.97 62.546 0.64 7.88 3.74 9.57
9/12/2021 5:45:00 PM 16.96 62.528 0.64 7.88 4.2 9.54
9/12/2021 6:00:00 PM 16.94 62.492 0.64 7.87 3.84 9.5
9/12/2021 6:15:00 PM 16.93 62.474 0.64 7.87 4.39 9.45
9/12/2021 6:30:00 PM 16.93 62.474 0.64 7.87 5.32 9.41
9/12/2021 6:45:00 PM 16.92 62.456 0.639 7.87 4.67 9.37
9/12/2021 7:00:00 PM 16.9 62.42 0.64 7.86 7.31 9.31
9/12/2021 7:15:00 PM 16.89 62.402 0.64 7.86 4.61 9.27
9/12/2021 7:30:00 PM 16.88 62.384 0.64 7.85 5.64 9.22
9/12/2021 7:45:00 PM 16.88 62.384 0.64 7.85 7.8 9.17
9/12/2021 8:00:00 PM 16.87 62.366 0.64 7.85 4.55 9.12
9/12/2021 8:15:00 PM 16.85 62.33 0.64 7.84 8.11 9.07
9/12/2021 8:30:00 PM 16.84 62.312 0.64 7.84 5.81 9.05
9/12/2021 8:45:00 PM 16.82 62.276 0.64 7.83 5.97 9.01
9/12/2021 9:00:00 PM 16.81 62.258 0.64 7.83 9.32 9
9/12/2021 9:15:00 PM 16.79 62.222 0.64 7.83 6.59 8.95
9/12/2021 9:30:00 PM 16.78 62.204 0.64 7.83 7.36 8.92
9/12/2021 9:45:00 PM 16.76 62.168 0.64 7.82 7.03 8.89
9/12/2021 10:00:00 PM 16.75 62.15 0.64 7.81 8.32 8.87
9/12/2021 10:15:00 PM 16.74 62.132 0.64 7.81 8.27 8.85
9/12/2021 10:30:00 PM 16.73 62.114 0.64 7.81 6.8 8.82
9/12/2021 10:45:00 PM 16.72 62.096 0.64 7.8 7.95 8.8
9/12/2021 11:00:00 PM 16.71 62.078 0.641 7.8 7.17 8.78
9/12/2021 11:15:00 PM 16.7 62.06 0.641 7.8 6.67 8.77
9/12/2021 11:30:00 PM 16.69 62.042 0.641 7.79 9.98 8.76
9/12/2021 11:45:00 PM 16.68 62.024 0.641 7.79 6.88 8.73
9/13/2021 12:00:00 AM 16.67 62.006 0.641 7.79 6.58 8.71
9/13/2021 12:15:00 AM 16.66 61.988 0.641 7.79 6.54 8.7
9/13/2021 12:30:00 AM 16.65 61.97 0.641 7.79 6.97 8.68
9/13/2021 12:45:00 AM 16.64 61.952 0.641 7.78 6.08 8.67
9/13/2021 1:00:00 AM 16.62 61.916 0.641 7.78 8.13 8.65
9/13/2021 1:15:00 AM 16.61 61.898 0.641 7.78 8.02 8.65
9/13/2021 1:30:00 AM 16.6 61.88 0.641 7.78 9.63 8.65
9/13/2021 1:45:00 AM 16.59 61.862 0.641 7.78 6.1 8.64
9/13/2021 2:00:00 AM 16.57 61.826 0.641 7.78 8.51 8.64
9/13/2021 2:15:00 AM 16.56 61.808 0.642 7.78 7.67 8.63
9/13/2021 2:30:00 AM 16.54 61.772 0.642 7.78 8.39 8.63
9/13/2021 2:45:00 AM 16.52 61.736 0.642 7.78 6.83 8.63
9/13/2021 3:00:00 AM 16.5 61.7 0.642 7.78 7.06 8.63
9/13/2021 3:15:00 AM 16.48 61.664 0.641 7.77 7.97 8.63
9/13/2021 3:30:00 AM 16.46 61.628 0.642 7.78 7.64 8.63
9/13/2021 3:45:00 AM 16.44 61.592 0.642 7.77 8.02 8.64
9/13/2021 4:00:00 AM 16.41 61.538 0.642 7.78 6.98 8.65
9/13/2021 4:15:00 AM 16.39 61.502 0.641 7.78 6.92 8.65
9/13/2021 4:30:00 AM 16.39 61.502 0.644 7.78 8.4 8.65
9/13/2021 4:45:00 AM 16.41 61.538 0.649 7.78 6.62 8.63
9/13/2021 5:00:00 AM 16.41 61.538 0.653 7.78 7.32 8.62
9/13/2021 5:15:00 AM 16.4 61.52 0.654 7.78 7.52 8.62
9/13/2021 5:30:00 AM 16.39 61.502 0.655 7.78 6.2 8.61
9/13/2021 5:45:00 AM 16.37 61.466 0.655 7.78 7.27 8.62
9/13/2021 6:00:00 AM 16.34 61.412 0.656 7.78 8.63 8.61
9/13/2021 6:15:00 AM 16.32 61.376 0.656 7.78 7.15 8.63
9/13/2021 6:30:00 AM 16.31 61.358 0.656 7.78 8.83 8.66
9/13/2021 6:45:00 AM 16.28 61.304 0.655 7.77 9.22 8.68
9/13/2021 7:00:00 AM 16.25 61.25 0.655 7.77 6.64 8.69
9/13/2021 7:15:00 AM 16.23 61.214 0.655 7.78 5.51 8.7
9/13/2021 7:30:00 AM 16.21 61.178 0.655 7.78 7.71 8.71
9/13/2021 7:45:00 AM 16.18 61.124 0.656 7.78 6.58 8.7
9/13/2021 8:00:00 AM 16.15 61.07 0.655 7.78 5.88 8.7
9/13/2021 8:15:00 AM 16.1 60.98 0.652 7.78 5.79 8.73
9/13/2021 8:30:00 AM 16.05 60.89 0.648 7.77 5.21 8.77
9/13/2021 8:45:00 AM 16.03 60.854 0.646 7.77 5.86 8.81
9/13/2021 9:00:00 AM 16.02 60.836 0.645 7.77 5.72 8.84
9/13/2021 9:15:00 AM 16.04 60.872 0.645 7.78 5.13 8.87
9/13/2021 9:30:00 AM 16.07 60.926 0.645 7.77 5.46 8.91
9/13/2021 9:45:00 AM 16.13 61.034 0.645 7.78 5.15 8.95
9/13/2021 10:00:00 AM 16.15 61.07 0.645 7.78 4.89 8.98
9/13/2021 10:15:00 AM 16.18 61.124 0.645 7.78 5.13 9
9/13/2021 10:30:00 AM 16.22 61.196 0.645 7.78 3.81 9.07
9/13/2021 10:45:00 AM 16.27 61.286 0.645 7.78 5.74 9.12
9/13/2021 11:00:00 AM 16.32 61.376 0.645 7.79 4.2 9.17
9/13/2021 11:15:00 AM 16.37 61.466 0.644 7.8 4.73 9.22
9/13/2021 11:30:00 AM 16.43 61.574 0.644 7.8 5.07 9.26
9/13/2021 11:45:00 AM 16.46 61.628 0.644 7.81 4.68 9.3
9/13/2021 12:00:00 PM 16.48 61.664 0.644 7.82 5.23 9.33
9/13/2021 12:15:00 PM 16.5 61.7 0.644 7.82 8.14 9.36
9/13/2021 12:30:00 PM 16.56 61.808 0.644 7.82 3.5 9.41
9/13/2021 12:45:00 PM 16.61 61.898 0.644 7.83 4.21 9.45
9/13/2021 1:00:00 PM 16.69 62.042 0.644 7.83 3.39 9.48
9/13/2021 1:15:00 PM 16.77 62.186 0.644 7.84 3.84 9.53
9/13/2021 1:30:00 PM 16.82 62.276 0.644 7.85 3.64 9.58
9/13/2021 1:45:00 PM 16.88 62.384 0.644 7.85 5.23 9.61
9/13/2021 2:00:00 PM 16.96 62.528 0.644 7.85 3.68 9.63
9/13/2021 2:15:00 PM 17.05 62.69 0.644 7.86 3.76 9.67
9/13/2021 2:30:00 PM 17.11 62.798 0.643 7.86 4.66 9.7
9/13/2021 2:45:00 PM 17.15 62.87 0.644 7.87 3.48 9.72
9/13/2021 3:00:00 PM 17.18 62.924 0.644 7.87 4.22 9.72
9/13/2021 3:15:00 PM 17.2 62.96 0.643 7.88 3.34 9.74
9/13/2021 3:30:00 PM 17.19 62.942 0.643 7.87 5 9.72
9/13/2021 3:45:00 PM 17.23 63.014 0.643 7.87 4.13 9.73
9/13/2021 4:00:00 PM 17.2 62.96 0.643 7.88 3.74 9.7
9/13/2021 4:15:00 PM 17.23 63.014 0.643 7.88 3.68 9.71
9/13/2021 4:30:00 PM 17.26 63.068 0.643 7.88 3.58 9.68
9/13/2021 4:45:00 PM 17.26 63.068 0.643 7.88 6.4 9.68
9/13/2021 5:00:00 PM 17.26 63.068 0.643 7.88 3.43 9.66
9/13/2021 5:15:00 PM 17.25 63.05 0.643 7.88 5.65 9.62
9/13/2021 5:30:00 PM 17.23 63.014 0.644 7.88 3.74 9.58
9/13/2021 5:45:00 PM 17.22 62.996 0.644 7.87 3.67 9.55
9/13/2021 6:00:00 PM 17.2 62.96 0.644 7.87 3.7 9.5
9/13/2021 6:15:00 PM 17.18 62.924 0.644 7.87 3.88 9.46
9/13/2021 6:30:00 PM 17.16 62.888 0.644 7.88 3.7 9.41
9/13/2021 6:45:00 PM 17.14 62.852 0.644 7.87 4.76 9.37
9/13/2021 7:00:00 PM 17.12 62.816 0.644 7.86 4.12 9.33
9/13/2021 7:15:00 PM 17.1 62.78 0.644 7.86 4.99 9.27
9/13/2021 7:30:00 PM 17.09 62.762 0.644 7.86 6.26 9.21
9/13/2021 7:45:00 PM 17.07 62.726 0.644 7.86 5.77 9.16
9/13/2021 8:00:00 PM 17.05 62.69 0.644 7.85 5.02 9.13
9/13/2021 8:15:00 PM 17.04 62.672 0.644 7.84 4.9 9.09
9/13/2021 8:30:00 PM 17.02 62.636 0.644 7.84 4.26 9.07
9/13/2021 8:45:00 PM 17 62.6 0.644 7.84 5.82 9.05
9/13/2021 9:00:00 PM 16.98 62.564 0.644 7.84 6.32 9.01
9/13/2021 9:15:00 PM 16.97 62.546 0.644 7.83 5.2 8.98
9/13/2021 9:30:00 PM 16.95 62.51 0.644 7.82 5.38 8.95
9/13/2021 9:45:00 PM 16.93 62.474 0.644 7.82 5.29 8.91
9/13/2021 10:00:00 PM 16.92 62.456 0.644 7.81 5.32 8.88
9/13/2021 10:15:00 PM 16.9 62.42 0.644 7.81 7.37 8.85
9/13/2021 10:30:00 PM 16.89 62.402 0.644 7.81 4.98 8.81
9/13/2021 10:45:00 PM 16.87 62.366 0.644 7.81 5.16 8.8
9/13/2021 11:00:00 PM 16.86 62.348 0.644 7.8 5.72 8.77
9/13/2021 11:15:00 PM 16.84 62.312 0.644 7.8 6.48 8.75
9/13/2021 11:30:00 PM 16.82 62.276 0.644 7.8 6.2 8.73
9/13/2021 11:45:00 PM 16.8 62.24 0.644 7.78 4.81 8.7
9/14/2021 12:00:00 AM 16.79 62.222 0.644 7.78 5.86 8.69
9/14/2021 12:15:00 AM 16.77 62.186 0.644 7.78 6.11 8.68
9/14/2021 12:30:00 AM 16.75 62.15 0.644 7.8 5.91 8.67
9/14/2021 12:45:00 AM 16.73 62.114 0.644 7.79 5.63 8.65
9/14/2021 1:00:00 AM 16.71 62.078 0.644 7.79 7.58 8.65
9/14/2021 1:15:00 AM 16.69 62.042 0.644 7.78 5.02 8.65
9/14/2021 1:30:00 AM 16.67 62.006 0.644 7.78 8.43 8.63
9/14/2021 1:45:00 AM 16.65 61.97 0.644 7.78 5.61 8.62
9/14/2021 2:00:00 AM 16.62 61.916 0.644 7.78 6.66 8.63
9/14/2021 2:15:00 AM 16.6 61.88 0.644 7.78 6.95 8.62
9/14/2021 2:30:00 AM 16.58 61.844 0.644 7.78 6.23 8.61
9/14/2021 2:45:00 AM 16.56 61.808 0.644 7.77 5.66 8.62
9/14/2021 3:00:00 AM 16.54 61.772 0.644 7.78 7.24 8.61
9/14/2021 3:15:00 AM 16.51 61.718 0.644 7.77 6.39 8.62
9/14/2021 3:30:00 AM 16.49 61.682 0.644 7.77 8.97 8.63
9/14/2021 3:45:00 AM 16.46 61.628 0.644 7.77 6.84 8.62
9/14/2021 4:00:00 AM 16.44 61.592 0.644 7.78 7.03 8.63
9/14/2021 4:15:00 AM 16.42 61.556 0.644 7.77 5.04 8.63
9/14/2021 4:30:00 AM 16.4 61.52 0.644 7.78 5.87 8.63
9/14/2021 4:45:00 AM 16.38 61.484 0.644 7.77 6.45 8.63
9/14/2021 5:00:00 AM 16.36 61.448 0.644 7.77 5.49 8.63
9/14/2021 5:15:00 AM 16.35 61.43 0.645 7.77 6.26 8.63
9/14/2021 5:30:00 AM 16.33 61.394 0.645 7.77 5.7 8.64
9/14/2021 5:45:00 AM 16.31 61.358 0.645 7.77 9.2 8.64
9/14/2021 6:00:00 AM 16.29 61.322 0.645 7.78 8.98 8.64
9/14/2021 6:15:00 AM 16.27 61.286 0.645 7.76 6.62 8.64
9/14/2021 6:30:00 AM 16.25 61.25 0.645 7.77 5.48 8.65
9/14/2021 6:45:00 AM 16.23 61.214 0.646 7.76 6.9 8.64
9/14/2021 7:00:00 AM 16.21 61.178 0.646 7.76 6.72 8.66
9/14/2021 7:15:00 AM 16.19 61.142 0.646 7.77 6.36 8.67
9/14/2021 7:30:00 AM 16.17 61.106 0.646 7.77 6.71 8.69
9/14/2021 7:45:00 AM 16.16 61.088 0.646 7.78 6.1 8.72
9/14/2021 8:00:00 AM 16.14 61.052 0.646 7.77 4.96 8.74
9/14/2021 8:15:00 AM 16.14 61.052 0.646 7.77 4.75 8.78
9/14/2021 8:30:00 AM 16.13 61.034 0.647 7.78 5.58 8.81
9/14/2021 8:45:00 AM 16.13 61.034 0.647 7.78 4.33 8.82
9/14/2021 9:00:00 AM 16.14 61.052 0.647 7.78 5.24 8.88
9/14/2021 9:15:00 AM 16.15 61.07 0.647 7.79 5.76 8.91
9/14/2021 9:30:00 AM 16.16 61.088 0.647 7.78 4.5 8.96
9/14/2021 9:45:00 AM 16.18 61.124 0.647 7.8 3.69 9.01
9/14/2021 10:00:00 AM 16.21 61.178 0.647 7.79 4.26 9.08
9/14/2021 10:15:00 AM 16.25 61.25 0.647 7.8 3.67 9.12
9/14/2021 10:30:00 AM 16.3 61.34 0.648 7.81 3.67 9.17
9/14/2021 10:45:00 AM 16.36 61.448 0.648 7.81 3.5 9.22
9/14/2021 11:00:00 AM 16.43 61.574 0.648 7.82 3.82 9.28
9/14/2021 11:15:00 AM 16.49 61.682 0.648 7.82 5.48 9.32
9/14/2021 11:30:00 AM 16.57 61.826 0.648 7.81 4.6 9.35
9/14/2021 11:45:00 AM 16.64 61.952 0.648 7.82 5.57 9.37
9/14/2021 12:00:00 PM 16.71 62.078 0.648 7.83 5.66 9.41
9/14/2021 12:15:00 PM 16.77 62.186 0.648 7.83 5.21 9.46
9/14/2021 12:30:00 PM 16.82 62.276 0.648 7.84 8.02 9.51
9/14/2021 12:45:00 PM 16.84 62.312 0.648 7.84 4.66 9.56
9/14/2021 1:00:00 PM 16.86 62.348 0.648 7.85 3.94 9.57
9/14/2021 1:15:00 PM 16.98 62.564 0.647 7.86 5.33 9.66
9/14/2021 1:30:00 PM 17.04 62.672 0.648 7.86 3.92 9.7
9/14/2021 1:45:00 PM 17.07 62.726 0.647 7.87 3.3 9.73
9/14/2021 2:00:00 PM 17.14 62.852 0.647 7.87 4.02 9.76
9/14/2021 2:15:00 PM 17.21 62.978 0.647 7.87 3.64 9.8
9/14/2021 2:30:00 PM 17.25 63.05 0.647 7.88 3.42 9.83
9/14/2021 2:45:00 PM 17.27 63.086 0.647 7.89 3.58 9.84
9/14/2021 3:00:00 PM 17.27 63.086 0.647 7.89 2.93 9.83
9/14/2021 3:15:00 PM 17.31 63.158 0.647 7.9 3.98 9.85
9/14/2021 3:30:00 PM 17.32 63.176 0.647 7.89 3.58 9.85
9/14/2021 3:45:00 PM 17.35 63.23 0.647 7.9 3.81 9.87
9/14/2021 4:00:00 PM 17.37 63.266 0.647 7.9 4.4 9.87
9/14/2021 4:15:00 PM 17.4 63.32 0.647 7.91 3.35 9.85
9/14/2021 4:30:00 PM 17.41 63.338 0.648 7.9 3.7 9.84
9/14/2021 4:45:00 PM 17.41 63.338 0.648 7.91 2.93 9.81
9/14/2021 5:00:00 PM 17.39 63.302 0.649 7.91 3.04 9.77
9/14/2021 5:15:00 PM 17.37 63.266 0.649 7.91 2.9 9.71
9/14/2021 5:30:00 PM 17.35 63.23 0.648 7.91 5.07 9.64
9/14/2021 5:45:00 PM 17.32 63.176 0.649 7.9 2.91 9.58
9/14/2021 6:00:00 PM 17.31 63.158 0.649 7.9 3.35 9.52
9/14/2021 6:15:00 PM 17.3 63.14 0.649 7.9 4.1 9.49
9/14/2021 6:30:00 PM 17.29 63.122 0.649 7.9 3.44 9.44
9/14/2021 6:45:00 PM 17.28 63.104 0.649 7.9 3.42 9.42
9/14/2021 7:00:00 PM 17.27 63.086 0.649 7.84 4 9.35
9/14/2021 7:15:00 PM 17.26 63.068 0.649 7.85 4.58 9.31
9/14/2021 7:30:00 PM 17.26 63.068 0.648 7.85 4.54 9.25
9/14/2021 7:45:00 PM 17.25 63.05 0.649 7.85 5.07 9.22
9/14/2021 8:00:00 PM 17.23 63.014 0.649 7.86 4.39 9.17
9/14/2021 8:15:00 PM 17.22 62.996 0.649 7.84 4.29 9.13
9/14/2021 8:30:00 PM 17.2 62.96 0.65 7.83 3.79 9.07
9/14/2021 8:45:00 PM 17.18 62.924 0.65 7.83 5.15 9.03
9/14/2021 9:00:00 PM 17.16 62.888 0.65 7.82 5.77 8.99
9/14/2021 9:15:00 PM 17.13 62.834 0.651 7.82 4.55 8.96
9/14/2021 9:30:00 PM 17.11 62.798 0.65 7.82 6.26 8.92
9/14/2021 9:45:00 PM 17.09 62.762 0.651 7.81 4.89 8.88
9/14/2021 10:00:00 PM 17.08 62.744 0.651 7.8 4.94 8.83
9/14/2021 10:15:00 PM 17.07 62.726 0.651 7.8 5.78 8.78
9/14/2021 10:30:00 PM 17.06 62.708 0.651 7.81 5.62 8.76
9/14/2021 10:45:00 PM 17.04 62.672 0.651 7.81 4.92 8.72
9/14/2021 11:00:00 PM 17.02 62.636 0.651 7.81 4.41 8.7
9/14/2021 11:15:00 PM 17 62.6 0.651 7.8 5.56 8.68
9/14/2021 11:30:00 PM 16.98 62.564 0.651 7.8 5.45 8.65
9/14/2021 11:45:00 PM 16.97 62.546 0.651 7.8 6.65 8.62
9/15/2021 12:00:00 AM 16.95 62.51 0.65 7.8 6.07 8.6
9/15/2021 12:15:00 AM 16.93 62.474 0.65 7.8 5.35 8.58
9/15/2021 12:30:00 AM 16.91 62.438 0.65 7.8 6.12 8.56
9/15/2021 12:45:00 AM 16.9 62.42 0.65 7.8 5.15 8.55
9/15/2021 1:00:00 AM 16.88 62.384 0.65 7.8 5.67 8.54
9/15/2021 1:15:00 AM 16.86 62.348 0.65 7.81 5.06 8.54
9/15/2021 1:30:00 AM 16.84 62.312 0.65 7.81 6.64 8.52
9/15/2021 1:45:00 AM 16.82 62.276 0.65 7.81 8.25 8.53
9/15/2021 2:00:00 AM 16.8 62.24 0.65 7.81 6.87 8.52
9/15/2021 2:15:00 AM 16.78 62.204 0.65 7.83 6.13 8.52
9/15/2021 2:30:00 AM 16.76 62.168 0.65 7.82 6.02 8.51
9/15/2021 2:45:00 AM 16.74 62.132 0.649 7.83 4.94 8.51
9/15/2021 3:00:00 AM 16.72 62.096 0.649 7.83 5.48 8.5
9/15/2021 3:15:00 AM 16.7 62.06 0.649 7.83 5.11 8.49
9/15/2021 3:30:00 AM 16.68 62.024 0.649 7.83 4.72 8.48
9/15/2021 3:45:00 AM 16.66 61.988 0.649 7.84 6.55 8.48
9/15/2021 4:00:00 AM 16.64 61.952 0.649 7.84 5.1 8.48
9/15/2021 4:15:00 AM 16.63 61.934 0.649 7.84 6.99 8.49
9/15/2021 4:30:00 AM 16.61 61.898 0.649 7.86 6.81 8.49
9/15/2021 4:45:00 AM 16.59 61.862 0.649 7.85 5.2 8.49
9/15/2021 5:00:00 AM 16.57 61.826 0.649 7.86 6.02 8.5
9/15/2021 5:15:00 AM 16.55 61.79 0.649 7.85 5.03 8.51
9/15/2021 5:30:00 AM 16.53 61.754 0.649 7.86 6.73 8.51
9/15/2021 5:45:00 AM 16.5 61.7 0.649 7.87 5.5 8.52
9/15/2021 6:00:00 AM 16.48 61.664 0.649 7.87 5.14 8.52
9/15/2021 6:15:00 AM 16.46 61.628 0.649 7.87 8.39 8.52
9/15/2021 6:30:00 AM 16.43 61.574 0.649 7.89 7.65 8.52
9/15/2021 6:45:00 AM 16.41 61.538 0.649 7.88 5.72 8.53
9/15/2021 7:00:00 AM 16.39 61.502 0.65 7.89 5.72 8.54
9/15/2021 7:15:00 AM 16.37 61.466 0.65 7.88 6.37 8.55
9/15/2021 7:30:00 AM 16.35 61.43 0.65 7.88 4.97 8.57
9/15/2021 7:45:00 AM 16.33 61.394 0.65 7.88 4.55 8.59
9/15/2021 8:00:00 AM 16.32 61.376 0.65 7.88 5.16 8.6
9/15/2021 8:15:00 AM 16.31 61.358 0.65 7.88 5.76 8.62
9/15/2021 8:30:00 AM 16.3 61.34 0.65 7.88 4.59 8.65
9/15/2021 8:45:00 AM 16.3 61.34 0.65 7.87 4.07 8.69
9/15/2021 9:00:00 AM 16.32 61.376 0.65 7.87 3.8 8.76
9/15/2021 9:15:00 AM 16.34 61.412 0.65 7.87 3.66 8.83
9/15/2021 9:30:00 AM 16.37 61.466 0.65 7.87 3.5 8.89
9/15/2021 9:45:00 AM 16.4 61.52 0.65 7.9 3.67 8.94
9/15/2021 10:00:00 AM 16.45 61.61 0.65 7.91 4.49 8.97
9/15/2021 10:15:00 AM 16.51 61.718 0.65 7.92 4.59 9.06
9/15/2021 10:30:00 AM 16.59 61.862 0.65 7.92 5.25 9.12
9/15/2021 10:45:00 AM 16.64 61.952 0.65 7.93 3.2 9.17
9/15/2021 11:00:00 AM 16.73 62.114 0.65 7.94 3.26 9.23
9/15/2021 11:15:00 AM 16.82 62.276 0.65 7.94 2.99 9.29
9/15/2021 11:30:00 AM 16.91 62.438 0.65 7.94 2.78 9.36
9/15/2021 11:45:00 AM 16.99 62.582 0.65 7.94 3.19 9.4
9/15/2021 12:00:00 PM 17.07 62.726 0.65 7.95 3.97 9.45
9/15/2021 12:15:00 PM 17.15 62.87 0.65 7.95 4.28 9.51
9/15/2021 12:30:00 PM 17.23 63.014 0.65 7.95 3.1 9.55
9/15/2021 12:45:00 PM 17.31 63.158 0.65 7.95 2.75 9.59
9/15/2021 1:00:00 PM 17.37 63.266 0.65 7.96 3.08 9.63
9/15/2021 1:15:00 PM 17.43 63.374 0.65 7.97 2.36 9.66
9/15/2021 1:30:00 PM 17.49 63.482 0.65 7.98 2.87 9.7
9/15/2021 1:45:00 PM 17.55 63.59 0.65 7.98 2.92 9.75
9/15/2021 2:00:00 PM 17.6 63.68 0.65 7.92 2.46 9.78
9/15/2021 2:15:00 PM 17.68 63.824 0.65 7.89 3.03 9.81
9/15/2021 2:30:00 PM 17.75 63.95 0.65 7.9 2.56 9.84
9/15/2021 2:45:00 PM 17.76 63.968 0.65 7.91 2.98 9.87
9/15/2021 3:00:00 PM 17.83 64.094 0.65 7.93 5.47 9.89
9/15/2021 3:15:00 PM 17.86 64.148 0.65 7.91 4.16 9.88
9/15/2021 3:30:00 PM 17.86 64.148 0.65 7.92 2.71 9.89
9/15/2021 3:45:00 PM 17.91 64.238 0.65 7.91 3.01 9.9
9/15/2021 4:00:00 PM 17.92 64.256 0.649 7.91 3.71 9.91
9/15/2021 4:15:00 PM 17.96 64.328 0.649 7.92 3.26 9.88
9/15/2021 4:30:00 PM 17.95 64.31 0.649 7.92 2.97 9.86
9/15/2021 4:45:00 PM 17.95 64.31 0.648 7.91 2.89 9.84
9/15/2021 5:00:00 PM 17.93 64.274 0.648 7.92 4.46 9.81
9/15/2021 5:15:00 PM 17.92 64.256 0.648 7.92 3.89 9.75
9/15/2021 5:30:00 PM 17.93 64.274 0.649 7.91 2.98 9.69
9/15/2021 5:45:00 PM 17.98 64.364 0.654 7.91 3.18 9.62
9/15/2021 6:00:00 PM 18.01 64.418 0.659 7.92 3.36 9.53
9/15/2021 6:15:00 PM 18.03 64.454 0.661 7.91 4.33 9.45
9/15/2021 6:30:00 PM 18.02 64.436 0.661 7.9 3.28 9.33
9/15/2021 6:45:00 PM 18 64.4 0.661 7.91 4.25 9.25
9/15/2021 7:00:00 PM 17.97 64.346 0.661 7.91 3.28 9.21
9/15/2021 7:15:00 PM 17.96 64.328 0.659 7.9 5.82 9.15
9/15/2021 7:30:00 PM 17.94 64.292 0.655 7.91 3.51 9.11
9/15/2021 7:45:00 PM 17.91 64.238 0.654 7.9 5.63 9.04
9/15/2021 8:00:00 PM 17.86 64.148 0.652 7.88 7.23 9
9/15/2021 8:15:00 PM 17.79 64.022 0.647 7.86 5.53 8.96
9/15/2021 8:30:00 PM 17.71 63.878 0.643 7.85 5.99 8.93
9/15/2021 8:45:00 PM 17.66 63.788 0.641 7.85 8.17 8.89
9/15/2021 9:00:00 PM 17.63 63.734 0.639 7.84 6.99 8.83
9/15/2021 9:15:00 PM 17.61 63.698 0.638 7.85 8.21 8.79
9/15/2021 9:30:00 PM 17.59 63.662 0.638 7.84 7.34 8.74
9/15/2021 9:45:00 PM 17.57 63.626 0.637 7.83 7.62 8.69
9/15/2021 10:00:00 PM 17.55 63.59 0.637 7.84 7.79 8.65
9/15/2021 10:15:00 PM 17.54 63.572 0.637 7.84 7.33 8.61
9/15/2021 10:30:00 PM 17.52 63.536 0.637 7.82 8.33 8.57
9/15/2021 10:45:00 PM 17.5 63.5 0.637 7.82 8.12 8.54
9/15/2021 11:00:00 PM 17.5 63.5 0.635 7.81 13.58 8.49
9/15/2021 11:15:00 PM 17.51 63.518 0.633 7.79 8.74 8.43
9/15/2021 11:30:00 PM 17.54 63.572 0.629 7.8 10.91 8.38
9/15/2021 11:45:00 PM 17.59 63.662 0.621 7.78 10.76 8.31
9/16/2021 12:00:00 AM 17.65 63.77 0.614 7.78 11.81 8.25
9/16/2021 12:15:00 AM 17.67 63.806 0.611 7.76 16.12 8.22
9/16/2021 12:30:00 AM 17.68 63.824 0.61 7.76 19.46 8.19
9/16/2021 12:45:00 AM 17.66 63.788 0.611 7.75 15.2 8.18
9/16/2021 1:00:00 AM 17.64 63.752 0.615 7.75 19.43 8.16
9/16/2021 1:15:00 AM 17.63 63.734 0.616 7.74 19.56 8.15
9/16/2021 1:30:00 AM 17.64 63.752 0.615 7.73 19.36 8.12
9/16/2021 1:45:00 AM 17.67 63.806 0.612 7.73 18.34 8.11
9/16/2021 2:00:00 AM 17.72 63.896 0.607 7.73 19.2 8.07
9/16/2021 2:15:00 AM 17.78 64.004 0.597 7.72 20.47 8.02
9/16/2021 2:30:00 AM 17.85 64.13 0.589 7.72 20.1 7.97
9/16/2021 2:45:00 AM 17.9 64.22 0.587 7.71 23.94 7.95
9/16/2021 3:00:00 AM 17.92 64.256 0.592 7.71 23.83 7.95
9/16/2021 3:15:00 AM 17.91 64.238 0.6 7.72 29.19 7.98
9/16/2021 3:30:00 AM 17.87 64.166 0.607 7.73 24.66 8
9/16/2021 3:45:00 AM 17.81 64.058 0.61 7.73 18.99 8.02
9/16/2021 4:00:00 AM 17.74 63.932 0.609 7.73 19.4 8
9/16/2021 4:15:00 AM 17.68 63.824 0.602 7.71 20.14 7.97
9/16/2021 4:30:00 AM 17.64 63.752 0.588 7.7 18.88 7.89
9/16/2021 4:45:00 AM 17.63 63.734 0.572 7.69 17.08 7.82
9/16/2021 5:00:00 AM 17.64 63.752 0.554 7.67 19.12 7.74
9/16/2021 5:15:00 AM 17.67 63.806 0.538 7.66 17.22 7.68
9/16/2021 5:30:00 AM 17.7 63.86 0.526 7.64 16.59 7.63
9/16/2021 5:45:00 AM 17.74 63.932 0.517 7.63 16.25 7.59
9/16/2021 6:00:00 AM 17.77 63.986 0.513 7.61 16.42 7.58
9/16/2021 6:15:00 AM 17.77 63.986 0.511 7.61 15.87 7.59
9/16/2021 6:30:00 AM 17.76 63.968 0.511 7.61 15.72 7.59
9/16/2021 6:45:00 AM 17.74 63.932 0.513 7.61 11.67 7.61
9/16/2021 7:00:00 AM 17.71 63.878 0.516 7.61 13.92 7.63
9/16/2021 7:15:00 AM 17.68 63.824 0.519 7.62 15.36 7.65
9/16/2021 7:30:00 AM 17.64 63.752 0.523 7.61 13.97 7.69
9/16/2021 7:45:00 AM 17.6 63.68 0.526 7.62 12.66 7.72
9/16/2021 8:00:00 AM 17.56 63.608 0.529 7.62 12.69 7.75
9/16/2021 8:15:00 AM 17.52 63.536 0.532 7.63 9.63 7.79
9/16/2021 8:30:00 AM 17.49 63.482 0.535 7.64 9.66 7.85
9/16/2021 8:45:00 AM 17.47 63.446 0.537 7.64 13.35 7.88
9/16/2021 9:00:00 AM 17.46 63.428 0.54 7.64 8.44 7.95
9/16/2021 9:15:00 AM 17.46 63.428 0.542 7.65 8.67 8
9/16/2021 9:30:00 AM 17.47 63.446 0.544 7.64 9.85 8.07
9/16/2021 9:45:00 AM 17.48 63.464 0.546 7.63 8.32 8.14
9/16/2021 10:00:00 AM 17.52 63.536 0.548 7.65 10.12 8.22
9/16/2021 10:15:00 AM 17.55 63.59 0.55 7.65 8.89 8.29
9/16/2021 10:30:00 AM 17.57 63.626 0.553 7.65 7.67 8.36
9/16/2021 10:45:00 AM 17.63 63.734 0.556 7.68 10.33 8.45
9/16/2021 11:00:00 AM 17.68 63.824 0.559 7.66 8 8.53
9/16/2021 11:15:00 AM 17.75 63.95 0.563 7.67 5.8 8.61
9/16/2021 11:30:00 AM 17.8 64.04 0.567 7.69 5.88 8.7
9/16/2021 11:45:00 AM 17.84 64.112 0.572 7.69 7.07 8.79
9/16/2021 12:00:00 PM 17.86 64.148 0.577 7.71 7.01 8.87
9/16/2021 12:15:00 PM 17.85 64.13 0.581 7.72 5.42 8.91
9/16/2021 12:30:00 PM 17.86 64.148 0.586 7.73 5.95 8.98
9/16/2021 12:45:00 PM 17.87 64.166 0.589 7.74 4.53 9.05
9/16/2021 1:00:00 PM 17.92 64.256 0.593 7.75 5.98 9.15
9/16/2021 1:15:00 PM 17.88 64.184 0.596 7.76 5.13 9.19
9/16/2021 1:30:00 PM 17.9 64.22 0.599 7.77 4.73 9.24
9/16/2021 1:45:00 PM 17.93 64.274 0.602 7.77 4.7 9.3
9/16/2021 2:00:00 PM 17.93 64.274 0.605 7.78 3.74 9.35
9/16/2021 2:15:00 PM 17.95 64.31 0.608 7.79 4.41 9.39
9/16/2021 2:30:00 PM 17.97 64.346 0.61 7.8 6.03 9.45
9/16/2021 2:45:00 PM 17.99 64.382 0.612 7.8 4.59 9.5
9/16/2021 3:00:00 PM 18 64.4 0.614 7.81 3.74 9.54
9/16/2021 3:15:00 PM 18.05 64.49 0.616 7.82 3.66 9.6
9/16/2021 3:30:00 PM 18 64.4 0.618 7.81 4.01 9.55
9/16/2021 3:45:00 PM 17.99 64.382 0.619 7.82 4.63 9.53
9/16/2021 4:00:00 PM 17.97 64.346 0.621 7.83 3.43 9.51
9/16/2021 4:15:00 PM 17.96 64.328 0.622 7.83 4.27 9.5
9/16/2021 4:30:00 PM 17.98 64.364 0.623 7.84 5.61 9.54
9/16/2021 4:45:00 PM 17.97 64.346 0.624 7.84 3.89 9.55
9/16/2021 5:00:00 PM 17.96 64.328 0.624 7.84 3.13 9.53
9/16/2021 5:15:00 PM 17.93 64.274 0.625 7.85 6.73 9.49
9/16/2021 5:30:00 PM 17.91 64.238 0.626 7.85 3.09 9.45
9/16/2021 5:45:00 PM 17.9 64.22 0.627 7.85 4.47 9.45
9/16/2021 6:00:00 PM 17.88 64.184 0.628 7.82 3.15 9.4
9/16/2021 6:15:00 PM 17.86 64.148 0.629 7.84 3.23 9.36
9/16/2021 6:30:00 PM 17.83 64.094 0.629 7.84 2.9 9.3
9/16/2021 6:45:00 PM 17.8 64.04 0.63 7.84 3.42 9.24
9/16/2021 7:00:00 PM 17.77 63.986 0.63 7.83 4.14 9.19
9/16/2021 7:15:00 PM 17.74 63.932 0.631 7.82 3.16 9.14
9/16/2021 7:30:00 PM 17.71 63.878 0.632 7.83 3.15 9.07
9/16/2021 7:45:00 PM 17.69 63.842 0.632 7.82 4 9.03
9/16/2021 8:00:00 PM 17.66 63.788 0.633 7.82 4.73 8.98
9/16/2021 8:15:00 PM 17.64 63.752 0.634 7.81 5.26 8.94
9/16/2021 8:30:00 PM 17.62 63.716 0.634 7.81 3.09 8.92
9/16/2021 8:45:00 PM 17.6 63.68 0.635 7.81 4.25 8.87
9/16/2021 9:00:00 PM 17.57 63.626 0.635 7.8 4.43 8.82
9/16/2021 9:15:00 PM 17.55 63.59 0.636 7.8 6.35 8.8
9/16/2021 9:30:00 PM 17.52 63.536 0.636 7.8 4.79 8.76
9/16/2021 9:45:00 PM 17.5 63.5 0.636 7.78 4.69 8.74
9/16/2021 10:00:00 PM 17.48 63.464 0.637 7.78 5.17 8.69
9/16/2021 10:15:00 PM 17.45 63.41 0.637 7.78 5.22 8.67
9/16/2021 10:30:00 PM 17.42 63.356 0.638 7.79 6.8 8.63
9/16/2021 10:45:00 PM 17.4 63.32 0.638 7.79 4.07 8.61
9/16/2021 11:00:00 PM 17.37 63.266 0.638 7.78 5.76 8.58
9/16/2021 11:15:00 PM 17.34 63.212 0.639 7.77 7.22 8.56
9/16/2021 11:30:00 PM 17.32 63.176 0.639 7.77 10.47 8.53
9/16/2021 11:45:00 PM 17.3 63.14 0.639 7.77 6.92 8.5
9/17/2021 12:00:00 AM 17.28 63.104 0.639 7.77 6.51 8.5
9/17/2021 12:15:00 AM 17.26 63.068 0.64 7.77 4.52 8.48
9/17/2021 12:30:00 AM 17.25 63.05 0.64 7.77 5.65 8.46
9/17/2021 12:45:00 AM 17.23 63.014 0.64 7.78 7.67 8.45
9/17/2021 1:00:00 AM 17.21 62.978 0.641 7.78 5.76 8.44
9/17/2021 1:15:00 AM 17.19 62.942 0.641 7.77 4.72 8.42
9/17/2021 1:30:00 AM 17.18 62.924 0.641 7.77 3.94 8.41
9/17/2021 1:45:00 AM 17.16 62.888 0.642 7.77 5.76 8.41
9/17/2021 2:00:00 AM 17.14 62.852 0.642 7.76 4.49 8.41
9/17/2021 2:15:00 AM 17.13 62.834 0.642 7.76 6.88 8.39
9/17/2021 2:30:00 AM 17.11 62.798 0.642 7.76 6.41 8.4
9/17/2021 2:45:00 AM 17.09 62.762 0.643 7.75 14.49 8.39
9/17/2021 3:00:00 AM 17.08 62.744 0.643 7.75 4.25 8.37
9/17/2021 3:15:00 AM 17.06 62.708 0.644 7.75 6.39 8.37
9/17/2021 3:30:00 AM 17.04 62.672 0.645 7.75 6.48 8.35
9/17/2021 3:45:00 AM 17.01 62.618 0.645 7.76 6.11 8.35
9/17/2021 4:00:00 AM 16.99 62.582 0.645 7.76 5.49 8.35
9/17/2021 4:15:00 AM 16.97 62.546 0.646 7.76 4.49 8.35
9/17/2021 4:30:00 AM 16.95 62.51 0.646 7.76 6.8 8.36
9/17/2021 4:45:00 AM 16.93 62.474 0.646 7.76 4.92 8.36
9/17/2021 5:00:00 AM 16.91 62.438 0.647 7.75 7.6 8.36
9/17/2021 5:15:00 AM 16.91 62.438 0.647 7.76 4.85 8.39
9/17/2021 5:30:00 AM 16.9 62.42 0.647 7.76 6.07 8.41
9/17/2021 5:45:00 AM 16.88 62.384 0.647 7.76 6.63 8.41
9/17/2021 6:00:00 AM 16.86 62.348 0.647 7.76 4.64 8.42
9/17/2021 6:15:00 AM 16.84 62.312 0.648 7.77 5.06 8.41
9/17/2021 6:30:00 AM 16.82 62.276 0.648 7.77 7.06 8.43
9/17/2021 6:45:00 AM 16.81 62.258 0.648 7.76 5.66 8.42
9/17/2021 7:00:00 AM 16.79 62.222 0.648 7.76 5.77 8.43
9/17/2021 7:15:00 AM 16.77 62.186 0.649 7.75 4.93 8.44
9/17/2021 7:30:00 AM 16.76 62.168 0.649 7.75 4.48 8.45
9/17/2021 7:45:00 AM 16.74 62.132 0.649 7.76 5.18 8.47
9/17/2021 8:00:00 AM 16.73 62.114 0.65 7.76 4.2 8.48
9/17/2021 8:15:00 AM 16.72 62.096 0.65 7.75 3.84 8.53
9/17/2021 8:30:00 AM 16.72 62.096 0.65 7.76 4.41 8.57
9/17/2021 8:45:00 AM 16.74 62.132 0.651 7.77 4.72 8.64
9/17/2021 9:00:00 AM 16.74 62.132 0.651 7.76 3.04 8.68
9/17/2021 9:15:00 AM 16.74 62.132 0.652 7.77 3.36 8.69
9/17/2021 9:30:00 AM 16.73 62.114 0.652 7.77 3.52 8.7
9/17/2021 9:45:00 AM 16.73 62.114 0.652 7.8 5.04 8.72
9/17/2021 10:00:00 AM 16.74 62.132 0.652 7.76 2.66 8.76
9/17/2021 10:15:00 AM 16.75 62.15 0.652 7.77 3.91 8.83
9/17/2021 10:30:00 AM 16.77 62.186 0.652 7.78 2.43 8.9
9/17/2021 10:45:00 AM 16.78 62.204 0.652 7.8 2.14 8.97
9/17/2021 11:00:00 AM 16.8 62.24 0.652 7.8 2.75 9.05
9/17/2021 11:15:00 AM 16.84 62.312 0.651 7.8 2.95 9.1
9/17/2021 11:30:00 AM 16.86 62.348 0.651 7.81 2.8 9.16
9/17/2021 11:45:00 AM 16.87 62.366 0.651 7.8 3.08 9.22
9/17/2021 12:00:00 PM 16.88 62.384 0.651 7.81 2.27 9.24
9/17/2021 12:15:00 PM 16.88 62.384 0.65 7.8 2.35 9.28
9/17/2021 12:30:00 PM 16.91 62.438 0.65 7.81 2.67 9.34
9/17/2021 12:45:00 PM 16.92 62.456 0.65 7.81 2.55 9.4
9/17/2021 1:00:00 PM 16.95 62.51 0.65 7.83 3.3 9.49
9/17/2021 1:15:00 PM 16.95 62.51 0.649 7.83 3.95 9.5
9/17/2021 1:30:00 PM 16.96 62.528 0.649 7.83 3.34 9.55
9/17/2021 1:45:00 PM 16.99 62.582 0.649 7.85 2.16 9.62
9/17/2021 2:00:00 PM 17.02 62.636 0.649 7.84 1.78 9.68
9/17/2021 2:15:00 PM 17.06 62.708 0.649 7.86 2.14 9.76
9/17/2021 2:30:00 PM 17.09 62.762 0.649 7.87 2.11 9.81
9/17/2021 2:45:00 PM 17.15 62.87 0.649 7.89 2.19 9.86
9/17/2021 3:00:00 PM 17.18 62.924 0.649 7.86 2.01 9.9
9/17/2021 3:15:00 PM 17.2 62.96 0.649 7.9 1.99 9.92
9/17/2021 3:30:00 PM 17.24 63.032 0.649 7.9 2.1 9.94
9/17/2021 3:45:00 PM 17.24 63.032 0.649 7.9 3.58 9.95
9/17/2021 4:00:00 PM 17.25 63.05 0.649 7.91 2.42 9.96
9/17/2021 4:15:00 PM 17.26 63.068 0.648 7.9 1.83 9.97
9/17/2021 4:30:00 PM 17.31 63.158 0.648 7.91 2.44 10.01
9/17/2021 4:45:00 PM 17.33 63.194 0.648 7.91 2.51 9.99
9/17/2021 5:00:00 PM 17.36 63.248 0.648 7.92 3.64 9.97
9/17/2021 5:15:00 PM 17.35 63.23 0.648 7.9 2.17 9.93
9/17/2021 5:30:00 PM 17.34 63.212 0.648 7.9 2.12 9.87
9/17/2021 5:45:00 PM 17.3 63.14 0.648 7.89 2.38 9.78
9/17/2021 6:00:00 PM 17.28 63.104 0.648 7.9 3.81 9.73
9/17/2021 6:15:00 PM 17.25 63.05 0.649 7.87 3.35 9.66
9/17/2021 6:30:00 PM 17.22 62.996 0.649 7.85 2.14 9.59
9/17/2021 6:45:00 PM 17.19 62.942 0.649 7.88 2.17 9.52
9/17/2021 7:00:00 PM 17.17 62.906 0.649 7.9 2.08 9.44
9/17/2021 7:15:00 PM 17.14 62.852 0.649 7.91 2.5 9.37
9/17/2021 7:30:00 PM 17.13 62.834 0.649 7.9 2.21 9.31
9/17/2021 7:45:00 PM 17.11 62.798 0.649 7.9 2.6 9.25
9/17/2021 8:00:00 PM 17.09 62.762 0.649 7.89 3.05 9.2
9/17/2021 8:15:00 PM 17.07 62.726 0.649 7.89 3.25 9.14
9/17/2021 8:30:00 PM 17.04 62.672 0.649 7.88 4 9.1
9/17/2021 8:45:00 PM 17.02 62.636 0.649 7.88 4.21 9.07
9/17/2021 9:00:00 PM 17 62.6 0.649 7.87 3.98 9.02
9/17/2021 9:15:00 PM 16.97 62.546 0.649 7.87 3.31 8.96
9/17/2021 9:30:00 PM 16.95 62.51 0.65 7.86 3.24 8.93
9/17/2021 9:45:00 PM 16.93 62.474 0.65 7.85 3.7 8.89
9/17/2021 10:00:00 PM 16.91 62.438 0.65 7.79 6.04 8.85
9/17/2021 10:15:00 PM 16.89 62.402 0.65 7.84 3.21 8.81
9/17/2021 10:30:00 PM 16.88 62.384 0.65 7.84 3.31 8.79
9/17/2021 10:45:00 PM 16.86 62.348 0.65 7.83 3.79 8.76
9/17/2021 11:00:00 PM 16.85 62.33 0.651 7.82 3.2 8.71
9/17/2021 11:15:00 PM 16.83 62.294 0.651 7.83 4.41 8.7
9/17/2021 11:30:00 PM 16.82 62.276 0.651 7.83 3.85 8.68
9/17/2021 11:45:00 PM 16.81 62.258 0.651 7.82 4.27 8.65
9/18/2021 12:00:00 AM 16.79 62.222 0.651 7.82 2.78 8.63
9/18/2021 12:15:00 AM 16.77 62.186 0.65 7.82 4.06 8.63
9/18/2021 12:30:00 AM 16.75 62.15 0.65 7.82 5.06 8.6
9/18/2021 12:45:00 AM 16.73 62.114 0.65 7.81 4.48 8.58
9/18/2021 1:00:00 AM 16.71 62.078 0.65 7.81 4.92 8.58
9/18/2021 1:15:00 AM 16.69 62.042 0.65 7.81 6.47 8.56
9/18/2021 1:30:00 AM 16.68 62.024 0.65 7.8 3.56 8.56
9/18/2021 1:45:00 AM 16.66 61.988 0.65 7.79 2.91 8.55
9/18/2021 2:00:00 AM 16.64 61.952 0.65 7.8 6.69 8.54
9/18/2021 2:15:00 AM 16.62 61.916 0.65 7.8 3.95 8.54
9/18/2021 2:30:00 AM 16.61 61.898 0.65 7.8 4.12 8.52
9/18/2021 2:45:00 AM 16.59 61.862 0.65 7.73 3.95 8.53
9/18/2021 3:00:00 AM 16.58 61.844 0.65 7.76 6.53 8.52
9/18/2021 3:15:00 AM 16.57 61.826 0.65 7.73 3.41 8.53
9/18/2021 3:30:00 AM 16.56 61.808 0.65 7.75 4.6 8.53
9/18/2021 3:45:00 AM 16.57 61.826 0.649 7.75 4.93 8.53
9/18/2021 4:00:00 AM 16.61 61.898 0.654 7.73 4.21 8.54
9/18/2021 4:15:00 AM 16.64 61.952 0.658 7.75 3.99 8.52
9/18/2021 4:30:00 AM 16.65 61.97 0.661 7.76 3.93 8.52
9/18/2021 4:45:00 AM 16.65 61.97 0.661 7.76 6.6 8.52
9/18/2021 5:00:00 AM 16.64 61.952 0.662 7.76 4.98 8.5
9/18/2021 5:15:00 AM 16.63 61.934 0.662 7.77 4.33 8.52
9/18/2021 5:30:00 AM 16.62 61.916 0.662 7.76 5.95 8.52
9/18/2021 5:45:00 AM 16.6 61.88 0.662 7.77 4.85 8.53
9/18/2021 6:00:00 AM 16.59 61.862 0.662 7.73 4.92 8.53
9/18/2021 6:15:00 AM 16.57 61.826 0.662 7.77 3.92 8.53
9/18/2021 6:30:00 AM 16.55 61.79 0.662 7.78 8.28 8.53
9/18/2021 6:45:00 AM 16.53 61.754 0.662 7.78 4.49 8.54
9/18/2021 7:00:00 AM 16.51 61.718 0.662 7.78 3.33 8.54
9/18/2021 7:15:00 AM 16.49 61.682 0.662 7.75 4.17 8.55
9/18/2021 7:30:00 AM 16.48 61.664 0.662 7.78 4.12 8.58
9/18/2021 7:45:00 AM 16.48 61.664 0.662 7.78 3.23 8.6
9/18/2021 8:00:00 AM 16.45 61.61 0.662 7.78 3.23 8.64
9/18/2021 8:15:00 AM 16.41 61.538 0.659 7.77 3.14 8.7
9/18/2021 8:30:00 AM 16.36 61.448 0.654 7.76 3.02 8.77
9/18/2021 8:45:00 AM 16.32 61.376 0.651 7.78 2.92 8.82
9/18/2021 9:00:00 AM 16.29 61.322 0.65 7.74 2.86 8.88
9/18/2021 9:15:00 AM 16.3 61.34 0.65 7.75 2.28 8.96
9/18/2021 9:30:00 AM 16.33 61.394 0.65 7.77 3.18 9.07
9/18/2021 9:45:00 AM 16.36 61.448 0.65 7.77 2.26 9.17
9/18/2021 10:00:00 AM 16.39 61.502 0.65 7.78 3.58 9.22
9/18/2021 10:15:00 AM 16.42 61.556 0.65 7.79 2.19 9.29
9/18/2021 10:30:00 AM 16.45 61.61 0.65 7.79 4.88 9.37
9/18/2021 10:45:00 AM 16.48 61.664 0.65 7.82 1.9 9.43
9/18/2021 11:00:00 AM 16.51 61.718 0.649 7.85 2.26 9.48
9/18/2021 11:15:00 AM 16.58 61.844 0.65 7.87 2.58 9.57
9/18/2021 11:30:00 AM 16.68 62.024 0.649 7.86 2.92 9.69
9/18/2021 11:45:00 AM 16.76 62.168 0.649 7.88 2.14 9.76
9/18/2021 12:00:00 PM 16.82 62.276 0.649 7.89 3.4 9.83
9/18/2021 12:15:00 PM 16.91 62.438 0.649 7.89 2.49 9.88
9/18/2021 12:30:00 PM 17.06 62.708 0.649 7.9 1.68 9.98
9/18/2021 12:45:00 PM 17.1 62.78 0.649 7.91 1.68 10.05
9/18/2021 1:00:00 PM 17.08 62.744 0.649 7.91 2.25 10.05
9/18/2021 1:15:00 PM 17.23 63.014 0.649 7.87 2.03 10.12
9/18/2021 1:30:00 PM 17.3 63.14 0.649 7.9 2.2 10.15
9/18/2021 1:45:00 PM 17.38 63.284 0.649 7.92 2.35 10.22
9/18/2021 2:00:00 PM 17.47 63.446 0.649 7.93 1.71 10.28
9/18/2021 2:15:00 PM 17.44 63.392 0.648 7.88 2.42 10.28
9/18/2021 2:30:00 PM 17.42 63.356 0.648 7.87 4 10.24
9/18/2021 2:45:00 PM 17.42 63.356 0.648 7.91 2.85 10.25
9/18/2021 3:00:00 PM 17.51 63.518 0.648 7.86 2.1 10.29
9/18/2021 3:15:00 PM 17.57 63.626 0.648 7.87 2.21 10.3
9/18/2021 3:30:00 PM 17.57 63.626 0.648 7.91 2.31 10.33
9/18/2021 3:45:00 PM 17.57 63.626 0.648 7.89 2.57 10.3
9/18/2021 4:00:00 PM 17.56 63.608 0.648 7.87 2.56 10.25
9/18/2021 4:15:00 PM 17.61 63.698 0.648 7.88 3.1 10.26
9/18/2021 4:30:00 PM 17.63 63.734 0.648 7.89 2.6 10.21
9/18/2021 4:45:00 PM 17.61 63.698 0.648 7.88 2 10.14
9/18/2021 5:00:00 PM 17.58 63.644 0.649 7.88 3.74 10.07
9/18/2021 5:15:00 PM 17.57 63.626 0.649 7.94 2.36 10.04
9/18/2021 5:30:00 PM 17.55 63.59 0.649 7.93 2.31 9.96
9/18/2021 5:45:00 PM 17.53 63.554 0.649 7.9 1.95 9.9
9/18/2021 6:00:00 PM 17.5 63.5 0.649 7.92 2.25 9.82
9/18/2021 6:15:00 PM 17.48 63.464 0.649 7.88 2.15 9.75
9/18/2021 6:30:00 PM 17.46 63.428 0.649 7.91 2.37 9.67
9/18/2021 6:45:00 PM 17.44 63.392 0.649 7.88 2.15 9.6
9/18/2021 7:00:00 PM 17.42 63.356 0.649 7.86 2.56 9.51
9/18/2021 7:15:00 PM 17.39 63.302 0.649 7.89 4.96 9.43
9/18/2021 7:30:00 PM 17.35 63.23 0.649 7.89 2.96 9.34
9/18/2021 7:45:00 PM 17.31 63.158 0.649 7.87 2.23 9.26
9/18/2021 8:00:00 PM 17.27 63.086 0.649 7.87 2.39 9.19
9/18/2021 8:15:00 PM 17.23 63.014 0.649 7.84 2.54 9.14
9/18/2021 8:30:00 PM 17.2 62.96 0.65 7.84 5 9.08
9/18/2021 8:45:00 PM 17.16 62.888 0.65 7.84 3.8 9.04
9/18/2021 9:00:00 PM 17.14 62.852 0.65 7.83 8.07 8.99
9/18/2021 9:15:00 PM 17.11 62.798 0.65 7.83 3.13 8.95
9/18/2021 9:30:00 PM 17.1 62.78 0.65 7.82 3.75 8.91
9/18/2021 9:45:00 PM 17.08 62.744 0.65 7.82 3.25 8.87
9/18/2021 10:00:00 PM 17.06 62.708 0.65 7.81 2.79 8.84
9/18/2021 10:15:00 PM 17.04 62.672 0.65 7.81 2.85 8.81
9/18/2021 10:30:00 PM 17.02 62.636 0.65 7.81 3.15 8.78
9/18/2021 10:45:00 PM 17.01 62.618 0.65 7.8 3.25 8.75
9/18/2021 11:00:00 PM 16.99 62.582 0.65 7.79 3.51 8.72
9/18/2021 11:15:00 PM 16.98 62.564 0.65 7.79 4.79 8.68
9/18/2021 11:30:00 PM 16.96 62.528 0.65 7.8 5.49 8.66
9/18/2021 11:45:00 PM 16.94 62.492 0.65 7.79 3.93 8.63
9/19/2021 12:00:00 AM 16.93 62.474 0.65 7.79 4.32 8.63
9/19/2021 12:15:00 AM 16.91 62.438 0.65 7.78 3.6 8.59
9/19/2021 12:30:00 AM 16.9 62.42 0.65 7.79 2.97 8.58
9/19/2021 12:45:00 AM 16.88 62.384 0.65 7.79 4.38 8.57
9/19/2021 1:00:00 AM 16.86 62.348 0.65 7.78 3.83 8.56
9/19/2021 1:15:00 AM 16.84 62.312 0.65 7.78 4.22 8.55
9/19/2021 1:30:00 AM 16.82 62.276 0.65 7.78 5.2 8.54
9/19/2021 1:45:00 AM 16.8 62.24 0.65 7.8 3.56 8.53
9/19/2021 2:00:00 AM 16.79 62.222 0.65 7.76 3.74 8.52
9/19/2021 2:15:00 AM 16.76 62.168 0.65 7.76 3 8.52
9/19/2021 2:30:00 AM 16.74 62.132 0.65 7.77 4.22 8.52
9/19/2021 2:45:00 AM 16.73 62.114 0.65 7.78 4.04 8.51
9/19/2021 3:00:00 AM 16.71 62.078 0.649 7.79 3.29 8.52
9/19/2021 3:15:00 AM 16.69 62.042 0.649 7.8 4.1 8.51
9/19/2021 3:30:00 AM 16.67 62.006 0.649 7.79 3.44 8.52
9/19/2021 3:45:00 AM 16.65 61.97 0.649 7.75 3.97 8.51
9/19/2021 4:00:00 AM 16.63 61.934 0.649 7.79 3.76 8.51
9/19/2021 4:15:00 AM 16.6 61.88 0.649 7.74 4.72 8.52
9/19/2021 4:30:00 AM 16.58 61.844 0.649 7.75 3.99 8.51
9/19/2021 4:45:00 AM 16.55 61.79 0.649 7.75 3.79 8.51
9/19/2021 5:00:00 AM 16.53 61.754 0.649 7.77 4.04 8.52
9/19/2021 5:15:00 AM 16.5 61.7 0.649 7.76 3.74 8.52
9/19/2021 5:30:00 AM 16.46 61.628 0.649 7.76 4.14 8.52
9/19/2021 5:45:00 AM 16.43 61.574 0.649 7.77 3.91 8.52
9/19/2021 6:00:00 AM 16.4 61.52 0.649 7.77 4.52 8.53
9/19/2021 6:15:00 AM 16.36 61.448 0.649 7.77 3.78 8.54
9/19/2021 6:30:00 AM 16.33 61.394 0.649 7.79 3.96 8.54
9/19/2021 6:45:00 AM 16.29 61.322 0.648 7.76 6.11 8.55
9/19/2021 7:00:00 AM 16.26 61.268 0.648 7.77 4.66 8.55
9/19/2021 7:15:00 AM 16.22 61.196 0.648 7.8 3.51 8.56
9/19/2021 7:30:00 AM 16.19 61.142 0.648 7.79 3.14 8.59
9/19/2021 7:45:00 AM 16.15 61.07 0.648 7.8 5.85 8.62
9/19/2021 8:00:00 AM 16.12 61.016 0.648 7.8 3.59 8.65
9/19/2021 8:15:00 AM 16.09 60.962 0.648 7.77 3.51 8.69
9/19/2021 8:30:00 AM 16.08 60.944 0.648 7.77 3.57 8.75
9/19/2021 8:45:00 AM 16.07 60.926 0.648 7.81 2.6 8.82
9/19/2021 9:00:00 AM 16.08 60.944 0.648 7.81 3.08 8.89
9/19/2021 9:15:00 AM 16.1 60.98 0.648 7.81 2.18 8.98
9/19/2021 9:30:00 AM 16.12 61.016 0.648 7.82 2.67 9.08
9/19/2021 9:45:00 AM 16.16 61.088 0.649 7.81 2.87 9.16
9/19/2021 10:00:00 AM 16.2 61.16 0.649 7.79 2.21 9.26
9/19/2021 10:15:00 AM 16.25 61.25 0.649 7.81 2.21 9.34
9/19/2021 10:30:00 AM 16.3 61.34 0.649 7.82 2.37 9.43
9/19/2021 10:45:00 AM 16.36 61.448 0.649 7.82 2.11 9.52
9/19/2021 11:00:00 AM 16.43 61.574 0.649 7.83 1.98 9.62
9/19/2021 11:15:00 AM 16.51 61.718 0.649 7.84 2.36 9.71
9/19/2021 11:30:00 AM 16.58 61.844 0.649 7.84 1.98 9.79
9/19/2021 11:45:00 AM 16.65 61.97 0.648 7.88 2.06 9.88
9/19/2021 12:00:00 PM 16.72 62.096 0.648 7.84 2.1 9.94
9/19/2021 12:15:00 PM 16.8 62.24 0.648 7.86 2.17 10
9/19/2021 12:30:00 PM 16.86 62.348 0.649 7.87 3.65 10.04
9/19/2021 12:45:00 PM 16.93 62.474 0.648 7.88 4.56 10.08
9/19/2021 1:00:00 PM 17 62.6 0.648 7.89 2.98 10.13
9/19/2021 1:15:00 PM 17.07 62.726 0.649 7.93 2.86 10.19
9/19/2021 1:30:00 PM 17.13 62.834 0.649 7.93 1.6 10.23
9/19/2021 1:45:00 PM 17.18 62.924 0.649 7.87 2.08 10.28
9/19/2021 2:00:00 PM 17.23 63.014 0.649 7.89 2.32 10.29
9/19/2021 2:15:00 PM 17.27 63.086 0.649 7.9 2.43 10.32
9/19/2021 2:30:00 PM 17.31 63.158 0.649 7.9 1.63 10.36
9/19/2021 2:45:00 PM 17.33 63.194 0.649 7.91 2.63 10.38
9/19/2021 3:00:00 PM 17.35 63.23 0.649 7.92 2.1 10.39
9/19/2021 3:15:00 PM 17.37 63.266 0.649 7.92 1.79 10.4
9/19/2021 3:30:00 PM 17.37 63.266 0.649 7.92 1.78 10.38
9/19/2021 3:45:00 PM 17.39 63.302 0.649 7.92 1.95 10.37
9/19/2021 4:00:00 PM 17.39 63.302 0.649 7.92 2.45 10.35
9/19/2021 4:15:00 PM 17.39 63.302 0.649 7.92 2.05 10.32
9/19/2021 4:30:00 PM 17.39 63.302 0.649 7.92 1.55 10.28
9/19/2021 4:45:00 PM 17.37 63.266 0.649 7.92 2.89 10.24
9/19/2021 5:00:00 PM 17.35 63.23 0.649 7.92 1.9 10.17
9/19/2021 5:15:00 PM 17.33 63.194 0.649 7.92 1.57 10.12
9/19/2021 5:30:00 PM 17.3 63.14 0.649 7.93 3.35 10.06
9/19/2021 5:45:00 PM 17.27 63.086 0.649 7.92 2.12 9.98
9/19/2021 6:00:00 PM 17.24 63.032 0.649 7.92 1.89 9.89
9/19/2021 6:15:00 PM 17.2 62.96 0.649 7.91 3.28 9.81
9/19/2021 6:30:00 PM 17.17 62.906 0.65 7.91 9.97 9.73
9/19/2021 6:45:00 PM 17.13 62.834 0.65 7.9 1.63 9.65
9/19/2021 7:00:00 PM 17.09 62.762 0.65 7.9 2.45 9.56
9/19/2021 7:15:00 PM 17.05 62.69 0.65 7.89 2.17 9.48
9/19/2021 7:30:00 PM 17.01 62.618 0.65 7.88 4 9.4
9/19/2021 7:45:00 PM 16.96 62.528 0.65 7.89 2.4 9.33
9/19/2021 8:00:00 PM 16.92 62.456 0.65 7.88 3.71 9.26
9/19/2021 8:15:00 PM 16.87 62.366 0.65 7.88 3.46 9.22
9/19/2021 8:30:00 PM 16.82 62.276 0.65 7.88 2.66 9.17
9/19/2021 8:45:00 PM 16.78 62.204 0.65 7.88 2.71 9.13
9/19/2021 9:00:00 PM 16.73 62.114 0.65 7.87 2.88 9.09
9/19/2021 9:15:00 PM 16.68 62.024 0.65 7.87 3.21 9.06
9/19/2021 9:30:00 PM 16.63 61.934 0.65 7.86 3.08 9.03
9/19/2021 9:45:00 PM 16.58 61.844 0.65 7.86 2.72 8.99
9/19/2021 10:00:00 PM 16.54 61.772 0.65 7.85 4.62 8.97
9/19/2021 10:15:00 PM 16.5 61.7 0.65 7.85 2.7 8.94
9/19/2021 10:30:00 PM 16.46 61.628 0.65 7.85 4.92 8.91
9/19/2021 10:45:00 PM 16.42 61.556 0.65 7.84 3.26 8.89
9/19/2021 11:00:00 PM 16.38 61.484 0.65 7.83 3.58 8.86
9/19/2021 11:15:00 PM 16.35 61.43 0.65 7.84 2.67 8.83
9/19/2021 11:30:00 PM 16.31 61.358 0.65 7.84 2.77 8.8
9/19/2021 11:45:00 PM 16.27 61.286 0.65 7.83 2.67 8.79
9/20/2021 12:00:00 AM 16.24 61.232 0.65 7.82 2.92 8.76
9/20/2021 12:15:00 AM 16.21 61.178 0.651 7.82 2.78 8.74
9/20/2021 12:30:00 AM 16.18 61.124 0.651 7.81 4.08 8.72
9/20/2021 12:45:00 AM 16.14 61.052 0.651 7.81 4.28 8.71
9/20/2021 1:00:00 AM 16.11 60.998 0.651 7.81 3.28 8.7
9/20/2021 1:15:00 AM 16.08 60.944 0.651 7.8 3.83 8.7
9/20/2021 1:30:00 AM 16.04 60.872 0.651 7.8 3.91 8.69
9/20/2021 1:45:00 AM 16 60.8 0.651 7.81 3.43 8.69
9/20/2021 2:00:00 AM 15.96 60.728 0.651 7.8 3.65 8.7
9/20/2021 2:15:00 AM 15.93 60.674 0.65 7.8 2.83 8.69
9/20/2021 2:30:00 AM 15.89 60.602 0.65 7.8 3.98 8.69
9/20/2021 2:45:00 AM 15.86 60.548 0.65 7.8 3.2 8.69
9/20/2021 3:00:00 AM 15.83 60.494 0.65 7.8 3.16 8.69
9/20/2021 3:15:00 AM 15.79 60.422 0.65 7.8 3.43 8.69
9/20/2021 3:30:00 AM 15.76 60.368 0.65 7.8 2.86 8.7
9/20/2021 3:45:00 AM 15.73 60.314 0.65 7.79 3.39 8.7
9/20/2021 4:00:00 AM 15.7 60.26 0.65 7.8 4.07 8.69
9/20/2021 4:15:00 AM 15.67 60.206 0.65 7.81 5.93 8.72
9/20/2021 4:30:00 AM 15.64 60.152 0.65 7.8 3.72 8.73
9/20/2021 4:45:00 AM 15.61 60.098 0.65 7.8 4.49 8.73
9/20/2021 5:00:00 AM 15.58 60.044 0.65 7.8 5.27 8.74
9/20/2021 5:15:00 AM 15.56 60.008 0.65 7.81 4.49 8.74
9/20/2021 5:30:00 AM 15.52 59.936 0.65 7.8 6.77 8.75
9/20/2021 5:45:00 AM 15.49 59.882 0.649 7.8 4.25 8.77
9/20/2021 6:00:00 AM 15.46 59.828 0.649 7.8 5.18 8.77
9/20/2021 6:15:00 AM 15.43 59.774 0.649 7.81 3.89 8.77
9/20/2021 6:30:00 AM 15.4 59.72 0.649 7.8 3.97 8.76
9/20/2021 6:45:00 AM 15.37 59.666 0.649 7.8 3.39 8.78
9/20/2021 7:00:00 AM 15.33 59.594 0.649 7.8 4.09 8.79
9/20/2021 7:15:00 AM 15.31 59.558 0.649 7.8 2.97 8.8
9/20/2021 7:30:00 AM 15.28 59.504 0.649 7.8 3.01 8.83
9/20/2021 7:45:00 AM 15.26 59.468 0.648 7.8 4.04 8.86
9/20/2021 8:00:00 AM 15.23 59.414 0.649 7.8 3.26 8.89
9/20/2021 8:15:00 AM 15.22 59.396 0.649 7.81 2.24 8.93
9/20/2021 8:30:00 AM 15.21 59.378 0.649 7.82 4.04 8.99
9/20/2021 8:45:00 AM 15.22 59.396 0.649 7.81 2.82 9.06
9/20/2021 9:00:00 AM 15.25 59.45 0.649 7.82 2.35 9.15
9/20/2021 9:15:00 AM 15.28 59.504 0.649 7.82 2.12 9.25
9/20/2021 9:30:00 AM 15.33 59.594 0.649 7.82 1.83 9.35
9/20/2021 9:45:00 AM 15.39 59.702 0.649 7.83 2.02 9.44
9/20/2021 10:00:00 AM 15.45 59.81 0.649 7.84 1.97 9.54
9/20/2021 10:15:00 AM 15.52 59.936 0.648 7.84 2 9.63
9/20/2021 10:30:00 AM 15.59 60.062 0.649 7.85 1.76 9.72
9/20/2021 10:45:00 AM 15.67 60.206 0.649 7.85 1.83 9.81
9/20/2021 11:00:00 AM 15.75 60.35 0.649 7.85 1.78 9.92
9/20/2021 11:15:00 AM 15.84 60.512 0.649 7.86 1.97 10.02
9/20/2021 11:30:00 AM 15.93 60.674 0.649 7.87 1.73 10.1
9/20/2021 11:45:00 AM 16.03 60.854 0.649 7.87 1.98 10.19
9/20/2021 12:00:00 PM 16.12 61.016 0.65 7.88 2.11 10.25
9/20/2021 12:15:00 PM 16.2 61.16 0.65 7.89 3.11 10.3
9/20/2021 12:30:00 PM 16.29 61.322 0.65 7.89 1.78 10.36
9/20/2021 12:45:00 PM 16.35 61.43 0.65 7.9 1.91 10.41
9/20/2021 1:00:00 PM 16.41 61.538 0.65 7.9 1.7 10.46
9/20/2021 1:15:00 PM 16.48 61.664 0.65 7.9 1.96 10.53
9/20/2021 1:30:00 PM 16.55 61.79 0.65 7.93 2.27 10.6
9/20/2021 1:45:00 PM 16.61 61.898 0.65 7.93 2.98 10.64
9/20/2021 2:00:00 PM 16.67 62.006 0.65 7.94 3.44 10.71
9/20/2021 2:15:00 PM 16.71 62.078 0.65 7.94 2.92 10.72
9/20/2021 2:30:00 PM 16.75 62.15 0.65 7.95 1.94 10.77
9/20/2021 2:45:00 PM 16.78 62.204 0.65 7.95 2.18 10.8
9/20/2021 3:00:00 PM 16.79 62.222 0.65 7.96 2.56 10.82
9/20/2021 3:15:00 PM 16.79 62.222 0.65 7.96 1.87 10.82
9/20/2021 3:30:00 PM 16.76 62.168 0.649 7.97 2.69 10.77
9/20/2021 3:45:00 PM 16.79 62.222 0.65 7.97 2.4 10.75
9/20/2021 4:00:00 PM 16.8 62.24 0.65 7.97 2.63 10.75
9/20/2021 4:15:00 PM 16.82 62.276 0.65 7.98 1.72 10.72
9/20/2021 4:30:00 PM 16.84 62.312 0.65 7.97 2.82 10.68
9/20/2021 4:45:00 PM 16.85 62.33 0.65 7.97 3.42 10.62
9/20/2021 5:00:00 PM 16.86 62.348 0.65 7.98 1.96 10.57
9/20/2021 5:15:00 PM 16.83 62.294 0.65 7.98 2.15 10.5
9/20/2021 5:30:00 PM 16.8 62.24 0.65 7.98 2.3 10.38
9/20/2021 5:45:00 PM 16.77 62.186 0.65 7.97 2.01 10.27
9/20/2021 6:00:00 PM 16.75 62.15 0.65 7.97 2.24 10.16
9/20/2021 6:15:00 PM 16.73 62.114 0.651 7.96 2.52 10.08
9/20/2021 6:30:00 PM 16.73 62.114 0.651 7.96 2.81 10
9/20/2021 6:45:00 PM 16.72 62.096 0.651 7.95 2.94 9.92
9/20/2021 7:00:00 PM 16.69 62.042 0.652 7.94 2.36 9.84
9/20/2021 7:15:00 PM 16.64 61.952 0.653 7.94 2.13 9.74
9/20/2021 7:30:00 PM 16.59 61.862 0.654 7.94 2.05 9.64
9/20/2021 7:45:00 PM 16.55 61.79 0.654 7.93 2.33 9.55
9/20/2021 8:00:00 PM 16.52 61.736 0.654 7.93 2.63 9.48
9/20/2021 8:15:00 PM 16.5 61.7 0.655 7.92 2.53 9.41
9/20/2021 8:30:00 PM 16.47 61.646 0.655 7.92 3.45 9.36
9/20/2021 8:45:00 PM 16.44 61.592 0.655 7.91 2.38 9.3
9/20/2021 9:00:00 PM 16.42 61.556 0.655 7.91 3.62 9.26
9/20/2021 9:15:00 PM 16.39 61.502 0.655 7.91 2.89 9.2
9/20/2021 9:30:00 PM 16.37 61.466 0.655 7.9 3.16 9.15
9/20/2021 9:45:00 PM 16.34 61.412 0.656 7.89 3.67 9.1
9/20/2021 10:00:00 PM 16.31 61.358 0.656 7.89 2.71 9.06
9/20/2021 10:15:00 PM 16.28 61.304 0.656 7.89 3.28 9.02
9/20/2021 10:30:00 PM 16.25 61.25 0.656 7.88 2.64 8.97
9/20/2021 10:45:00 PM 16.21 61.178 0.656 7.88 2.52 8.93
9/20/2021 11:00:00 PM 16.18 61.124 0.656 7.87 2.05 8.88
9/20/2021 11:15:00 PM 16.15 61.07 0.657 7.87 2.88 8.83
9/20/2021 11:30:00 PM 16.11 60.998 0.657 7.86 3.39 8.82
9/20/2021 11:45:00 PM 16.08 60.944 0.657 7.85 4.41 8.77
9/21/2021 12:00:00 AM 16.04 60.872 0.656 7.85 4 8.75
9/21/2021 12:15:00 AM 16.01 60.818 0.656 7.85 2.14 8.73
9/21/2021 12:30:00 AM 15.98 60.764 0.656 7.84 2.8 8.7
9/21/2021 12:45:00 AM 15.95 60.71 0.656 7.84 2.39 8.69
9/21/2021 1:00:00 AM 15.92 60.656 0.656 7.84 2.91 8.67
9/21/2021 1:15:00 AM 15.89 60.602 0.656 7.84 1.71 8.66
9/21/2021 1:30:00 AM 15.86 60.548 0.656 7.83 3.01 8.65
9/21/2021 1:45:00 AM 15.82 60.476 0.656 7.83 2.99 8.63
9/21/2021 2:00:00 AM 15.77 60.386 0.657 7.83 2.48 8.61
9/21/2021 2:15:00 AM 15.73 60.314 0.657 7.83 3.39 8.6
9/21/2021 2:30:00 AM 15.69 60.242 0.657 7.83 3.47 8.6
9/21/2021 2:45:00 AM 15.65 60.17 0.657 7.82 4.92 8.58
9/21/2021 3:00:00 AM 15.62 60.116 0.657 7.82 5.03 8.59
9/21/2021 3:15:00 AM 15.59 60.062 0.657 7.82 3.12 8.58
9/21/2021 3:30:00 AM 15.58 60.044 0.656 7.83 3.43 8.59
9/21/2021 3:45:00 AM 15.58 60.044 0.655 7.83 3.49 8.59
9/21/2021 4:00:00 AM 15.58 60.044 0.654 7.82 3.44 8.62
9/21/2021 4:15:00 AM 15.57 60.026 0.654 7.81 4.33 8.61
9/21/2021 4:30:00 AM 15.55 59.99 0.654 7.81 6.24 8.6
9/21/2021 4:45:00 AM 15.53 59.954 0.654 7.81 4.16 8.61
9/21/2021 5:00:00 AM 15.5 59.9 0.654 7.81 3.11 8.61
9/21/2021 5:15:00 AM 15.48 59.864 0.653 7.81 3.8 8.6
9/21/2021 5:30:00 AM 15.46 59.828 0.653 7.81 3.87 8.63
9/21/2021 5:45:00 AM 15.45 59.81 0.653 7.83 3.04 8.64
9/21/2021 6:00:00 AM 15.44 59.792 0.653 7.85 2.59 8.63
9/21/2021 6:15:00 AM 15.43 59.774 0.653 7.84 2.86 8.65
9/21/2021 6:30:00 AM 15.43 59.774 0.653 7.84 3.43 8.65
9/21/2021 6:45:00 AM 15.42 59.756 0.653 7.83 2.98 8.65
9/21/2021 7:00:00 AM 15.42 59.756 0.653 7.82 3.73 8.66
9/21/2021 7:15:00 AM 15.41 59.738 0.653 7.82 4.34 8.67
9/21/2021 7:30:00 AM 15.41 59.738 0.653 7.83 4.7 8.69
9/21/2021 7:45:00 AM 15.41 59.738 0.653 7.83 2.42 8.72
9/21/2021 8:00:00 AM 15.42 59.756 0.653 7.83 2.46 8.78
9/21/2021 8:15:00 AM 15.43 59.774 0.653 7.83 2.18 8.85
9/21/2021 8:30:00 AM 15.44 59.792 0.654 7.83 2.58 8.9
9/21/2021 8:45:00 AM 15.45 59.81 0.654 7.83 2.18 8.98
9/21/2021 9:00:00 AM 15.47 59.846 0.654 7.86 2.97 9.06
9/21/2021 9:15:00 AM 15.48 59.864 0.654 7.86 1.71 9.14
9/21/2021 9:30:00 AM 15.51 59.918 0.654 7.87 3.69 9.24
9/21/2021 9:45:00 AM 15.53 59.954 0.654 7.87 2.44 9.35
9/21/2021 10:00:00 AM 15.56 60.008 0.654 7.88 2.07 9.45
9/21/2021 10:15:00 AM 15.59 60.062 0.655 7.88 1.59 9.56
9/21/2021 10:30:00 AM 15.63 60.134 0.655 7.88 2.09 9.64
9/21/2021 10:45:00 AM 15.68 60.224 0.655 7.89 1.95 9.76
9/21/2021 11:00:00 AM 15.73 60.314 0.656 7.9 1.55 9.88
9/21/2021 11:15:00 AM 15.77 60.386 0.656 7.9 2.43 9.95
9/21/2021 11:30:00 AM 15.81 60.458 0.656 7.91 1.91 10.03
9/21/2021 11:45:00 AM 15.87 60.566 0.656 7.91 1.33 10.1
9/21/2021 12:00:00 PM 15.89 60.602 0.656 7.91 1.53 10.14
9/21/2021 12:15:00 PM 15.89 60.602 0.657 7.9 1.84 10.16
9/21/2021 12:30:00 PM 15.9 60.62 0.658 7.91 1.44 10.19
9/21/2021 12:45:00 PM 15.92 60.656 0.658 7.91 2.08 10.22
9/21/2021 1:00:00 PM 15.95 60.71 0.658 7.92 2.34 10.25
9/21/2021 1:15:00 PM 15.97 60.746 0.658 7.93 1.79 10.32
9/21/2021 1:30:00 PM 15.97 60.746 0.658 7.93 1.93 10.32
9/21/2021 1:45:00 PM 16.02 60.836 0.658 7.95 3.08 10.41
9/21/2021 2:00:00 PM 16.08 60.944 0.658 7.95 3.19 10.51
9/21/2021 2:15:00 PM 16.12 61.016 0.657 7.96 1.82 10.58
9/21/2021 2:30:00 PM 16.14 61.052 0.656 7.98 2.86 10.62
9/21/2021 2:45:00 PM 16.16 61.088 0.656 7.98 2.89 10.59
9/21/2021 3:00:00 PM 16.2 61.16 0.656 7.98 1.72 10.63
9/21/2021 3:15:00 PM 16.22 61.196 0.655 7.99 2.03 10.68
9/21/2021 3:30:00 PM 16.31 61.358 0.655 8 1.91 10.83
9/21/2021 3:45:00 PM 16.39 61.502 0.655 8.02 1.97 10.94
9/21/2021 4:00:00 PM 16.41 61.538 0.655 8.03 1.55 10.96
9/21/2021 4:15:00 PM 16.47 61.646 0.655 8.03 1.89 10.98
9/21/2021 4:30:00 PM 16.47 61.646 0.655 8.02 2 10.91
9/21/2021 4:45:00 PM 16.53 61.754 0.655 8.03 1.52 10.93
9/21/2021 5:00:00 PM 16.51 61.718 0.655 8.03 2.26 10.87
9/21/2021 5:15:00 PM 16.52 61.736 0.655 8.02 2.61 10.81
9/21/2021 5:30:00 PM 16.57 61.826 0.654 8.01 1.84 10.68
9/21/2021 5:45:00 PM 16.63 61.934 0.655 8.01 3.78 10.52
9/21/2021 6:00:00 PM 16.7 62.06 0.66 8.01 2.56 10.36
9/21/2021 6:15:00 PM 16.74 62.132 0.664 8 2.1 10.21
9/21/2021 6:30:00 PM 16.75 62.15 0.665 7.99 3.51 10.09
9/21/2021 6:45:00 PM 16.75 62.15 0.666 7.99 2.85 9.96
9/21/2021 7:00:00 PM 16.74 62.132 0.667 7.98 2.72 9.83
9/21/2021 7:15:00 PM 16.73 62.114 0.667 7.97 2.21 9.71
9/21/2021 7:30:00 PM 16.72 62.096 0.667 7.96 1.97 9.62
9/21/2021 7:45:00 PM 16.7 62.06 0.667 7.96 4.01 9.53
9/21/2021 8:00:00 PM 16.65 61.97 0.667 7.95 6.28 9.49
9/21/2021 8:15:00 PM 16.59 61.862 0.665 7.95 2.88 9.43
9/21/2021 8:30:00 PM 16.53 61.754 0.661 7.94 4.21 9.41
9/21/2021 8:45:00 PM 16.49 61.682 0.658 7.94 4.45 9.36
9/21/2021 9:00:00 PM 16.46 61.628 0.657 7.94 3.43 9.31
9/21/2021 9:15:00 PM 16.44 61.592 0.657 7.93 2.87 9.28
9/21/2021 9:30:00 PM 16.42 61.556 0.657 7.92 2.52 9.22
9/21/2021 9:45:00 PM 16.41 61.538 0.657 7.92 3.62 9.17
9/21/2021 10:00:00 PM 16.39 61.502 0.657 7.91 3.98 9.12
9/21/2021 10:15:00 PM 16.38 61.484 0.658 7.91 4.76 9.08
9/21/2021 10:30:00 PM 16.37 61.466 0.658 7.9 4.87 9.04
9/21/2021 10:45:00 PM 16.36 61.448 0.658 7.89 5.49 8.98
9/21/2021 11:00:00 PM 16.35 61.43 0.658 7.89 4.15 8.95
9/21/2021 11:15:00 PM 16.34 61.412 0.659 7.88 3.17 8.91
9/21/2021 11:30:00 PM 16.34 61.412 0.659 7.87 4.48 8.87
9/21/2021 11:45:00 PM 16.33 61.394 0.659 7.87 3.25 8.83
9/22/2021 12:00:00 AM 16.33 61.394 0.659 7.87 4.26 8.78
9/22/2021 12:15:00 AM 16.32 61.376 0.659 7.87 2.73 8.74
9/22/2021 12:30:00 AM 16.31 61.358 0.659 7.86 4.8 8.71
9/22/2021 12:45:00 AM 16.3 61.34 0.659 7.86 3.01 8.68
9/22/2021 1:00:00 AM 16.29 61.322 0.659 7.86 5.07 8.65
9/22/2021 1:15:00 AM 16.28 61.304 0.659 7.86 4.12 8.62
9/22/2021 1:30:00 AM 16.27 61.286 0.659 7.87 2.99 8.61
9/22/2021 1:45:00 AM 16.27 61.286 0.658 7.85 5.11 8.6
9/22/2021 2:00:00 AM 16.26 61.268 0.658 7.84 3.96 8.59
9/22/2021 2:15:00 AM 16.25 61.25 0.658 7.84 6.12 8.58
9/22/2021 2:30:00 AM 16.24 61.232 0.658 7.84 5.08 8.57
9/22/2021 2:45:00 AM 16.23 61.214 0.657 7.84 4.67 8.55
9/22/2021 3:00:00 AM 16.22 61.196 0.657 7.84 3.32 8.55
9/22/2021 3:15:00 AM 16.22 61.196 0.657 7.83 3.51 8.54
9/22/2021 3:30:00 AM 16.21 61.178 0.658 7.84 5.44 8.54
9/22/2021 3:45:00 AM 16.21 61.178 0.658 7.84 4.4 8.52
9/22/2021 4:00:00 AM 16.21 61.178 0.658 7.85 3.98 8.52
9/22/2021 4:15:00 AM 16.2 61.16 0.658 7.85 4.36 8.51
9/22/2021 4:30:00 AM 16.2 61.16 0.658 7.85 4.21 8.51
9/22/2021 4:45:00 AM 16.2 61.16 0.658 7.84 3.79 8.51
9/22/2021 5:00:00 AM 16.19 61.142 0.658 7.84 3.48 8.5
9/22/2021 5:15:00 AM 16.18 61.124 0.658 7.84 3.9 8.5
9/22/2021 5:30:00 AM 16.18 61.124 0.658 7.84 3.72 8.5
9/22/2021 5:45:00 AM 16.18 61.124 0.658 7.84 4.18 8.49
9/22/2021 6:00:00 AM 16.17 61.106 0.658 7.84 4.94 8.49
9/22/2021 6:15:00 AM 16.17 61.106 0.658 7.84 3.68 8.5
9/22/2021 6:30:00 AM 16.16 61.088 0.658 7.84 3.16 8.49
9/22/2021 6:45:00 AM 16.16 61.088 0.658 7.84 3.9 8.5
9/22/2021 7:00:00 AM 16.15 61.07 0.658 7.83 4 8.51
9/22/2021 7:15:00 AM 16.15 61.07 0.658 7.84 5.33 8.5
9/22/2021 7:30:00 AM 16.15 61.07 0.658 7.84 3.99 8.51
9/22/2021 7:45:00 AM 16.15 61.07 0.657 7.85 3.15 8.53
9/22/2021 8:00:00 AM 16.15 61.07 0.657 7.84 2.8 8.56
9/22/2021 8:15:00 AM 16.16 61.088 0.657 7.85 2.98 8.61
9/22/2021 8:30:00 AM 16.18 61.124 0.657 7.85 3.23 8.7
9/22/2021 8:45:00 AM 16.21 61.178 0.657 7.86 3.36 8.78
9/22/2021 9:00:00 AM 16.23 61.214 0.657 7.87 2.84 8.87
9/22/2021 9:15:00 AM 16.26 61.268 0.657 7.87 2.43 8.9
9/22/2021 9:30:00 AM 16.28 61.304 0.657 7.87 2.78 8.94
9/22/2021 9:45:00 AM 16.31 61.358 0.658 7.87 2.08 8.99
9/22/2021 10:00:00 AM 16.32 61.376 0.658 7.88 1.89 9.03
9/22/2021 10:15:00 AM 16.35 61.43 0.658 7.87 2.56 9.09
9/22/2021 10:30:00 AM 16.38 61.484 0.659 7.88 1.74 9.13
9/22/2021 10:45:00 AM 16.41 61.538 0.659 7.88 2.02 9.19
9/22/2021 11:00:00 AM 16.44 61.592 0.659 7.88 2.35 9.25
9/22/2021 11:15:00 AM 16.49 61.682 0.659 7.89 5.29 9.35
9/22/2021 11:30:00 AM 16.53 61.754 0.659 7.89 1.8 9.48
9/22/2021 11:45:00 AM 16.58 61.844 0.659 7.9 1.83 9.58
9/22/2021 12:00:00 PM 16.62 61.916 0.659 7.9 1.91 9.68
9/22/2021 12:15:00 PM 16.67 62.006 0.659 7.91 1.71 9.78
9/22/2021 12:30:00 PM 16.7 62.06 0.659 7.91 1.79 9.84
9/22/2021 12:45:00 PM 16.75 62.15 0.658 7.93 2.34 9.95
9/22/2021 1:00:00 PM 16.8 62.24 0.658 7.93 1.71 10.02
9/22/2021 1:15:00 PM 16.83 62.294 0.658 7.94 1.74 10.09
9/22/2021 1:30:00 PM 16.86 62.348 0.658 7.94 1.97 10.09
9/22/2021 1:45:00 PM 16.87 62.366 0.657 7.94 1.53 10.03
9/22/2021 2:00:00 PM 16.9 62.42 0.652 7.94 1.86 9.92
9/22/2021 2:15:00 PM 16.91 62.438 0.652 7.94 1.74 9.83
9/22/2021 2:30:00 PM 16.89 62.402 0.653 7.94 1.8 9.88
9/22/2021 2:45:00 PM 16.87 62.366 0.653 7.93 2.52 9.85
9/22/2021 3:00:00 PM 16.86 62.348 0.654 7.94 2.59 9.87
9/22/2021 3:15:00 PM 16.85 62.33 0.654 7.94 4.61 9.86
9/22/2021 3:30:00 PM 16.84 62.312 0.653 7.93 2.44 9.8
9/22/2021 3:45:00 PM 16.84 62.312 0.653 7.93 1.74 9.78
9/22/2021 4:00:00 PM 16.84 62.312 0.652 7.93 2.69 9.8
9/22/2021 4:15:00 PM 16.87 62.366 0.651 7.93 2.55 9.84
9/22/2021 4:30:00 PM 16.89 62.402 0.651 7.94 3.05 9.87
9/22/2021 4:45:00 PM 16.9 62.42 0.651 7.94 2.32 9.85
9/22/2021 5:00:00 PM 16.91 62.438 0.65 7.93 2.8 9.79
9/22/2021 5:15:00 PM 16.94 62.492 0.65 7.93 2.35 9.81
9/22/2021 5:30:00 PM 16.96 62.528 0.65 7.94 2.03 9.78
9/22/2021 5:45:00 PM 16.97 62.546 0.65 7.93 2.44 9.71
9/22/2021 6:00:00 PM 16.99 62.582 0.649 7.93 2.51 9.62
9/22/2021 6:15:00 PM 16.98 62.564 0.651 7.92 4.54 9.5
9/22/2021 6:30:00 PM 16.97 62.546 0.651 7.91 2.18 9.42
9/22/2021 6:45:00 PM 16.96 62.528 0.651 7.9 3.98 9.34
9/22/2021 7:00:00 PM 16.96 62.528 0.651 7.9 2.85 9.29
9/22/2021 7:15:00 PM 16.96 62.528 0.651 7.89 3.15 9.22
9/22/2021 7:30:00 PM 16.95 62.51 0.651 7.89 3.22 9.15
9/22/2021 7:45:00 PM 16.96 62.528 0.651 7.89 2.75 9.07
9/22/2021 8:00:00 PM 16.96 62.528 0.651 7.88 3.6 9.01
9/22/2021 8:15:00 PM 16.96 62.528 0.651 7.88 4.02 8.96
9/22/2021 8:30:00 PM 16.97 62.546 0.65 7.87 3.74 8.92
9/22/2021 8:45:00 PM 16.95 62.51 0.65 7.87 3.81 8.88
9/22/2021 9:00:00 PM 16.94 62.492 0.65 7.86 4.44 8.83
9/22/2021 9:15:00 PM 16.92 62.456 0.65 7.86 4.04 8.8
9/22/2021 9:30:00 PM 16.9 62.42 0.65 7.85 4.48 8.75
9/22/2021 9:45:00 PM 16.89 62.402 0.65 7.85 4.3 8.71
9/22/2021 10:00:00 PM 16.89 62.402 0.65 7.84 4.44 8.68
9/22/2021 10:15:00 PM 16.88 62.384 0.651 7.85 5.5 8.65
9/22/2021 10:30:00 PM 16.88 62.384 0.651 7.84 4.87 8.62
9/22/2021 10:45:00 PM 16.89 62.402 0.652 7.84 3.78 8.59
9/22/2021 11:00:00 PM 16.89 62.402 0.652 7.84 4.19 8.55
9/22/2021 11:15:00 PM 16.9 62.42 0.653 7.84 4.58 8.54
9/22/2021 11:30:00 PM 16.9 62.42 0.653 7.83 4.28 8.51
9/22/2021 11:45:00 PM 16.9 62.42 0.653 7.83 4.57 8.47
9/23/2021 12:00:00 AM 16.9 62.42 0.654 7.83 7.84 8.46
9/23/2021 12:15:00 AM 16.9 62.42 0.654 7.83 8.38 8.42
9/23/2021 12:30:00 AM 16.91 62.438 0.654 7.83 4.53 8.41
9/23/2021 12:45:00 AM 16.91 62.438 0.654 7.83 4.85 8.4
9/23/2021 1:00:00 AM 16.92 62.456 0.654 7.82 4.68 8.39
9/23/2021 1:15:00 AM 16.92 62.456 0.654 7.83 4.29 8.37
9/23/2021 1:30:00 AM 16.93 62.474 0.654 7.82 4.46 8.36
9/23/2021 1:45:00 AM 16.94 62.492 0.653 7.82 5.31 8.34
9/23/2021 2:00:00 AM 16.96 62.528 0.651 7.82 5.37 8.32
9/23/2021 2:15:00 AM 16.97 62.546 0.65 7.81 4.7 8.3
9/23/2021 2:30:00 AM 16.99 62.582 0.65 7.81 5.26 8.28
9/23/2021 2:45:00 AM 17 62.6 0.65 7.81 6.04 8.26
9/23/2021 3:00:00 AM 17.01 62.618 0.65 7.82 4.91 8.26
9/23/2021 3:15:00 AM 17.02 62.636 0.65 7.81 5.22 8.26
9/23/2021 3:30:00 AM 17.02 62.636 0.651 7.81 5.32 8.25
9/23/2021 3:45:00 AM 17.03 62.654 0.651 7.81 4.37 8.25
9/23/2021 4:00:00 AM 17.04 62.672 0.652 7.81 4.92 8.25
9/23/2021 4:15:00 AM 17.05 62.69 0.653 7.81 6.2 8.24
9/23/2021 4:30:00 AM 17.06 62.708 0.653 7.81 6.03 8.23
9/23/2021 4:45:00 AM 17.06 62.708 0.653 7.81 4.58 8.23
9/23/2021 5:00:00 AM 17.07 62.726 0.653 7.81 4.39 8.24
9/23/2021 5:15:00 AM 17.07 62.726 0.654 7.82 6.52 8.23
9/23/2021 5:30:00 AM 17.08 62.744 0.653 7.82 4.32 8.22
9/23/2021 5:45:00 AM 17.08 62.744 0.653 7.81 5.3 8.24
9/23/2021 6:00:00 AM 17.08 62.744 0.652 7.82 3.8 8.24
9/23/2021 6:15:00 AM 17.07 62.726 0.652 7.82 5.69 8.24
9/23/2021 6:30:00 AM 17.07 62.726 0.652 7.82 3.96 8.22
9/23/2021 6:45:00 AM 17.07 62.726 0.652 7.82 5.12 8.22
9/23/2021 7:00:00 AM 17.08 62.744 0.645 7.83 6.16 8.29
9/23/2021 7:15:00 AM 17.06 62.708 0.634 7.86 6.06 8.39
9/23/2021 7:30:00 AM 17.03 62.654 0.624 7.86 7.71 8.44
9/23/2021 7:45:00 AM 17.01 62.618 0.612 7.86 14.89 8.47
9/23/2021 8:00:00 AM 17.02 62.636 0.595 7.85 45.26 8.42
9/23/2021 8:15:00 AM 17.03 62.654 0.58 7.83 67.96 8.36
9/23/2021 8:30:00 AM 17.04 62.672 0.561 7.81 62.02 8.35
9/23/2021 8:45:00 AM 17.08 62.744 0.543 7.8 62.81 8.29
9/23/2021 9:00:00 AM 17.17 62.906 0.514 7.82 76.64 8.28
9/23/2021 9:15:00 AM 17.19 62.942 0.5 7.81 83.19 8.26
9/23/2021 9:30:00 AM 17.14 62.852 0.504 7.8 85.52 8.24
9/23/2021 9:45:00 AM 17.11 62.798 0.504 7.8 117.3 8.21
9/23/2021 10:00:00 AM 17.09 62.762 0.503 7.79 111 8.19
9/23/2021 10:15:00 AM 17.09 62.762 0.501 7.79 105.1 8.2
9/23/2021 10:30:00 AM 17.11 62.798 0.495 7.79 75.84 8.21
9/23/2021 10:45:00 AM 17.21 62.978 0.473 7.79 75.75 8.2
9/23/2021 11:00:00 AM 17.33 63.194 0.439 7.79 64.46 8.2
9/23/2021 11:15:00 AM 17.39 63.302 0.415 7.78 92.62 8.18
9/23/2021 11:30:00 AM 17.39 63.302 0.403 7.78 75.32 8.17
9/23/2021 11:45:00 AM 17.34 63.212 0.406 7.77 84.4 8.17
9/23/2021 12:00:00 PM 17.28 63.104 0.415 7.76 69.85 8.17
9/23/2021 12:15:00 PM 17.25 63.05 0.419 7.75 85.25 8.17
9/23/2021 12:30:00 PM 17.27 63.086 0.418 7.74 83.76 8.17
9/23/2021 12:45:00 PM 17.35 63.23 0.409 7.73 91.18 8.12
9/23/2021 1:00:00 PM 17.46 63.428 0.393 7.71 98.57 8.04
9/23/2021 1:15:00 PM 17.54 63.572 0.398 7.69 113.8 7.95
9/23/2021 1:30:00 PM 17.58 63.644 0.403 7.67 116 7.84
9/23/2021 1:45:00 PM 17.66 63.788 0.376 7.64 113.1 7.74
9/23/2021 2:00:00 PM 17.75 63.95 0.33 7.63 106.6 7.73
9/23/2021 2:15:00 PM 17.83 64.094 0.295 7.61 115.9 7.75
9/23/2021 2:30:00 PM 17.91 64.238 0.27 7.61 158.3 7.66
9/23/2021 2:45:00 PM 18.02 64.436 0.245 7.61 166.4 7.51
9/23/2021 3:00:00 PM 18.14 64.652 0.234 7.59 135.9 7.41
9/23/2021 3:15:00 PM 18.22 64.796 0.229 7.58 117.9 7.38
9/23/2021 3:30:00 PM 18.28 64.904 0.227 7.57 109.3 7.35
9/23/2021 3:45:00 PM 18.33 64.994 0.224 7.56 110.1 7.34
9/23/2021 4:00:00 PM 18.36 65.048 0.222 7.56 98.58 7.32
9/23/2021 4:15:00 PM 18.4 65.12 0.22 7.55 102.8 7.3
9/23/2021 4:30:00 PM 18.48 65.264 0.219 7.54 84.1 7.3
9/23/2021 4:45:00 PM 18.5 65.3 0.219 7.54 79.74 7.28
9/23/2021 5:00:00 PM 18.49 65.282 0.22 7.52 73.41 7.28
9/23/2021 5:15:00 PM 18.49 65.282 0.222 7.5 67.5 7.27
9/23/2021 5:30:00 PM 18.48 65.264 0.224 7.5 66.04 7.25
9/23/2021 5:45:00 PM 18.48 65.264 0.227 7.49 57.98 7.23
9/23/2021 6:00:00 PM 18.47 65.246 0.232 7.49 60.21 7.23
9/23/2021 6:15:00 PM 18.47 65.246 0.237 7.48 61.36 7.21
9/23/2021 6:30:00 PM 18.46 65.228 0.243 7.47 55.79 7.19
9/23/2021 6:45:00 PM 18.45 65.21 0.25 7.47 47.61 7.17
9/23/2021 7:00:00 PM 18.44 65.192 0.258 7.44 49.83 7.14
9/23/2021 7:15:00 PM 18.43 65.174 0.266 7.45 49.83 7.12
9/23/2021 7:30:00 PM 18.42 65.156 0.276 7.44 46.41 7.09
9/23/2021 7:45:00 PM 18.4 65.12 0.285 7.43 43.83 7.06
9/23/2021 8:00:00 PM 18.38 65.084 0.294 7.42 44.86 7
9/23/2021 8:15:00 PM 18.35 65.03 0.303 7.41 41.06 6.97
9/23/2021 8:30:00 PM 18.32 64.976 0.312 7.41 40.05 6.96
9/23/2021 8:45:00 PM 18.28 64.904 0.32 7.41 40.51 6.92
9/23/2021 9:00:00 PM 18.25 64.85 0.328 7.41 38.68 6.92
9/23/2021 9:15:00 PM 18.21 64.778 0.335 7.4 41.21 6.89
9/23/2021 9:30:00 PM 18.18 64.724 0.342 7.39 41.25 6.9
9/23/2021 9:45:00 PM 18.15 64.67 0.351 7.4 44.06 6.91
9/23/2021 10:00:00 PM 18.11 64.598 0.356 7.4 43.11 6.91
9/23/2021 10:15:00 PM 18.08 64.544 0.36 7.4 40.39 6.91
9/23/2021 10:30:00 PM 18.04 64.472 0.365 7.43 42.6 6.93
9/23/2021 10:45:00 PM 18 64.4 0.368 7.42 43.61 6.94
9/23/2021 11:00:00 PM 17.96 64.328 0.372 7.41 43.65 6.96
9/23/2021 11:15:00 PM 17.91 64.238 0.375 7.4 46.29 6.96
9/23/2021 11:30:00 PM 17.85 64.13 0.379 7.42 41.81 6.98
9/23/2021 11:45:00 PM 17.8 64.04 0.382 7.42 41.95 7.01
9/24/2021 12:00:00 AM 17.73 63.914 0.385 7.45 40.31 7.04
9/24/2021 12:15:00 AM 17.66 63.788 0.387 7.46 42.15 7.06
9/24/2021 12:30:00 AM 17.59 63.662 0.391 7.46 42.59 7.09
9/24/2021 12:45:00 AM 17.52 63.536 0.394 7.47 41.92 7.12
9/24/2021 1:00:00 AM 17.44 63.392 0.397 7.47 45.51 7.14
9/24/2021 1:15:00 AM 17.37 63.266 0.4 7.47 40.88 7.16
9/24/2021 1:30:00 AM 17.29 63.122 0.403 7.48 40.36 7.19
9/24/2021 1:45:00 AM 17.22 62.996 0.406 7.49 39.76 7.22
9/24/2021 2:00:00 AM 17.14 62.852 0.41 7.49 42.95 7.25
9/24/2021 2:15:00 AM 17.07 62.726 0.413 7.5 39.76 7.27
9/24/2021 2:30:00 AM 17 62.6 0.416 7.5 42.56 7.29
9/24/2021 2:45:00 AM 16.92 62.456 0.42 7.5 41.08 7.32
9/24/2021 3:00:00 AM 16.85 62.33 0.421 7.51 39.51 7.33
9/24/2021 3:15:00 AM 16.76 62.168 0.422 7.51 36.99 7.38
9/24/2021 3:30:00 AM 16.69 62.042 0.425 7.53 37.67 7.4
9/24/2021 3:45:00 AM 16.61 61.898 0.428 7.52 38.99 7.43
9/24/2021 4:00:00 AM 16.54 61.772 0.432 7.52 39.35 7.47
9/24/2021 4:15:00 AM 16.47 61.646 0.436 7.52 38.9 7.49
9/24/2021 4:30:00 AM 16.39 61.502 0.439 7.53 38.13 7.52
9/24/2021 4:45:00 AM 16.32 61.376 0.443 7.53 38.56 7.55
9/24/2021 5:00:00 AM 16.25 61.25 0.447 7.53 35.12 7.58
9/24/2021 5:15:00 AM 16.18 61.124 0.451 7.54 36.41 7.61
9/24/2021 5:30:00 AM 16.11 60.998 0.455 7.53 37.27 7.64
9/24/2021 5:45:00 AM 16.04 60.872 0.459 7.54 34.87 7.67
9/24/2021 6:00:00 AM 15.97 60.746 0.463 7.54 35.02 7.71
9/24/2021 6:15:00 AM 15.9 60.62 0.467 7.54 34.64 7.74
9/24/2021 6:30:00 AM 15.84 60.512 0.471 7.55 35.1 7.77
9/24/2021 6:45:00 AM 15.77 60.386 0.475 7.56 35.52 7.81
9/24/2021 7:00:00 AM 15.7 60.26 0.479 7.57 32.4 7.85
9/24/2021 7:15:00 AM 15.63 60.134 0.483 7.57 31.02 7.88
9/24/2021 7:30:00 AM 15.57 60.026 0.487 7.57 33.66 7.93
9/24/2021 7:45:00 AM 15.51 59.918 0.49 7.58 27.2 7.97
9/24/2021 8:00:00 AM 15.45 59.81 0.494 7.58 32.31 8.01
9/24/2021 8:15:00 AM 15.4 59.72 0.498 7.58 29.45 8.05
9/24/2021 8:30:00 AM 15.36 59.648 0.501 7.58 26.79 8.1
9/24/2021 8:45:00 AM 15.33 59.594 0.505 7.59 29.99 8.13
9/24/2021 9:00:00 AM 15.31 59.558 0.508 7.59 27.19 8.18
9/24/2021 9:15:00 AM 15.29 59.522 0.512 7.6 23.99 8.22
9/24/2021 9:30:00 AM 15.27 59.486 0.515 7.6 28.65 8.27
9/24/2021 9:45:00 AM 15.27 59.486 0.518 7.61 20.46 8.32
9/24/2021 10:00:00 AM 15.28 59.504 0.521 7.61 20.85 8.34
9/24/2021 10:15:00 AM 15.29 59.522 0.524 7.61 15.7 8.4
9/24/2021 10:30:00 AM 15.31 59.558 0.526 7.62 24.13 8.45
9/24/2021 10:45:00 AM 15.33 59.594 0.529 7.62 18.28 8.5
9/24/2021 11:00:00 AM 15.35 59.63 0.531 7.62 23.37 8.54
9/24/2021 11:15:00 AM 15.38 59.684 0.534 7.62 17.68 8.6
9/24/2021 11:30:00 AM 15.42 59.756 0.536 7.62 22.37 8.64
9/24/2021 11:45:00 AM 15.46 59.828 0.538 7.63 17.5 8.7
9/24/2021 12:00:00 PM 15.51 59.918 0.54 7.64 16.29 8.73
9/24/2021 12:15:00 PM 15.54 59.972 0.542 7.63 18.1 8.77
9/24/2021 12:30:00 PM 15.61 60.098 0.543 7.64 20.69 8.82
9/24/2021 12:45:00 PM 15.67 60.206 0.545 7.65 19.07 8.86
9/24/2021 1:00:00 PM 15.71 60.278 0.547 7.66 16.78 8.89
9/24/2021 1:15:00 PM 15.77 60.386 0.548 7.66 17.37 8.93
9/24/2021 1:30:00 PM 15.84 60.512 0.55 7.66 16.76 8.97
9/24/2021 1:45:00 PM 15.9 60.62 0.552 7.66 17.16 9
9/24/2021 2:00:00 PM 15.96 60.728 0.553 7.67 18.29 9.02
9/24/2021 2:15:00 PM 16.01 60.818 0.554 7.67 16.64 9.05
9/24/2021 2:30:00 PM 16.06 60.908 0.556 7.68 15.5 9.06
9/24/2021 2:45:00 PM 16.1 60.98 0.557 7.68 13.82 9.09
9/24/2021 3:00:00 PM 16.14 61.052 0.558 7.68 16.02 9.09
9/24/2021 3:15:00 PM 16.18 61.124 0.56 7.68 15.24 9.1
9/24/2021 3:30:00 PM 16.21 61.178 0.561 7.69 14.45 9.1
9/24/2021 3:45:00 PM 16.23 61.214 0.562 7.68 14.61 9.1
9/24/2021 4:00:00 PM 16.25 61.25 0.564 7.69 19.1 9.08
9/24/2021 4:15:00 PM 16.27 61.286 0.565 7.7 13.51 9.06
9/24/2021 4:30:00 PM 16.29 61.322 0.566 7.69 14.77 9.06
9/24/2021 4:45:00 PM 16.3 61.34 0.567 7.69 15.4 9.04
9/24/2021 5:00:00 PM 16.31 61.358 0.568 7.69 11.92 9.02
9/24/2021 5:15:00 PM 16.31 61.358 0.569 7.68 12.08 8.98
9/24/2021 5:30:00 PM 16.31 61.358 0.571 7.68 13.13 8.96
9/24/2021 5:45:00 PM 16.3 61.34 0.571 7.69 12.24 8.91
9/24/2021 6:00:00 PM 16.29 61.322 0.572 7.68 10.9 8.9
9/24/2021 6:15:00 PM 16.27 61.286 0.573 7.69 11.48 8.87
9/24/2021 6:30:00 PM 16.25 61.25 0.574 7.68 10.5 8.83
9/24/2021 6:45:00 PM 16.23 61.214 0.575 7.68 13.19 8.8
9/24/2021 7:00:00 PM 16.22 61.196 0.576 7.68 12 8.77
9/24/2021 7:15:00 PM 16.2 61.16 0.577 7.68 13.2 8.74
9/24/2021 7:30:00 PM 16.18 61.124 0.578 7.67 12.21 8.71
9/24/2021 7:45:00 PM 16.15 61.07 0.578 7.67 15.5 8.68
9/24/2021 8:00:00 PM 16.13 61.034 0.579 7.68 14.23 8.66
9/24/2021 8:15:00 PM 16.11 60.998 0.579 7.67 14.6 8.65
9/24/2021 8:30:00 PM 16.09 60.962 0.58 7.67 11.71 8.61
9/24/2021 8:45:00 PM 16.07 60.926 0.581 7.68 15.33 8.59
9/24/2021 9:00:00 PM 16.06 60.908 0.582 7.67 14.85 8.58
9/24/2021 9:15:00 PM 16.03 60.854 0.583 7.67 13.53 8.54
9/24/2021 9:30:00 PM 16.01 60.818 0.584 7.67 11.58 8.53
9/24/2021 9:45:00 PM 15.99 60.782 0.584 7.66 13.36 8.52
9/24/2021 10:00:00 PM 15.96 60.728 0.586 7.67 13.68 8.51
9/24/2021 10:15:00 PM 15.93 60.674 0.586 7.66 12.93 8.5
9/24/2021 10:30:00 PM 15.9 60.62 0.587 7.66 15.76 8.49
9/24/2021 10:45:00 PM 15.88 60.584 0.587 7.66 15.89 8.48
9/24/2021 11:00:00 PM 15.85 60.53 0.589 7.66 14.41 8.48
9/24/2021 11:15:00 PM 15.82 60.476 0.589 7.66 13.19 8.47
9/24/2021 11:30:00 PM 15.78 60.404 0.59 7.66 11.28 8.46
9/24/2021 11:45:00 PM 15.75 60.35 0.591 7.66 13.29 8.46
9/25/2021 12:00:00 AM 15.72 60.296 0.591 7.66 11.15 8.47
9/25/2021 12:15:00 AM 15.69 60.242 0.592 7.65 12.08 8.47
9/25/2021 12:30:00 AM 15.65 60.17 0.592 7.65 13.43 8.47
9/25/2021 12:45:00 AM 15.61 60.098 0.592 7.65 12.67 8.49
9/25/2021 1:00:00 AM 15.57 60.026 0.594 7.65 11.45 8.48
9/25/2021 1:15:00 AM 15.53 59.954 0.595 7.65 10.23 8.48
9/25/2021 1:30:00 AM 15.48 59.864 0.595 7.66 12.35 8.5
9/25/2021 1:45:00 AM 15.44 59.792 0.595 7.66 12.22 8.51
9/25/2021 2:00:00 AM 15.4 59.72 0.596 7.67 12.37 8.52
9/25/2021 2:15:00 AM 15.38 59.684 0.598 7.66 13.16 8.53
9/25/2021 2:30:00 AM 15.37 59.666 0.602 7.65 12.03 8.54
9/25/2021 2:45:00 AM 15.35 59.63 0.604 7.66 13.96 8.55
9/25/2021 3:00:00 AM 15.31 59.558 0.605 7.66 11.94 8.55
9/25/2021 3:15:00 AM 15.27 59.486 0.606 7.66 12.71 8.55
9/25/2021 3:30:00 AM 15.23 59.414 0.606 7.66 11.54 8.58
9/25/2021 3:45:00 AM 15.19 59.342 0.607 7.66 11.44 8.58
9/25/2021 4:00:00 AM 15.15 59.27 0.607 7.65 10.21 8.59
9/25/2021 4:15:00 AM 15.1 59.18 0.608 7.66 9.59 8.59
9/25/2021 4:30:00 AM 15.06 59.108 0.608 7.67 10.95 8.62
9/25/2021 4:45:00 AM 15.01 59.018 0.609 7.66 10.86 8.61
9/25/2021 5:00:00 AM 14.97 58.946 0.609 7.66 14.2 8.64
9/25/2021 5:15:00 AM 14.93 58.874 0.61 7.66 12.52 8.63
9/25/2021 5:30:00 AM 14.89 58.802 0.61 7.66 9.72 8.66
9/25/2021 5:45:00 AM 14.85 58.73 0.611 7.66 9.33 8.67
9/25/2021 6:00:00 AM 14.82 58.676 0.611 7.66 9.15 8.67
9/25/2021 6:15:00 AM 14.78 58.604 0.611 7.66 9.29 8.67
9/25/2021 6:30:00 AM 14.74 58.532 0.612 7.66 10.1 8.7
9/25/2021 6:45:00 AM 14.71 58.478 0.612 7.66 10.35 8.71
9/25/2021 7:00:00 AM 14.67 58.406 0.612 7.66 9.78 8.72
9/25/2021 7:15:00 AM 14.62 58.316 0.612 7.67 10.71 8.73
9/25/2021 7:30:00 AM 14.56 58.208 0.612 7.65 9.09 8.75
9/25/2021 7:45:00 AM 14.49 58.082 0.609 7.66 11.68 8.77
9/25/2021 8:00:00 AM 14.44 57.992 0.607 7.66 12.69 8.79
9/25/2021 8:15:00 AM 14.4 57.92 0.607 7.67 11.14 8.82
9/25/2021 8:30:00 AM 14.38 57.884 0.607 7.67 9.51 8.84
9/25/2021 8:45:00 AM 14.38 57.884 0.607 7.67 8.6 8.86
9/25/2021 9:00:00 AM 14.38 57.884 0.607 7.62 7.47 8.89
9/25/2021 9:15:00 AM 14.38 57.884 0.607 7.63 9.65 8.91
9/25/2021 9:30:00 AM 14.38 57.884 0.608 7.63 6.44 8.94
9/25/2021 9:45:00 AM 14.39 57.902 0.607 7.63 7.43 8.98
9/25/2021 10:00:00 AM 14.41 57.938 0.608 7.63 7.11 9.02
9/25/2021 10:15:00 AM 14.45 58.01 0.607 7.65 6.6 9.05
9/25/2021 10:30:00 AM 14.51 58.118 0.607 7.64 11.02 9.11
9/25/2021 10:45:00 AM 14.55 58.19 0.607 7.65 9.06 9.17
9/25/2021 11:00:00 AM 14.6 58.28 0.607 7.66 8.13 9.2
9/25/2021 11:15:00 AM 14.68 58.424 0.606 7.65 7.49 9.25
9/25/2021 11:30:00 AM 14.77 58.586 0.607 7.67 6.83 9.29
9/25/2021 11:45:00 AM 14.85 58.73 0.607 7.67 5.84 9.34
9/25/2021 12:00:00 PM 14.94 58.892 0.608 7.67 6.05 9.39
9/25/2021 12:15:00 PM 15.01 59.018 0.608 7.68 6.67 9.41
9/25/2021 12:30:00 PM 15.04 59.072 0.608 7.69 5.41 9.44
9/25/2021 12:45:00 PM 15.06 59.108 0.608 7.69 7.05 9.46
9/25/2021 1:00:00 PM 15.1 59.18 0.608 7.7 8.93 9.46
9/25/2021 1:15:00 PM 15.13 59.234 0.609 7.69 6.42 9.5
9/25/2021 1:30:00 PM 15.23 59.414 0.609 7.7 5.43 9.55
9/25/2021 1:45:00 PM 15.3 59.54 0.609 7.71 8.32 9.58
9/25/2021 2:00:00 PM 15.37 59.666 0.609 7.71 5.27 9.61
9/25/2021 2:15:00 PM 15.42 59.756 0.609 7.71 7.06 9.62
9/25/2021 2:30:00 PM 15.48 59.864 0.61 7.72 5.97 9.65
9/25/2021 2:45:00 PM 15.54 59.972 0.61 7.72 4.58 9.67
9/25/2021 3:00:00 PM 15.6 60.08 0.611 7.72 6.21 9.68
9/25/2021 3:15:00 PM 15.65 60.17 0.611 7.73 5.04 9.68
9/25/2021 3:30:00 PM 15.71 60.278 0.612 7.73 5.49 9.68
9/25/2021 3:45:00 PM 15.75 60.35 0.612 7.73 4.85 9.67
9/25/2021 4:00:00 PM 15.79 60.422 0.612 7.73 5.12 9.66
9/25/2021 4:15:00 PM 15.83 60.494 0.612 7.72 7.25 9.65
9/25/2021 4:30:00 PM 15.86 60.548 0.612 7.73 5.37 9.61
9/25/2021 4:45:00 PM 15.87 60.566 0.613 7.72 6.66 9.6
9/25/2021 5:00:00 PM 15.85 60.53 0.613 7.72 5.88 9.54
9/25/2021 5:15:00 PM 15.84 60.512 0.613 7.72 5.33 9.51
9/25/2021 5:30:00 PM 15.83 60.494 0.614 7.73 5.08 9.46
9/25/2021 5:45:00 PM 15.84 60.512 0.614 7.73 5.83 9.43
9/25/2021 6:00:00 PM 15.86 60.548 0.614 7.73 6.17 9.39
9/25/2021 6:15:00 PM 15.87 60.566 0.615 7.72 4.49 9.35
9/25/2021 6:30:00 PM 15.88 60.584 0.615 7.73 5.4 9.3
9/25/2021 6:45:00 PM 15.87 60.566 0.615 7.73 6.09 9.25
9/25/2021 7:00:00 PM 15.86 60.548 0.616 7.73 6.5 9.18
9/25/2021 7:15:00 PM 15.85 60.53 0.616 7.73 6.23 9.14
9/25/2021 7:30:00 PM 15.83 60.494 0.616 7.71 5.78 9.1
9/25/2021 7:45:00 PM 15.82 60.476 0.617 7.7 6.71 9.06
9/25/2021 8:00:00 PM 15.81 60.458 0.617 7.71 7.78 9.01
9/25/2021 8:15:00 PM 15.79 60.422 0.617 7.73 7.94 8.99
9/25/2021 8:30:00 PM 15.78 60.404 0.618 7.71 8.09 8.95
9/25/2021 8:45:00 PM 15.77 60.386 0.618 7.72 7.73 8.92
9/25/2021 9:00:00 PM 15.75 60.35 0.618 7.73 7.81 8.88
9/25/2021 9:15:00 PM 15.74 60.332 0.618 7.74 6.78 8.84
9/25/2021 9:30:00 PM 15.72 60.296 0.619 7.74 7.34 8.82
9/25/2021 9:45:00 PM 15.7 60.26 0.619 7.74 6.44 8.79
9/25/2021 10:00:00 PM 15.69 60.242 0.619 7.73 6.41 8.77
9/25/2021 10:15:00 PM 15.67 60.206 0.619 7.65 7.87 8.75
9/25/2021 10:30:00 PM 15.66 60.188 0.619 7.68 8.62 8.73
9/25/2021 10:45:00 PM 15.65 60.17 0.62 7.64 7.43 8.71
9/25/2021 11:00:00 PM 15.64 60.152 0.619 7.65 7.82 8.69
9/25/2021 11:15:00 PM 15.62 60.116 0.62 7.66 7.85 8.67
9/25/2021 11:30:00 PM 15.6 60.08 0.62 7.65 7.03 8.66
9/25/2021 11:45:00 PM 15.58 60.044 0.62 7.66 7.03 8.66
9/26/2021 12:00:00 AM 15.57 60.026 0.62 7.66 7.24 8.65
9/26/2021 12:15:00 AM 15.55 59.99 0.62 7.69 8.23 8.65
9/26/2021 12:30:00 AM 15.54 59.972 0.62 7.65 5.82 8.62
9/26/2021 12:45:00 AM 15.52 59.936 0.621 7.64 7.75 8.62
9/26/2021 1:00:00 AM 15.5 59.9 0.621 7.65 8.2 8.63
9/26/2021 1:15:00 AM 15.48 59.864 0.621 7.65 7.31 8.62
9/26/2021 1:30:00 AM 15.46 59.828 0.621 7.67 7.98 8.61
9/26/2021 1:45:00 AM 15.45 59.81 0.621 7.67 8.05 8.61
9/26/2021 2:00:00 AM 15.43 59.774 0.621 7.68 7.14 8.6
9/26/2021 2:15:00 AM 15.42 59.756 0.621 7.67 5.77 8.61
9/26/2021 2:30:00 AM 15.4 59.72 0.622 7.67 6.13 8.61
9/26/2021 2:45:00 AM 15.38 59.684 0.622 7.67 7.47 8.61
9/26/2021 3:00:00 AM 15.35 59.63 0.622 7.67 8.37 8.62
9/26/2021 3:15:00 AM 15.32 59.576 0.623 7.67 7.12 8.62
9/26/2021 3:30:00 AM 15.29 59.522 0.623 7.67 7.27 8.62
9/26/2021 3:45:00 AM 15.26 59.468 0.623 7.67 8.34 8.62
9/26/2021 4:00:00 AM 15.22 59.396 0.623 7.67 8.53 8.63
9/26/2021 4:15:00 AM 15.18 59.324 0.624 7.67 5.92 8.63
9/26/2021 4:30:00 AM 15.14 59.252 0.624 7.68 13.71 8.64
9/26/2021 4:45:00 AM 15.1 59.18 0.623 7.67 5.76 8.64
9/26/2021 5:00:00 AM 15.05 59.09 0.624 7.67 7.2 8.65
9/26/2021 5:15:00 AM 15.01 59.018 0.624 7.67 7.29 8.65
9/26/2021 5:30:00 AM 14.97 58.946 0.624 7.68 6.86 8.67
9/26/2021 5:45:00 AM 14.93 58.874 0.625 7.67 5.53 8.67
9/26/2021 6:00:00 AM 14.89 58.802 0.625 7.67 9.48 8.68
9/26/2021 6:15:00 AM 14.86 58.748 0.625 7.67 9.05 8.69
9/26/2021 6:30:00 AM 14.84 58.712 0.625 7.68 6.82 8.7
9/26/2021 6:45:00 AM 14.84 58.712 0.629 7.68 8.08 8.7
9/26/2021 7:00:00 AM 14.83 58.694 0.633 7.68 6.18 8.72
9/26/2021 7:15:00 AM 14.81 58.658 0.634 7.68 6.41 8.72
9/26/2021 7:30:00 AM 14.77 58.586 0.635 7.69 7.17 8.73
9/26/2021 7:45:00 AM 14.73 58.514 0.635 7.68 5.89 8.75
9/26/2021 8:00:00 AM 14.7 58.46 0.635 7.69 7.16 8.77
9/26/2021 8:15:00 AM 14.67 58.406 0.635 7.69 5.8 8.79
9/26/2021 8:30:00 AM 14.65 58.37 0.635 7.69 5.91 8.81
9/26/2021 8:45:00 AM 14.64 58.352 0.636 7.69 5.49 8.85
9/26/2021 9:00:00 AM 14.65 58.37 0.636 7.69 5.23 8.87
9/26/2021 9:15:00 AM 14.66 58.388 0.636 7.69 4.32 8.92
9/26/2021 9:30:00 AM 14.68 58.424 0.636 7.7 5.1 8.94
9/26/2021 9:45:00 AM 14.7 58.46 0.636 7.7 3.94 8.99
9/26/2021 10:00:00 AM 14.73 58.514 0.636 7.7 4.39 9.04
9/26/2021 10:15:00 AM 14.77 58.586 0.636 7.71 5.68 9.09
9/26/2021 10:30:00 AM 14.82 58.676 0.636 7.71 5.21 9.15
9/26/2021 10:45:00 AM 14.86 58.748 0.636 7.72 4.2 9.2
9/26/2021 11:00:00 AM 14.91 58.838 0.636 7.72 4.65 9.25
9/26/2021 11:15:00 AM 14.94 58.892 0.635 7.73 5.25 9.29
9/26/2021 11:30:00 AM 14.97 58.946 0.633 7.73 4.08 9.33
9/26/2021 11:45:00 AM 14.99 58.982 0.629 7.73 5.34 9.39
9/26/2021 12:00:00 PM 15.04 59.072 0.628 7.73 4.01 9.45
9/26/2021 12:15:00 PM 15.11 59.198 0.628 7.73 3.84 9.49
9/26/2021 12:30:00 PM 15.16 59.288 0.627 7.74 4.22 9.53
9/26/2021 12:45:00 PM 15.23 59.414 0.627 7.74 4.46 9.57
9/26/2021 1:00:00 PM 15.3 59.54 0.627 7.75 3.58 9.6
9/26/2021 1:15:00 PM 15.36 59.648 0.627 7.75 4.77 9.63
9/26/2021 1:30:00 PM 15.41 59.738 0.627 7.75 4.27 9.65
9/26/2021 1:45:00 PM 15.47 59.846 0.628 7.76 5.54 9.68
9/26/2021 2:00:00 PM 15.51 59.918 0.628 7.76 5.59 9.71
9/26/2021 2:15:00 PM 15.56 60.008 0.628 7.76 4.76 9.72
9/26/2021 2:30:00 PM 15.59 60.062 0.627 7.76 3.81 9.75
9/26/2021 2:45:00 PM 15.62 60.116 0.627 7.76 5.33 9.75
9/26/2021 3:00:00 PM 15.65 60.17 0.627 7.77 4.58 9.76
9/26/2021 3:15:00 PM 15.68 60.224 0.627 7.77 5.44 9.77
9/26/2021 3:30:00 PM 15.72 60.296 0.627 7.78 4.7 9.77
9/26/2021 3:45:00 PM 15.74 60.332 0.627 7.78 3.91 9.75
9/26/2021 4:00:00 PM 15.76 60.368 0.627 7.78 4.06 9.75
9/26/2021 4:15:00 PM 15.77 60.386 0.627 7.77 4.23 9.73
9/26/2021 4:30:00 PM 15.78 60.404 0.627 7.77 3.33 9.7
9/26/2021 4:45:00 PM 15.77 60.386 0.627 7.78 3.92 9.67
9/26/2021 5:00:00 PM 15.76 60.368 0.627 7.78 4.83 9.63
9/26/2021 5:15:00 PM 15.74 60.332 0.628 7.78 5.09 9.6
9/26/2021 5:30:00 PM 15.73 60.314 0.628 7.78 4.38 9.56
9/26/2021 5:45:00 PM 15.71 60.278 0.628 7.78 3.96 9.49
9/26/2021 6:00:00 PM 15.69 60.242 0.628 7.77 4.95 9.46
9/26/2021 6:15:00 PM 15.67 60.206 0.628 7.77 5.17 9.41
9/26/2021 6:30:00 PM 15.65 60.17 0.628 7.76 3.53 9.35
9/26/2021 6:45:00 PM 15.64 60.152 0.628 7.76 10.71 9.3
9/26/2021 7:00:00 PM 15.63 60.134 0.628 7.75 4.57 9.26
9/26/2021 7:15:00 PM 15.62 60.116 0.629 7.77 7.23 9.21
9/26/2021 7:30:00 PM 15.6 60.08 0.629 7.75 4.31 9.16
9/26/2021 7:45:00 PM 15.58 60.044 0.629 7.75 7 9.12
9/26/2021 8:00:00 PM 15.56 60.008 0.63 7.74 5.18 9.08
9/26/2021 8:15:00 PM 15.53 59.954 0.63 7.74 5.52 9.06
9/26/2021 8:30:00 PM 15.51 59.918 0.631 7.73 6.37 9.02
9/26/2021 8:45:00 PM 15.49 59.882 0.631 7.73 6.04 9
9/26/2021 9:00:00 PM 15.46 59.828 0.632 7.73 5.82 8.97
9/26/2021 9:15:00 PM 15.44 59.792 0.632 7.73 5.96 8.93
9/26/2021 9:30:00 PM 15.41 59.738 0.632 7.73 6.03 8.9
9/26/2021 9:45:00 PM 15.38 59.684 0.632 7.72 5.69 8.89
9/26/2021 10:00:00 PM 15.35 59.63 0.632 7.72 6.56 8.86
9/26/2021 10:15:00 PM 15.32 59.576 0.632 7.72 5.26 8.84
9/26/2021 10:30:00 PM 15.3 59.54 0.632 7.72 7.37 8.84
9/26/2021 10:45:00 PM 15.27 59.486 0.632 7.72 7.53 8.8
9/26/2021 11:00:00 PM 15.24 59.432 0.632 7.71 10.32 8.8
9/26/2021 11:15:00 PM 15.22 59.396 0.632 7.72 7.32 8.79
9/26/2021 11:30:00 PM 15.19 59.342 0.632 7.72 8.56 8.78
9/26/2021 11:45:00 PM 15.16 59.288 0.632 7.72 6.49 8.77
9/27/2021 12:00:00 AM 15.13 59.234 0.632 7.72 6.04 8.77
9/27/2021 12:15:00 AM 15.1 59.18 0.633 7.72 5.59 8.76
9/27/2021 12:30:00 AM 15.07 59.126 0.633 7.72 8.1 8.75
9/27/2021 12:45:00 AM 15.04 59.072 0.633 7.72 7.26 8.75
9/27/2021 1:00:00 AM 15.01 59.018 0.633 7.72 8.1 8.75
9/27/2021 1:15:00 AM 14.98 58.964 0.633 7.71 6.85 8.75
9/27/2021 1:30:00 AM 14.95 58.91 0.633 7.72 5.61 8.74
9/27/2021 1:45:00 AM 14.91 58.838 0.633 7.72 6.65 8.75
9/27/2021 2:00:00 AM 14.88 58.784 0.633 7.72 7.88 8.74
9/27/2021 2:15:00 AM 14.84 58.712 0.633 7.71 6.21 8.75
9/27/2021 2:30:00 AM 14.81 58.658 0.633 7.71 6.01 8.76
9/27/2021 2:45:00 AM 14.77 58.586 0.633 7.71 6.69 8.77
9/27/2021 3:00:00 AM 14.73 58.514 0.633 7.71 6.53 8.78
9/27/2021 3:15:00 AM 14.69 58.442 0.633 7.71 5.73 8.79
9/27/2021 3:30:00 AM 14.65 58.37 0.633 7.71 5.31 8.8
9/27/2021 3:45:00 AM 14.61 58.298 0.633 7.71 8.68 8.81
9/27/2021 4:00:00 AM 14.57 58.226 0.633 7.72 6.98 8.82
9/27/2021 4:15:00 AM 14.55 58.19 0.632 7.72 6.9 8.84
9/27/2021 4:30:00 AM 14.55 58.19 0.635 7.71 6.12 8.84
9/27/2021 4:45:00 AM 14.55 58.19 0.639 7.71 5.07 8.85
9/27/2021 5:00:00 AM 14.53 58.154 0.641 7.72 6.1 8.85
9/27/2021 5:15:00 AM 14.51 58.118 0.641 7.71 6.19 8.86
9/27/2021 5:30:00 AM 14.48 58.064 0.641 7.71 6.23 8.87
9/27/2021 5:45:00 AM 14.46 58.028 0.642 7.71 6.96 8.87
9/27/2021 6:00:00 AM 14.43 57.974 0.642 7.7 5.85 8.87
9/27/2021 6:15:00 AM 14.41 57.938 0.642 7.69 7.36 8.89
9/27/2021 6:30:00 AM 14.4 57.92 0.642 7.71 5.59 8.88
9/27/2021 6:45:00 AM 14.38 57.884 0.642 7.72 5.47 8.88
9/27/2021 7:00:00 AM 14.37 57.866 0.642 7.72 5.46 8.89
9/27/2021 7:15:00 AM 14.36 57.848 0.642 7.72 5.02 8.89
9/27/2021 7:30:00 AM 14.34 57.812 0.642 7.73 4.77 8.92
9/27/2021 7:45:00 AM 14.3 57.74 0.642 7.73 5.22 8.93
9/27/2021 8:00:00 AM 14.26 57.668 0.64 7.73 4.79 8.97
9/27/2021 8:15:00 AM 14.22 57.596 0.636 7.72 4.99 8.99
9/27/2021 8:30:00 AM 14.2 57.56 0.634 7.73 6.23 9.04
9/27/2021 8:45:00 AM 14.19 57.542 0.633 7.73 5.41 9.07
9/27/2021 9:00:00 AM 14.2 57.56 0.633 7.73 4.49 9.09
9/27/2021 9:15:00 AM 14.21 57.578 0.633 7.73 4.5 9.11
9/27/2021 9:30:00 AM 14.24 57.632 0.633 7.73 4.24 9.14
9/27/2021 9:45:00 AM 14.28 57.704 0.633 7.73 4.54 9.18
9/27/2021 10:00:00 AM 14.32 57.776 0.633 7.73 3.78 9.23
9/27/2021 10:15:00 AM 14.37 57.866 0.634 7.73 4.19 9.28
9/27/2021 10:30:00 AM 14.43 57.974 0.634 7.73 4.17 9.32
9/27/2021 10:45:00 AM 14.49 58.082 0.634 7.74 4 9.37
9/27/2021 11:00:00 AM 14.54 58.172 0.634 7.74 5.19 9.4
9/27/2021 11:15:00 AM 14.6 58.28 0.634 7.75 4.58 9.45
9/27/2021 11:30:00 AM 14.67 58.406 0.634 7.74 4.12 9.51
9/27/2021 11:45:00 AM 14.74 58.532 0.634 7.75 3.79 9.56
9/27/2021 12:00:00 PM 14.82 58.676 0.634 7.75 3.42 9.62
9/27/2021 12:15:00 PM 14.9 58.82 0.634 7.75 4.04 9.66
9/27/2021 12:30:00 PM 14.98 58.964 0.634 7.76 2.94 9.7
9/27/2021 12:45:00 PM 15.05 59.09 0.634 7.76 3.77 9.74
9/27/2021 1:00:00 PM 15.13 59.234 0.634 7.77 3.16 9.77
9/27/2021 1:15:00 PM 15.21 59.378 0.634 7.77 3.57 9.81
9/27/2021 1:30:00 PM 15.29 59.522 0.634 7.77 4.16 9.84
9/27/2021 1:45:00 PM 15.36 59.648 0.634 7.78 3.58 9.86
9/27/2021 2:00:00 PM 15.43 59.774 0.634 7.77 3.43 9.88
9/27/2021 2:15:00 PM 15.49 59.882 0.634 7.78 3.27 9.89
9/27/2021 2:30:00 PM 15.55 59.99 0.634 7.78 4.18 9.89
9/27/2021 2:45:00 PM 15.61 60.098 0.634 7.79 6.22 9.91
9/27/2021 3:00:00 PM 15.67 60.206 0.634 7.79 5.21 9.93
9/27/2021 3:15:00 PM 15.73 60.314 0.634 7.79 3.31 9.93
9/27/2021 3:30:00 PM 15.77 60.386 0.634 7.79 5.27 9.93
9/27/2021 3:45:00 PM 15.82 60.476 0.634 7.79 3.8 9.91
9/27/2021 4:00:00 PM 15.86 60.548 0.634 7.8 4.61 9.89
9/27/2021 4:15:00 PM 15.9 60.62 0.634 7.79 5.09 9.86
9/27/2021 4:30:00 PM 15.92 60.656 0.634 7.8 3.56 9.84
9/27/2021 4:45:00 PM 15.94 60.692 0.634 7.8 4.92 9.8
9/27/2021 5:00:00 PM 15.96 60.728 0.634 7.79 3.69 9.75
9/27/2021 5:15:00 PM 15.98 60.764 0.635 7.79 5.76 9.7
9/27/2021 5:30:00 PM 15.98 60.764 0.635 7.8 6.62 9.65
9/27/2021 5:45:00 PM 15.98 60.764 0.635 7.79 4.29 9.58
9/27/2021 6:00:00 PM 15.98 60.764 0.635 7.79 3.78 9.53
9/27/2021 6:15:00 PM 15.97 60.746 0.635 7.78 5.44 9.49
9/27/2021 6:30:00 PM 15.96 60.728 0.635 7.78 3.96 9.45
9/27/2021 6:45:00 PM 15.94 60.692 0.635 7.79 3.64 9.38
9/27/2021 7:00:00 PM 15.93 60.674 0.635 7.77 3.64 9.31
9/27/2021 7:15:00 PM 15.91 60.638 0.636 7.77 4.38 9.25
9/27/2021 7:30:00 PM 15.89 60.602 0.636 7.77 8.71 9.2
9/27/2021 7:45:00 PM 15.87 60.566 0.636 7.77 5.41 9.16
9/27/2021 8:00:00 PM 15.85 60.53 0.636 7.76 3.57 9.12
9/27/2021 8:15:00 PM 15.84 60.512 0.636 7.77 5.99 9.06
9/27/2021 8:30:00 PM 15.82 60.476 0.636 7.77 4.18 9.04
9/27/2021 8:45:00 PM 15.8 60.44 0.636 7.77 4.76 9.01
9/27/2021 9:00:00 PM 15.78 60.404 0.637 7.76 5.5 8.96
9/27/2021 9:15:00 PM 15.76 60.368 0.637 7.76 6.28 8.94
9/27/2021 9:30:00 PM 15.74 60.332 0.638 7.75 7.81 8.91
9/27/2021 9:45:00 PM 15.72 60.296 0.638 7.76 5.29 8.88
9/27/2021 10:00:00 PM 15.69 60.242 0.638 7.76 5.13 8.85
9/27/2021 10:15:00 PM 15.68 60.224 0.638 7.74 5.28 8.82
9/27/2021 10:30:00 PM 15.66 60.188 0.638 7.74 6.17 8.79
9/27/2021 10:45:00 PM 15.64 60.152 0.638 7.74 5.12 8.78
9/27/2021 11:00:00 PM 15.62 60.116 0.638 7.73 6.92 8.76
9/27/2021 11:15:00 PM 15.61 60.098 0.639 7.74 4.19 8.73
9/27/2021 11:30:00 PM 15.59 60.062 0.639 7.73 6.79 8.73
9/27/2021 11:45:00 PM 15.57 60.026 0.639 7.74 4.42 8.71
9/28/2021 12:00:00 AM 15.55 59.99 0.638 7.73 6.12 8.7
9/28/2021 12:15:00 AM 15.53 59.954 0.638 7.73 4.28 8.69
9/28/2021 12:30:00 AM 15.51 59.918 0.639 7.73 6.08 8.68
9/28/2021 12:45:00 AM 15.5 59.9 0.639 7.72 5.16 8.66
9/28/2021 1:00:00 AM 15.48 59.864 0.639 7.73 5.04 8.66
9/28/2021 1:15:00 AM 15.46 59.828 0.639 7.73 5.49 8.66
9/28/2021 1:30:00 AM 15.44 59.792 0.639 7.73 5.84 8.65
9/28/2021 1:45:00 AM 15.42 59.756 0.639 7.73 6.67 8.64
9/28/2021 2:00:00 AM 15.4 59.72 0.639 7.73 5.83 8.64
9/28/2021 2:15:00 AM 15.38 59.684 0.64 7.73 4.91 8.64
9/28/2021 2:30:00 AM 15.36 59.648 0.64 7.73 5.95 8.64
9/28/2021 2:45:00 AM 15.34 59.612 0.64 7.73 7.85 8.64
9/28/2021 3:00:00 AM 15.32 59.576 0.64 7.73 7.23 8.63
9/28/2021 3:15:00 AM 15.3 59.54 0.64 7.73 6.14 8.64
9/28/2021 3:30:00 AM 15.28 59.504 0.64 7.73 7.17 8.63
9/28/2021 3:45:00 AM 15.26 59.468 0.64 7.73 4.64 8.64
9/28/2021 4:00:00 AM 15.24 59.432 0.64 7.73 4.67 8.65
9/28/2021 4:15:00 AM 15.22 59.396 0.64 7.72 6.5 8.65
9/28/2021 4:30:00 AM 15.2 59.36 0.64 7.72 4.81 8.65
9/28/2021 4:45:00 AM 15.18 59.324 0.64 7.72 4.75 8.66
9/28/2021 5:00:00 AM 15.16 59.288 0.64 7.72 5.45 8.66
9/28/2021 5:15:00 AM 15.13 59.234 0.639 7.73 6.32 8.65
9/28/2021 5:30:00 AM 15.11 59.198 0.639 7.73 5.18 8.68
9/28/2021 5:45:00 AM 15.09 59.162 0.639 7.73 6.19 8.68
9/28/2021 6:00:00 AM 15.07 59.126 0.639 7.73 6.01 8.69
9/28/2021 6:15:00 AM 15.05 59.09 0.639 7.73 5.22 8.7
9/28/2021 6:30:00 AM 15.02 59.036 0.639 7.73 5.06 8.7
9/28/2021 6:45:00 AM 15.01 59.018 0.639 7.73 5.87 8.71
9/28/2021 7:00:00 AM 14.99 58.982 0.64 7.72 5.12 8.7
9/28/2021 7:15:00 AM 14.98 58.964 0.64 7.73 7.39 8.7
9/28/2021 7:30:00 AM 14.97 58.946 0.64 7.72 7.04 8.72
9/28/2021 7:45:00 AM 14.95 58.91 0.64 7.73 5.31 8.71
9/28/2021 8:00:00 AM 14.94 58.892 0.639 7.73 5.75 8.72
9/28/2021 8:15:00 AM 14.93 58.874 0.639 7.72 5.18 8.73
9/28/2021 8:30:00 AM 14.92 58.856 0.639 7.73 4.4 8.73
9/28/2021 8:45:00 AM 14.91 58.838 0.638 7.72 5.47 8.73
9/28/2021 9:00:00 AM 14.9 58.82 0.638 7.72 4.42 8.75
9/28/2021 9:15:00 AM 14.9 58.82 0.638 7.71 4.56 8.76
9/28/2021 9:30:00 AM 14.89 58.802 0.637 7.73 3.78 8.78
9/28/2021 9:45:00 AM 14.89 58.802 0.635 7.73 4.04 8.8
9/28/2021 10:00:00 AM 14.89 58.802 0.635 7.73 3.89 8.79
9/28/2021 10:15:00 AM 14.89 58.802 0.635 7.73 4.12 8.8
9/28/2021 10:30:00 AM 14.89 58.802 0.635 7.72 3.94 8.83
9/28/2021 10:45:00 AM 14.91 58.838 0.635 7.72 4.37 8.88
9/28/2021 11:00:00 AM 14.94 58.892 0.635 7.72 3.95 8.96
9/28/2021 11:15:00 AM 15 59 0.634 7.72 4.93 9.06
9/28/2021 11:30:00 AM 15.06 59.108 0.634 7.72 4.33 9.12
9/28/2021 11:45:00 AM 15.09 59.162 0.634 7.73 4.28 9.17
9/28/2021 12:00:00 PM 15.13 59.234 0.634 7.73 4.44 9.21
9/28/2021 12:15:00 PM 15.13 59.234 0.634 7.73 4.22 9.2
9/28/2021 12:30:00 PM 15.13 59.234 0.634 7.73 5.7 9.21
9/28/2021 12:45:00 PM 15.13 59.234 0.634 7.74 4.47 9.22
9/28/2021 1:00:00 PM 15.15 59.27 0.634 7.74 3.1 9.25
9/28/2021 1:15:00 PM 15.16 59.288 0.633 7.75 4.64 9.28
9/28/2021 1:30:00 PM 15.17 59.306 0.633 7.74 3.87 9.28
9/28/2021 1:45:00 PM 15.18 59.324 0.633 7.75 3.47 9.28
9/28/2021 2:00:00 PM 15.21 59.378 0.632 7.74 3.98 9.31
9/28/2021 2:15:00 PM 15.27 59.486 0.631 7.75 4.21 9.36
9/28/2021 2:30:00 PM 15.33 59.594 0.63 7.75 3.63 9.42
9/28/2021 2:45:00 PM 15.39 59.702 0.63 7.75 3.13 9.48
9/28/2021 3:00:00 PM 15.45 59.81 0.63 7.75 3.53 9.53
9/28/2021 3:15:00 PM 15.53 59.954 0.631 7.76 4.23 9.58
9/28/2021 3:30:00 PM 15.59 60.062 0.632 7.76 4.07 9.62
9/28/2021 3:45:00 PM 15.63 60.134 0.632 7.76 3.87 9.65
9/28/2021 4:00:00 PM 15.66 60.188 0.633 7.77 3.84 9.67
9/28/2021 4:15:00 PM 15.67 60.206 0.634 7.77 4.37 9.67
9/28/2021 4:30:00 PM 15.68 60.224 0.634 7.77 3.19 9.67
9/28/2021 4:45:00 PM 15.68 60.224 0.635 7.78 3.35 9.66
9/28/2021 5:00:00 PM 15.67 60.206 0.635 7.78 3.43 9.62
9/28/2021 5:15:00 PM 15.7 60.26 0.635 7.78 3.39 9.6
9/28/2021 5:30:00 PM 15.7 60.26 0.635 7.78 5.06 9.56
9/28/2021 5:45:00 PM 15.71 60.278 0.634 7.78 3.7 9.49
9/28/2021 6:00:00 PM 15.71 60.278 0.634 7.78 5.04 9.44
9/28/2021 6:15:00 PM 15.71 60.278 0.634 7.78 3.14 9.38
9/28/2021 6:30:00 PM 15.72 60.296 0.634 7.78 3.54 9.35
9/28/2021 6:45:00 PM 15.72 60.296 0.634 7.77 3.76 9.32
9/28/2021 7:00:00 PM 15.71 60.278 0.634 7.77 3.98 9.27
9/28/2021 7:15:00 PM 15.71 60.278 0.634 7.75 4.24 9.22
9/28/2021 7:30:00 PM 15.7 60.26 0.634 7.77 5.59 9.19
9/28/2021 7:45:00 PM 15.68 60.224 0.634 7.76 6.13 9.16
9/28/2021 8:00:00 PM 15.67 60.206 0.635 7.76 8.79 9.11
9/28/2021 8:15:00 PM 15.65 60.17 0.635 7.76 4.81 9.07
9/28/2021 8:30:00 PM 15.63 60.134 0.634 7.77 5.75 9.02
9/28/2021 8:45:00 PM 15.62 60.116 0.634 7.76 6.17 9
9/28/2021 9:00:00 PM 15.59 60.062 0.634 7.75 6.34 8.97
9/28/2021 9:15:00 PM 15.57 60.026 0.633 7.74 7.15 8.9
9/28/2021 9:30:00 PM 15.54 59.972 0.631 7.73 4.75 8.88
9/28/2021 9:45:00 PM 15.51 59.918 0.629 7.73 4.21 8.84
9/28/2021 10:00:00 PM 15.49 59.882 0.627 7.72 7.38 8.81
9/28/2021 10:15:00 PM 15.47 59.846 0.625 7.71 5.8 8.77
9/28/2021 10:30:00 PM 15.44 59.792 0.624 7.72 4.67 8.75
9/28/2021 10:45:00 PM 15.42 59.756 0.622 7.71 6.08 8.71
9/28/2021 11:00:00 PM 15.4 59.72 0.622 7.71 5.73 8.71
9/28/2021 11:15:00 PM 15.37 59.666 0.622 7.7 6.05 8.71
9/28/2021 11:30:00 PM 15.35 59.63 0.622 7.7 4.34 8.7
9/28/2021 11:45:00 PM 15.32 59.576 0.624 7.7 5.84 8.68
9/29/2021 12:00:00 AM 15.3 59.54 0.625 7.7 4.9 8.67
9/29/2021 12:15:00 AM 15.29 59.522 0.625 7.7 10.83 8.68
9/29/2021 12:30:00 AM 15.29 59.522 0.628 7.7 7.06 8.69
9/29/2021 12:45:00 AM 15.31 59.558 0.633 7.71 6.25 8.68
9/29/2021 1:00:00 AM 15.32 59.576 0.637 7.7 9.52 8.68
9/29/2021 1:15:00 AM 15.32 59.576 0.639 7.7 5.51 8.69
9/29/2021 1:30:00 AM 15.3 59.54 0.64 7.71 6.45 8.69
9/29/2021 1:45:00 AM 15.29 59.522 0.641 7.71 7.17 8.69
9/29/2021 2:00:00 AM 15.27 59.486 0.642 7.71 6.51 8.69
9/29/2021 2:15:00 AM 15.26 59.468 0.642 7.72 5.04 8.69
9/29/2021 2:30:00 AM 15.24 59.432 0.643 7.72 5.78 8.68
9/29/2021 2:45:00 AM 15.22 59.396 0.643 7.72 4.4 8.69
9/29/2021 3:00:00 AM 15.2 59.36 0.644 7.72 5.31 8.7
9/29/2021 3:15:00 AM 15.18 59.324 0.644 7.72 5.39 8.7
9/29/2021 3:30:00 AM 15.15 59.27 0.645 7.73 6.68 8.69
9/29/2021 3:45:00 AM 15.13 59.234 0.646 7.73 5.14 8.7
9/29/2021 4:00:00 AM 15.1 59.18 0.646 7.73 6.1 8.71
9/29/2021 4:15:00 AM 15.06 59.108 0.646 7.74 4.84 8.72
9/29/2021 4:30:00 AM 15.03 59.054 0.646 7.73 6.2 8.72
9/29/2021 4:45:00 AM 14.98 58.964 0.645 7.73 4.74 8.72
9/29/2021 5:00:00 AM 14.91 58.838 0.642 7.73 5.11 8.72
9/29/2021 5:15:00 AM 14.84 58.712 0.636 7.73 6.79 8.72
9/29/2021 5:30:00 AM 14.79 58.622 0.63 7.72 5.53 8.71
9/29/2021 5:45:00 AM 14.75 58.55 0.625 7.72 4.1 8.71
9/29/2021 6:00:00 AM 14.71 58.478 0.622 7.71 10.24 8.72
9/29/2021 6:15:00 AM 14.68 58.424 0.619 7.71 7.87 8.71
9/29/2021 6:30:00 AM 14.64 58.352 0.618 7.71 5.6 8.7
9/29/2021 6:45:00 AM 14.6 58.28 0.617 7.7 6.75 8.66
9/29/2021 7:00:00 AM 14.56 58.208 0.618 7.7 6.19 8.67
9/29/2021 7:15:00 AM 14.53 58.154 0.619 7.7 4.69 8.67
9/29/2021 7:30:00 AM 14.5 58.1 0.62 7.7 4.52 8.69
9/29/2021 7:45:00 AM 14.47 58.046 0.62 7.7 5.03 8.72
9/29/2021 8:00:00 AM 14.44 57.992 0.621 7.7 4.82 8.76
9/29/2021 8:15:00 AM 14.42 57.956 0.622 7.71 4.71 8.8
9/29/2021 8:30:00 AM 14.44 57.992 0.623 7.71 4.99 8.86
9/29/2021 8:45:00 AM 14.46 58.028 0.624 7.72 4.53 8.93
9/29/2021 9:00:00 AM 14.48 58.064 0.625 7.72 4.29 8.99
9/29/2021 9:15:00 AM 14.48 58.064 0.626 7.73 6.55 9.03
9/29/2021 9:30:00 AM 14.46 58.028 0.628 7.73 3.46 9.05
9/29/2021 9:45:00 AM 14.42 57.956 0.63 7.73 3.56 9.08
9/29/2021 10:00:00 AM 14.41 57.938 0.631 7.73 5.18 9.1
9/29/2021 10:15:00 AM 14.4 57.92 0.632 7.73 7.99 9.15
9/29/2021 10:30:00 AM 14.43 57.974 0.633 7.75 4.3 9.22
9/29/2021 10:45:00 AM 14.46 58.028 0.634 7.74 3.49 9.29
9/29/2021 11:00:00 AM 14.52 58.136 0.634 7.75 3 9.39
9/29/2021 11:15:00 AM 14.6 58.28 0.635 7.76 2.54 9.46
9/29/2021 11:30:00 AM 14.68 58.424 0.635 7.77 2.56 9.54
9/29/2021 11:45:00 AM 14.75 58.55 0.636 7.77 2.71 9.6
9/29/2021 12:00:00 PM 14.81 58.658 0.636 7.77 3.84 9.67
9/29/2021 12:15:00 PM 14.87 58.766 0.636 7.78 4.63 9.73
9/29/2021 12:30:00 PM 14.93 58.874 0.637 7.79 4.18 9.8
9/29/2021 12:45:00 PM 14.99 58.982 0.637 7.79 3.46 9.86
9/29/2021 1:00:00 PM 15.04 59.072 0.637 7.8 2.78 9.92
9/29/2021 1:15:00 PM 15.11 59.198 0.638 7.8 4.08 9.96
9/29/2021 1:30:00 PM 15.17 59.306 0.638 7.8 2.9 10.02
9/29/2021 1:45:00 PM 15.21 59.378 0.639 7.81 2.94 10.06
9/29/2021 2:00:00 PM 15.26 59.468 0.639 7.81 4.36 10.11
9/29/2021 2:15:00 PM 15.28 59.504 0.64 7.81 2.98 10.12
9/29/2021 2:30:00 PM 15.29 59.522 0.641 7.82 2.71 10.17
9/29/2021 2:45:00 PM 15.32 59.576 0.641 7.82 2.29 10.19
9/29/2021 3:00:00 PM 15.33 59.594 0.641 7.82 2.85 10.22
9/29/2021 3:15:00 PM 15.33 59.594 0.641 7.83 3.04 10.21
9/29/2021 3:30:00 PM 15.35 59.63 0.64 7.83 2.79 10.21
9/29/2021 3:45:00 PM 15.37 59.666 0.638 7.84 3.67 10.19
9/29/2021 4:00:00 PM 15.42 59.756 0.637 7.84 3.4 10.2
9/29/2021 4:15:00 PM 15.43 59.774 0.638 7.84 3.12 10.2
9/29/2021 4:30:00 PM 15.43 59.774 0.638 7.85 5.7 10.16
9/29/2021 4:45:00 PM 15.42 59.756 0.639 7.85 2.82 10.14
9/29/2021 5:00:00 PM 15.41 59.738 0.639 7.85 3.11 10.09
9/29/2021 5:15:00 PM 15.4 59.72 0.638 7.85 3.75 10.02
9/29/2021 5:30:00 PM 15.38 59.684 0.639 7.85 4.43 9.97
9/29/2021 5:45:00 PM 15.36 59.648 0.639 7.84 3.06 9.91
9/29/2021 6:00:00 PM 15.34 59.612 0.64 7.84 2.79 9.85
9/29/2021 6:15:00 PM 15.33 59.594 0.64 7.84 2.84 9.8
9/29/2021 6:30:00 PM 15.31 59.558 0.64 7.83 3.26 9.73
9/29/2021 6:45:00 PM 15.3 59.54 0.641 7.83 2.99 9.68
9/29/2021 7:00:00 PM 15.28 59.504 0.641 7.83 4.13 9.61
9/29/2021 7:15:00 PM 15.25 59.45 0.642 7.82 3.33 9.55
9/29/2021 7:30:00 PM 15.22 59.396 0.642 7.82 3.37 9.5
9/29/2021 7:45:00 PM 15.2 59.36 0.642 7.82 4.1 9.45
9/29/2021 8:00:00 PM 15.17 59.306 0.643 7.82 3.85 9.4
9/29/2021 8:15:00 PM 15.14 59.252 0.643 7.81 4.24 9.37
9/29/2021 8:30:00 PM 15.11 59.198 0.643 7.81 3.66 9.32
9/29/2021 8:45:00 PM 15.08 59.144 0.643 7.8 3.73 9.3
9/29/2021 9:00:00 PM 15.06 59.108 0.643 7.8 5.8 9.26
9/29/2021 9:15:00 PM 15.04 59.072 0.643 7.8 4.55 9.22
9/29/2021 9:30:00 PM 15.02 59.036 0.643 7.8 3.89 9.2
9/29/2021 9:45:00 PM 14.99 58.982 0.644 7.79 3.86 9.18
9/29/2021 10:00:00 PM 14.96 58.928 0.644 7.8 3.72 9.16
9/29/2021 10:15:00 PM 14.93 58.874 0.644 7.79 5.15 9.12
9/29/2021 10:30:00 PM 14.9 58.82 0.644 7.79 4.46 9.11
9/29/2021 10:45:00 PM 14.88 58.784 0.644 7.78 5.25 9.09
9/29/2021 11:00:00 PM 14.86 58.748 0.644 7.78 3.98 9.07
9/29/2021 11:15:00 PM 14.84 58.712 0.644 7.78 7.27 9.05
9/29/2021 11:30:00 PM 14.83 58.694 0.644 7.78 4.12 9.04
9/29/2021 11:45:00 PM 14.81 58.658 0.644 7.78 5.78 9.03
9/30/2021 12:00:00 AM 14.79 58.622 0.643 7.78 4.34 9.02
9/30/2021 12:15:00 AM 14.78 58.604 0.643 7.78 4.35 9
9/30/2021 12:30:00 AM 14.76 58.568 0.643 7.78 3.99 9
9/30/2021 12:45:00 AM 14.74 58.532 0.643 7.78 3.11 8.98
9/30/2021 1:00:00 AM 14.71 58.478 0.643 7.78 3.54 8.99
9/30/2021 1:15:00 AM 14.69 58.442 0.644 7.77 3.4 8.98
9/30/2021 1:30:00 AM 14.67 58.406 0.644 7.77 3.55 8.98
9/30/2021 1:45:00 AM 14.66 58.388 0.644 7.77 3.67 8.97
9/30/2021 2:00:00 AM 14.64 58.352 0.644 7.77 3.25 8.97
9/30/2021 2:15:00 AM 14.63 58.334 0.644 7.76 3.65 8.96
9/30/2021 2:30:00 AM 14.61 58.298 0.644 7.76 3.54 8.95
9/30/2021 2:45:00 AM 14.59 58.262 0.645 7.77 4.33 8.94
9/30/2021 3:00:00 AM 14.58 58.244 0.645 7.76 3.02 8.94
9/30/2021 3:15:00 AM 14.56 58.208 0.644 7.76 2.89 8.94
9/30/2021 3:30:00 AM 14.53 58.154 0.644 7.76 5.3 8.93
9/30/2021 3:45:00 AM 14.5 58.1 0.644 7.77 3.64 8.95
9/30/2021 4:00:00 AM 14.47 58.046 0.644 7.77 4.36 8.95
9/30/2021 4:15:00 AM 14.43 57.974 0.644 7.76 4.15 8.96
9/30/2021 4:30:00 AM 14.4 57.92 0.644 7.76 4.32 8.95
9/30/2021 4:45:00 AM 14.37 57.866 0.644 7.76 5.12 8.96
9/30/2021 5:00:00 AM 14.34 57.812 0.644 7.76 3.44 8.97
9/30/2021 5:15:00 AM 14.3 57.74 0.644 7.75 3.07 8.97
9/30/2021 5:30:00 AM 14.27 57.686 0.644 7.75 3.85 8.98
9/30/2021 5:45:00 AM 14.24 57.632 0.644 7.76 4.51 8.98
9/30/2021 6:00:00 AM 14.21 57.578 0.644 7.76 4.25 8.99
9/30/2021 6:15:00 AM 14.18 57.524 0.644 7.76 3.58 9
9/30/2021 6:30:00 AM 14.17 57.506 0.643 7.76 3.78 9.01
9/30/2021 6:45:00 AM 14.17 57.506 0.646 7.76 5.17 9.02
9/30/2021 7:00:00 AM 14.18 57.524 0.65 7.76 3.9 9.03
9/30/2021 7:15:00 AM 14.17 57.506 0.652 7.76 3.33 9.02
9/30/2021 7:30:00 AM 14.15 57.47 0.653 7.77 2.92 9.05
9/30/2021 7:45:00 AM 14.13 57.434 0.654 7.76 3.42 9.05
9/30/2021 8:00:00 AM 14.1 57.38 0.655 7.76 2.8 9.08
9/30/2021 8:15:00 AM 14.06 57.308 0.655 7.76 2.64 9.11
9/30/2021 8:30:00 AM 14.01 57.218 0.652 7.76 3.35 9.14
9/30/2021 8:45:00 AM 13.97 57.146 0.65 7.76 3.06 9.18
9/30/2021 9:00:00 AM 13.95 57.11 0.648 7.76 2.44 9.23
9/30/2021 9:15:00 AM 13.97 57.146 0.647 7.76 2.2 9.29
9/30/2021 9:30:00 AM 14 57.2 0.647 7.77 2.75 9.35
9/30/2021 9:45:00 AM 14.04 57.272 0.647 7.77 2.92 9.42
9/30/2021 10:00:00 AM 14.09 57.362 0.646 7.78 2.57 9.48
9/30/2021 10:15:00 AM 14.14 57.452 0.646 7.77 3.89 9.54
9/30/2